<?xml version="1.0" encoding="UTF-8" standalone="no" ?>
<gpx xmlns="http://www.topografix.com/GPX/1/1" xmlns:xsi="http://www.w3.org/2001/XMLSchema-instance" xsi:schemaLocation="http://www.topografix.com/GPX/1/1 http://www.topografix.com/GPX/1/1/gpx.xsd" version="1.1" creator="VisuGPX - https://www.visugpx.com">
  <metadata>
    <name>rando des haras nationaux 188 km en 9 étapes</name>
  </metadata>
  <trk>
    <name><![CDATA[rando des haras nationaux 188 km en 9 étapes]]></name>
    <extensions>
      <line xmlns="http://www.topografix.com/GPX/gpx_style/0/2">
        <color>0000FF</color>
        <width>4</width>
      </line>
    </extensions>
    <trkseg>
      <trkpt lat="48.73813" lon="0.14832">
        <ele>225</ele>
        <time>2018-04-08T13:56:30Z</time>
      </trkpt>
      <trkpt lat="48.73802" lon="0.14931">
        <ele>225</ele>
        <time>2018-04-08T13:57:30Z</time>
      </trkpt>
      <trkpt lat="48.73822" lon="0.15025">
        <ele>223</ele>
        <time>2018-04-08T13:58:30Z</time>
      </trkpt>
      <trkpt lat="48.73898" lon="0.15008">
        <ele>222</ele>
        <time>2018-04-08T13:59:30Z</time>
      </trkpt>
      <trkpt lat="48.7389" lon="0.15836">
        <ele>208</ele>
        <time>2018-04-08T14:00:30Z</time>
      </trkpt>
      <trkpt lat="48.74026" lon="0.15673">
        <ele>206</ele>
        <time>2018-04-08T14:01:30Z</time>
      </trkpt>
      <trkpt lat="48.74082" lon="0.1557">
        <ele>216</ele>
        <time>2018-04-08T14:02:30Z</time>
      </trkpt>
      <trkpt lat="48.7421" lon="0.15506">
        <ele>229</ele>
        <time>2018-04-08T14:03:30Z</time>
      </trkpt>
      <trkpt lat="48.74328" lon="0.1545">
        <ele>242</ele>
        <time>2018-04-08T14:04:30Z</time>
      </trkpt>
      <trkpt lat="48.74422" lon="0.15471">
        <ele>246</ele>
        <time>2018-04-08T14:05:30Z</time>
      </trkpt>
      <trkpt lat="48.74555" lon="0.15467">
        <ele>243</ele>
        <time>2018-04-08T14:06:30Z</time>
      </trkpt>
      <trkpt lat="48.74634" lon="0.15381">
        <ele>246</ele>
        <time>2018-04-08T14:07:30Z</time>
      </trkpt>
      <trkpt lat="48.749" lon="0.15025">
        <ele>247</ele>
        <time>2018-04-08T14:08:30Z</time>
      </trkpt>
      <trkpt lat="48.74991" lon="0.14849">
        <ele>246</ele>
        <time>2018-04-08T14:09:30Z</time>
      </trkpt>
      <trkpt lat="48.7522" lon="0.13999">
        <ele>233</ele>
        <time>2018-04-08T14:10:30Z</time>
      </trkpt>
      <trkpt lat="48.7518" lon="0.13909">
        <ele>236</ele>
        <time>2018-04-08T14:11:30Z</time>
      </trkpt>
      <trkpt lat="48.75225" lon="0.13849">
        <ele>227</ele>
        <time>2018-04-08T14:12:30Z</time>
      </trkpt>
      <trkpt lat="48.7537" lon="0.13901">
        <ele>217</ele>
        <time>2018-04-08T14:13:30Z</time>
      </trkpt>
      <trkpt lat="48.75373" lon="0.13596">
        <ele>219</ele>
        <time>2018-04-08T14:14:30Z</time>
      </trkpt>
      <trkpt lat="48.75602" lon="0.13287">
        <ele>209</ele>
        <time>2018-04-08T14:15:30Z</time>
      </trkpt>
      <trkpt lat="48.75681" lon="0.13115">
        <ele>206</ele>
        <time>2018-04-08T14:16:30Z</time>
      </trkpt>
      <trkpt lat="48.75876" lon="0.12982">
        <ele>191</ele>
        <time>2018-04-08T14:17:30Z</time>
      </trkpt>
      <trkpt lat="48.75955" lon="0.12858">
        <ele>187</ele>
        <time>2018-04-08T14:18:30Z</time>
      </trkpt>
      <trkpt lat="48.76015" lon="0.12759">
        <ele>185</ele>
        <time>2018-04-08T14:19:30Z</time>
      </trkpt>
      <trkpt lat="48.76261" lon="0.12536">
        <ele>176</ele>
        <time>2018-04-08T14:20:30Z</time>
      </trkpt>
      <trkpt lat="48.76479" lon="0.12424">
        <ele>165</ele>
        <time>2018-04-08T14:21:30Z</time>
      </trkpt>
      <trkpt lat="48.7668" lon="0.12296">
        <ele>155</ele>
        <time>2018-04-08T14:22:30Z</time>
      </trkpt>
      <trkpt lat="48.76784" lon="0.12167">
        <ele>150</ele>
        <time>2018-04-08T14:23:30Z</time>
      </trkpt>
      <trkpt lat="48.76931" lon="0.12205">
        <ele>146</ele>
        <time>2018-04-08T14:24:30Z</time>
      </trkpt>
      <trkpt lat="48.76846" lon="0.12034">
        <ele>147</ele>
        <time>2018-04-08T14:25:30Z</time>
      </trkpt>
      <trkpt lat="48.76705" lon="0.11879">
        <ele>153</ele>
        <time>2018-04-08T14:26:30Z</time>
      </trkpt>
      <trkpt lat="48.76747" lon="0.11652">
        <ele>155</ele>
        <time>2018-04-08T14:27:30Z</time>
      </trkpt>
      <trkpt lat="48.76617" lon="0.11536">
        <ele>166</ele>
        <time>2018-04-08T14:28:30Z</time>
      </trkpt>
      <trkpt lat="48.76663" lon="0.11248">
        <ele>165</ele>
        <time>2018-04-08T14:29:30Z</time>
      </trkpt>
      <trkpt lat="48.76583" lon="0.11111">
        <ele>167</ele>
        <time>2018-04-08T14:30:30Z</time>
      </trkpt>
      <trkpt lat="48.76603" lon="0.11008">
        <ele>168</ele>
        <time>2018-04-08T14:31:30Z</time>
      </trkpt>
      <trkpt lat="48.76547" lon="0.10948">
        <ele>170</ele>
        <time>2018-04-08T14:32:30Z</time>
      </trkpt>
      <trkpt lat="48.76527" lon="0.10879">
        <ele>175</ele>
        <time>2018-04-08T14:33:30Z</time>
      </trkpt>
      <trkpt lat="48.76272" lon="0.10588">
        <ele>198</ele>
        <time>2018-04-08T14:34:30Z</time>
      </trkpt>
      <trkpt lat="48.7617" lon="0.106">
        <ele>202</ele>
        <time>2018-04-08T14:35:30Z</time>
      </trkpt>
      <trkpt lat="48.76131" lon="0.10545">
        <ele>204</ele>
        <time>2018-04-08T14:36:30Z</time>
      </trkpt>
      <trkpt lat="48.76467" lon="0.10351">
        <ele>200</ele>
        <time>2018-04-08T14:37:30Z</time>
      </trkpt>
      <trkpt lat="48.76657" lon="0.1051">
        <ele>191</ele>
        <time>2018-04-08T14:38:30Z</time>
      </trkpt>
      <trkpt lat="48.76685" lon="0.10377">
        <ele>190</ele>
        <time>2018-04-08T14:39:30Z</time>
      </trkpt>
      <trkpt lat="48.76631" lon="0.10334">
        <ele>193</ele>
        <time>2018-04-08T14:40:30Z</time>
      </trkpt>
      <trkpt lat="48.76337" lon="0.09609">
        <ele>224</ele>
        <time>2018-04-08T14:41:30Z</time>
      </trkpt>
      <trkpt lat="48.76351" lon="0.09502">
        <ele>226</ele>
        <time>2018-04-08T14:42:30Z</time>
      </trkpt>
      <trkpt lat="48.76535" lon="0.0927">
        <ele>231</ele>
        <time>2018-04-08T14:43:30Z</time>
      </trkpt>
      <trkpt lat="48.77288" lon="0.06935">
        <ele>226</ele>
        <time>2018-04-08T14:44:30Z</time>
      </trkpt>
      <trkpt lat="48.7645" lon="0.04451">
        <ele>225</ele>
        <time>2018-04-08T14:45:30Z</time>
      </trkpt>
      <trkpt lat="48.76269" lon="0.04438">
        <ele>234</ele>
        <time>2018-04-08T14:46:30Z</time>
      </trkpt>
      <trkpt lat="48.76312" lon="0.04313">
        <ele>232</ele>
        <time>2018-04-08T14:47:30Z</time>
      </trkpt>
      <trkpt lat="48.76306" lon="0.04142">
        <ele>240</ele>
        <time>2018-04-08T14:48:30Z</time>
      </trkpt>
      <trkpt lat="48.76388" lon="0.03983">
        <ele>240</ele>
        <time>2018-04-08T14:49:30Z</time>
      </trkpt>
      <trkpt lat="48.76425" lon="0.03876">
        <ele>238</ele>
        <time>2018-04-08T14:50:30Z</time>
      </trkpt>
      <trkpt lat="48.76493" lon="0.03773">
        <ele>240</ele>
        <time>2018-04-08T14:51:30Z</time>
      </trkpt>
      <trkpt lat="48.76515" lon="0.0364">
        <ele>240</ele>
        <time>2018-04-08T14:52:30Z</time>
      </trkpt>
      <trkpt lat="48.76688" lon="0.03421">
        <ele>245</ele>
        <time>2018-04-08T14:53:30Z</time>
      </trkpt>
      <trkpt lat="48.76801" lon="0.03253">
        <ele>247</ele>
        <time>2018-04-08T14:54:30Z</time>
      </trkpt>
      <trkpt lat="48.76762" lon="0.03155">
        <ele>239</ele>
        <time>2018-04-08T14:55:30Z</time>
      </trkpt>
      <trkpt lat="48.76521" lon="0.02721">
        <ele>214</ele>
        <time>2018-04-08T14:56:30Z</time>
      </trkpt>
      <trkpt lat="48.7662" lon="0.02571">
        <ele>205</ele>
        <time>2018-04-08T14:57:30Z</time>
      </trkpt>
      <trkpt lat="48.76708" lon="0.02511">
        <ele>199</ele>
        <time>2018-04-08T14:58:30Z</time>
      </trkpt>
      <trkpt lat="48.76776" lon="0.02163">
        <ele>188</ele>
        <time>2018-04-08T14:59:30Z</time>
      </trkpt>
      <trkpt lat="48.7675" lon="0.01919">
        <ele>185</ele>
        <time>2018-04-08T15:00:30Z</time>
      </trkpt>
      <trkpt lat="48.76699" lon="0.01897">
        <ele>184</ele>
        <time>2018-04-08T15:01:30Z</time>
      </trkpt>
      <trkpt lat="48.76651" lon="0.01558">
        <ele>179</ele>
        <time>2018-04-08T15:02:30Z</time>
      </trkpt>
      <trkpt lat="48.76612" lon="0.01356">
        <ele>176</ele>
        <time>2018-04-08T15:03:30Z</time>
      </trkpt>
      <trkpt lat="48.76716" lon="0.0088">
        <ele>179</ele>
        <time>2018-04-08T15:04:30Z</time>
      </trkpt>
      <trkpt lat="48.76796" lon="0.00605">
        <ele>184</ele>
        <time>2018-04-08T15:05:30Z</time>
      </trkpt>
      <trkpt lat="48.76623" lon="0.00485">
        <ele>188</ele>
        <time>2018-04-08T15:06:30Z</time>
      </trkpt>
      <trkpt lat="48.76513" lon="0.00387">
        <ele>190</ele>
        <time>2018-04-08T15:07:30Z</time>
      </trkpt>
      <trkpt lat="48.76425" lon="0.00228">
        <ele>189</ele>
        <time>2018-04-08T15:08:30Z</time>
      </trkpt>
      <trkpt lat="48.76199" lon="-0.00094">
        <ele>188</ele>
        <time>2018-04-08T15:09:30Z</time>
      </trkpt>
      <trkpt lat="48.75981" lon="-0.00279">
        <ele>183</ele>
        <time>2018-04-08T15:10:30Z</time>
      </trkpt>
      <trkpt lat="48.7582" lon="-0.00532">
        <ele>181</ele>
        <time>2018-04-08T15:11:30Z</time>
      </trkpt>
      <trkpt lat="48.75596" lon="-0.00884">
        <ele>174</ele>
        <time>2018-04-08T15:12:30Z</time>
      </trkpt>
      <trkpt lat="48.75624" lon="-0.00931">
        <ele>176</ele>
        <time>2018-04-08T15:13:30Z</time>
      </trkpt>
      <trkpt lat="48.75769" lon="-0.01261">
        <ele>186</ele>
        <time>2018-04-08T15:14:30Z</time>
      </trkpt>
      <trkpt lat="48.75333" lon="-0.01888">
        <ele>178</ele>
        <time>2018-04-08T15:15:30Z</time>
      </trkpt>
      <trkpt lat="48.75715" lon="-0.01772">
        <ele>177</ele>
        <time>2018-04-08T15:16:30Z</time>
      </trkpt>
      <trkpt lat="48.75822" lon="-0.01794">
        <ele>179</ele>
        <time>2018-04-08T15:17:30Z</time>
      </trkpt>
      <trkpt lat="48.75936" lon="-0.01691">
        <ele>180</ele>
        <time>2018-04-08T15:18:30Z</time>
      </trkpt>
      <trkpt lat="48.76046" lon="-0.01673">
        <ele>182</ele>
        <time>2018-04-08T15:19:30Z</time>
      </trkpt>
      <trkpt lat="48.7623" lon="-0.01794">
        <ele>184</ele>
        <time>2018-04-08T15:20:30Z</time>
      </trkpt>
      <trkpt lat="48.75972" lon="-0.02755">
        <ele>182</ele>
        <time>2018-04-08T15:21:30Z</time>
      </trkpt>
      <trkpt lat="48.76074" lon="-0.02802">
        <ele>184</ele>
        <time>2018-04-08T15:22:30Z</time>
      </trkpt>
      <trkpt lat="48.76156" lon="-0.02759">
        <ele>187</ele>
        <time>2018-04-08T15:23:30Z</time>
      </trkpt>
      <trkpt lat="48.76063" lon="-0.03081">
        <ele>183</ele>
        <time>2018-04-08T15:24:30Z</time>
      </trkpt>
      <trkpt lat="48.76456" lon="-0.03334">
        <ele>171</ele>
        <time>2018-04-08T15:25:30Z</time>
      </trkpt>
      <trkpt lat="48.76578" lon="-0.0342">
        <ele>169</ele>
        <time>2018-04-08T15:26:30Z</time>
      </trkpt>
      <trkpt lat="48.76708" lon="-0.03399">
        <ele>170</ele>
        <time>2018-04-08T15:27:30Z</time>
      </trkpt>
      <trkpt lat="48.76909" lon="-0.03566">
        <ele>178</ele>
        <time>2018-04-08T15:28:30Z</time>
      </trkpt>
      <trkpt lat="48.77175" lon="-0.03806">
        <ele>181</ele>
        <time>2018-04-08T15:29:30Z</time>
      </trkpt>
      <trkpt lat="48.77633" lon="-0.04064">
        <ele>175</ele>
        <time>2018-04-08T15:30:30Z</time>
      </trkpt>
      <trkpt lat="48.77576" lon="-0.04257">
        <ele>177</ele>
        <time>2018-04-08T15:31:30Z</time>
      </trkpt>
      <trkpt lat="48.77336" lon="-0.04549">
        <ele>173</ele>
        <time>2018-04-08T15:32:30Z</time>
      </trkpt>
      <trkpt lat="48.77146" lon="-0.04609">
        <ele>168</ele>
        <time>2018-04-08T15:33:30Z</time>
      </trkpt>
      <trkpt lat="48.76923" lon="-0.04811">
        <ele>167</ele>
        <time>2018-04-08T15:34:30Z</time>
      </trkpt>
      <trkpt lat="48.76643" lon="-0.04944">
        <ele>171</ele>
        <time>2018-04-08T15:35:30Z</time>
      </trkpt>
      <trkpt lat="48.76532" lon="-0.05034">
        <ele>170</ele>
        <time>2018-04-08T15:36:30Z</time>
      </trkpt>
      <trkpt lat="48.76501" lon="-0.05008">
        <ele>172</ele>
        <time>2018-04-08T15:37:30Z</time>
      </trkpt>
      <trkpt lat="48.76329" lon="-0.05253">
        <ele>167</ele>
        <time>2018-04-08T15:38:30Z</time>
      </trkpt>
      <trkpt lat="48.76272" lon="-0.0539">
        <ele>166</ele>
        <time>2018-04-08T15:39:30Z</time>
      </trkpt>
      <trkpt lat="48.76139" lon="-0.05634">
        <ele>162</ele>
        <time>2018-04-08T15:40:30Z</time>
      </trkpt>
      <trkpt lat="48.76145" lon="-0.0584">
        <ele>162</ele>
        <time>2018-04-08T15:41:30Z</time>
      </trkpt>
      <trkpt lat="48.75984" lon="-0.066">
        <ele>160</ele>
        <time>2018-04-08T15:42:30Z</time>
      </trkpt>
      <trkpt lat="48.75984" lon="-0.06729">
        <ele>160</ele>
        <time>2018-04-08T15:43:30Z</time>
      </trkpt>
      <trkpt lat="48.7589" lon="-0.06913">
        <ele>158</ele>
        <time>2018-04-08T15:44:30Z</time>
      </trkpt>
      <trkpt lat="48.75865" lon="-0.07111">
        <ele>160</ele>
        <time>2018-04-08T15:45:30Z</time>
      </trkpt>
      <trkpt lat="48.75817" lon="-0.07274">
        <ele>160</ele>
        <time>2018-04-08T15:46:30Z</time>
      </trkpt>
      <trkpt lat="48.75746" lon="-0.07278">
        <ele>160</ele>
        <time>2018-04-08T15:47:30Z</time>
      </trkpt>
      <trkpt lat="48.75658" lon="-0.07549">
        <ele>165</ele>
        <time>2018-04-08T15:48:30Z</time>
      </trkpt>
      <trkpt lat="48.76035" lon="-0.07746">
        <ele>166</ele>
        <time>2018-04-08T15:49:30Z</time>
      </trkpt>
      <trkpt lat="48.76069" lon="-0.07815">
        <ele>167</ele>
        <time>2018-04-08T15:50:30Z</time>
      </trkpt>
      <trkpt lat="48.75967" lon="-0.07905">
        <ele>169</ele>
        <time>2018-04-08T15:51:30Z</time>
      </trkpt>
      <trkpt lat="48.75859" lon="-0.08248">
        <ele>174</ele>
        <time>2018-04-08T15:52:30Z</time>
      </trkpt>
      <trkpt lat="48.75721" lon="-0.0887">
        <ele>177</ele>
        <time>2018-04-08T15:53:30Z</time>
      </trkpt>
      <trkpt lat="48.75684" lon="-0.09145">
        <ele>178</ele>
        <time>2018-04-08T15:54:30Z</time>
      </trkpt>
      <trkpt lat="48.75633" lon="-0.0972">
        <ele>179</ele>
        <time>2018-04-08T15:55:30Z</time>
      </trkpt>
      <trkpt lat="48.75661" lon="-0.09995">
        <ele>184</ele>
        <time>2018-04-08T15:56:30Z</time>
      </trkpt>
      <trkpt lat="48.75667" lon="-0.10415">
        <ele>188</ele>
        <time>2018-04-08T15:57:30Z</time>
      </trkpt>
      <trkpt lat="48.75659" lon="-0.10509">
        <ele>189</ele>
        <time>2018-04-08T15:58:30Z</time>
      </trkpt>
      <trkpt lat="48.75627" lon="-0.11076">
        <ele>201</ele>
        <time>2018-04-08T15:59:30Z</time>
      </trkpt>
      <trkpt lat="48.75534" lon="-0.11668">
        <ele>208</ele>
        <time>2018-04-08T16:00:30Z</time>
      </trkpt>
      <trkpt lat="48.75556" lon="-0.11866">
        <ele>209</ele>
        <time>2018-04-08T16:01:30Z</time>
      </trkpt>
      <trkpt lat="48.75551" lon="-0.11947">
        <ele>209</ele>
        <time>2018-04-08T16:02:30Z</time>
      </trkpt>
      <trkpt lat="48.75588" lon="-0.12012">
        <ele>209</ele>
        <time>2018-04-08T16:03:30Z</time>
      </trkpt>
      <trkpt lat="48.75571" lon="-0.12222">
        <ele>211</ele>
        <time>2018-04-08T16:04:30Z</time>
      </trkpt>
      <trkpt lat="48.75568" lon="-0.12471">
        <ele>214</ele>
        <time>2018-04-08T16:05:30Z</time>
      </trkpt>
      <trkpt lat="48.75605" lon="-0.12613">
        <ele>219</ele>
        <time>2018-04-08T16:06:30Z</time>
      </trkpt>
      <trkpt lat="48.75735" lon="-0.1281">
        <ele>212</ele>
        <time>2018-04-08T16:07:30Z</time>
      </trkpt>
      <trkpt lat="48.75783" lon="-0.12969">
        <ele>215</ele>
        <time>2018-04-08T16:08:30Z</time>
      </trkpt>
      <trkpt lat="48.75989" lon="-0.13085">
        <ele>217</ele>
        <time>2018-04-08T16:09:30Z</time>
      </trkpt>
      <trkpt lat="48.76001" lon="-0.13458">
        <ele>215</ele>
        <time>2018-04-08T16:10:30Z</time>
      </trkpt>
      <trkpt lat="48.75873" lon="-0.13462">
        <ele>224</ele>
        <time>2018-04-08T16:11:30Z</time>
      </trkpt>
      <trkpt lat="48.75862" lon="-0.13565">
        <ele>226</ele>
        <time>2018-04-08T16:12:30Z</time>
      </trkpt>
      <trkpt lat="48.75622" lon="-0.13797">
        <ele>237</ele>
        <time>2018-04-08T16:13:30Z</time>
      </trkpt>
      <trkpt lat="48.75288" lon="-0.13874">
        <ele>235</ele>
        <time>2018-04-08T16:14:30Z</time>
      </trkpt>
      <trkpt lat="48.7522" lon="-0.14153">
        <ele>238</ele>
        <time>2018-04-08T16:15:30Z</time>
      </trkpt>
      <trkpt lat="48.75333" lon="-0.14539">
        <ele>236</ele>
        <time>2018-04-08T16:16:30Z</time>
      </trkpt>
      <trkpt lat="48.75517" lon="-0.1493">
        <ele>234</ele>
        <time>2018-04-08T16:17:30Z</time>
      </trkpt>
      <trkpt lat="48.75706" lon="-0.15046">
        <ele>223</ele>
        <time>2018-04-08T16:18:30Z</time>
      </trkpt>
      <trkpt lat="48.75805" lon="-0.15149">
        <ele>212</ele>
        <time>2018-04-08T16:19:30Z</time>
      </trkpt>
      <trkpt lat="48.75919" lon="-0.15235">
        <ele>205</ele>
        <time>2018-04-08T16:20:30Z</time>
      </trkpt>
      <trkpt lat="48.76054" lon="-0.15393">
        <ele>189</ele>
        <time>2018-04-08T16:21:30Z</time>
      </trkpt>
      <trkpt lat="48.76088" lon="-0.15359">
        <ele>188</ele>
        <time>2018-04-08T16:22:30Z</time>
      </trkpt>
      <trkpt lat="48.76145" lon="-0.15445">
        <ele>192</ele>
        <time>2018-04-08T16:23:30Z</time>
      </trkpt>
      <trkpt lat="48.76298" lon="-0.15587">
        <ele>198</ele>
        <time>2018-04-08T16:24:30Z</time>
      </trkpt>
      <trkpt lat="48.76476" lon="-0.15582">
        <ele>204</ele>
        <time>2018-04-08T16:25:30Z</time>
      </trkpt>
      <trkpt lat="48.76572" lon="-0.1566">
        <ele>205</ele>
        <time>2018-04-08T16:26:30Z</time>
      </trkpt>
      <trkpt lat="48.7653" lon="-0.15921">
        <ele>210</ele>
        <time>2018-04-08T16:27:30Z</time>
      </trkpt>
      <trkpt lat="48.76541" lon="-0.16063">
        <ele>212</ele>
        <time>2018-04-08T16:28:30Z</time>
      </trkpt>
      <trkpt lat="48.76366" lon="-0.16192">
        <ele>219</ele>
        <time>2018-04-08T16:29:30Z</time>
      </trkpt>
      <trkpt lat="48.7621" lon="-0.16754">
        <ele>219</ele>
        <time>2018-04-08T16:30:30Z</time>
      </trkpt>
      <trkpt lat="48.76193" lon="-0.1696">
        <ele>218</ele>
        <time>2018-04-08T16:31:30Z</time>
      </trkpt>
      <trkpt lat="48.7606" lon="-0.17187">
        <ele>231</ele>
        <time>2018-04-08T16:32:30Z</time>
      </trkpt>
      <trkpt lat="48.75975" lon="-0.17273">
        <ele>231</ele>
        <time>2018-04-08T16:33:30Z</time>
      </trkpt>
      <trkpt lat="48.75958" lon="-0.17509">
        <ele>234</ele>
        <time>2018-04-08T16:34:30Z</time>
      </trkpt>
      <trkpt lat="48.76043" lon="-0.17608">
        <ele>236</ele>
        <time>2018-04-08T16:35:30Z</time>
      </trkpt>
      <trkpt lat="48.75678" lon="-0.17681">
        <ele>207</ele>
        <time>2018-04-08T16:36:30Z</time>
      </trkpt>
      <trkpt lat="48.75579" lon="-0.17672">
        <ele>203</ele>
        <time>2018-04-08T16:37:30Z</time>
      </trkpt>
      <trkpt lat="48.75667" lon="-0.17934">
        <ele>196</ele>
        <time>2018-04-08T16:38:30Z</time>
      </trkpt>
      <trkpt lat="48.75653" lon="-0.1811">
        <ele>193</ele>
        <time>2018-04-08T16:39:30Z</time>
      </trkpt>
      <trkpt lat="48.75723" lon="-0.18196">
        <ele>199</ele>
        <time>2018-04-08T16:40:30Z</time>
      </trkpt>
      <trkpt lat="48.75701" lon="-0.18372">
        <ele>196</ele>
        <time>2018-04-08T16:41:30Z</time>
      </trkpt>
      <trkpt lat="48.75723" lon="-0.18565">
        <ele>198</ele>
        <time>2018-04-08T16:42:30Z</time>
      </trkpt>
      <trkpt lat="48.75687" lon="-0.18634">
        <ele>188</ele>
        <time>2018-04-08T16:43:30Z</time>
      </trkpt>
      <trkpt lat="48.75667" lon="-0.18754">
        <ele>177</ele>
        <time>2018-04-08T16:44:30Z</time>
      </trkpt>
      <trkpt lat="48.75503" lon="-0.18848">
        <ele>148</ele>
        <time>2018-04-08T16:45:30Z</time>
      </trkpt>
      <trkpt lat="48.75554" lon="-0.18947">
        <ele>154</ele>
        <time>2018-04-08T16:46:30Z</time>
      </trkpt>
      <trkpt lat="48.7565" lon="-0.19046">
        <ele>160</ele>
        <time>2018-04-08T16:47:30Z</time>
      </trkpt>
      <trkpt lat="48.75769" lon="-0.19406">
        <ele>175</ele>
        <time>2018-04-08T16:48:30Z</time>
      </trkpt>
      <trkpt lat="48.7578" lon="-0.19655">
        <ele>188</ele>
        <time>2018-04-08T16:49:30Z</time>
      </trkpt>
      <trkpt lat="48.75958" lon="-0.19578">
        <ele>199</ele>
        <time>2018-04-08T16:50:30Z</time>
      </trkpt>
      <trkpt lat="48.76148" lon="-0.19972">
        <ele>217</ele>
        <time>2018-04-08T16:51:30Z</time>
      </trkpt>
      <trkpt lat="48.76402" lon="-0.19792">
        <ele>231</ele>
        <time>2018-04-08T16:52:30Z</time>
      </trkpt>
      <trkpt lat="48.76397" lon="-0.19689">
        <ele>232</ele>
        <time>2018-04-08T16:53:30Z</time>
      </trkpt>
      <trkpt lat="48.7647" lon="-0.19569">
        <ele>235</ele>
        <time>2018-04-08T16:54:30Z</time>
      </trkpt>
      <trkpt lat="48.76552" lon="-0.19612">
        <ele>234</ele>
        <time>2018-04-08T16:55:30Z</time>
      </trkpt>
      <trkpt lat="48.76629" lon="-0.19728">
        <ele>225</ele>
        <time>2018-04-08T16:56:30Z</time>
      </trkpt>
      <trkpt lat="48.76793" lon="-0.19625">
        <ele>224</ele>
        <time>2018-04-08T16:57:30Z</time>
      </trkpt>
      <trkpt lat="48.76945" lon="-0.19573">
        <ele>231</ele>
        <time>2018-04-08T16:58:30Z</time>
      </trkpt>
      <trkpt lat="48.77274" lon="-0.19797">
        <ele>234</ele>
        <time>2018-04-08T16:59:30Z</time>
      </trkpt>
      <trkpt lat="48.77392" lon="-0.19848">
        <ele>228</ele>
        <time>2018-04-08T17:00:30Z</time>
      </trkpt>
      <trkpt lat="48.77375" lon="-0.19977">
        <ele>231</ele>
        <time>2018-04-08T17:01:30Z</time>
      </trkpt>
      <trkpt lat="48.77471" lon="-0.19981">
        <ele>226</ele>
        <time>2018-04-08T17:02:30Z</time>
      </trkpt>
      <trkpt lat="48.77469" lon="-0.2011">
        <ele>228</ele>
        <time>2018-04-08T17:03:30Z</time>
      </trkpt>
      <trkpt lat="48.7746" lon="-0.20221">
        <ele>229</ele>
        <time>2018-04-08T17:04:30Z</time>
      </trkpt>
      <trkpt lat="48.77483" lon="-0.20294">
        <ele>229</ele>
        <time>2018-04-08T17:05:30Z</time>
      </trkpt>
      <trkpt lat="48.77466" lon="-0.20346">
        <ele>231</ele>
        <time>2018-04-08T17:06:30Z</time>
      </trkpt>
      <trkpt lat="48.77517" lon="-0.20749">
        <ele>238</ele>
        <time>2018-04-08T17:07:30Z</time>
      </trkpt>
      <trkpt lat="48.77494" lon="-0.20972">
        <ele>241</ele>
        <time>2018-04-08T17:08:30Z</time>
      </trkpt>
      <trkpt lat="48.77421" lon="-0.21208">
        <ele>245</ele>
        <time>2018-04-08T17:09:30Z</time>
      </trkpt>
      <trkpt lat="48.77497" lon="-0.21277">
        <ele>243</ele>
        <time>2018-04-08T17:10:30Z</time>
      </trkpt>
      <trkpt lat="48.77554" lon="-0.21758">
        <ele>236</ele>
        <time>2018-04-08T17:11:30Z</time>
      </trkpt>
      <trkpt lat="48.77514" lon="-0.21938">
        <ele>234</ele>
        <time>2018-04-08T17:12:30Z</time>
      </trkpt>
      <trkpt lat="48.77514" lon="-0.22071">
        <ele>232</ele>
        <time>2018-04-08T17:13:30Z</time>
      </trkpt>
      <trkpt lat="48.77474" lon="-0.22371">
        <ele>220</ele>
        <time>2018-04-08T17:14:30Z</time>
      </trkpt>
      <trkpt lat="48.7744" lon="-0.22466">
        <ele>216</ele>
        <time>2018-04-08T17:15:30Z</time>
      </trkpt>
      <trkpt lat="48.77449" lon="-0.22612">
        <ele>210</ele>
        <time>2018-04-08T17:16:30Z</time>
      </trkpt>
      <trkpt lat="48.77401" lon="-0.22693">
        <ele>205</ele>
        <time>2018-04-08T17:17:30Z</time>
      </trkpt>
      <trkpt lat="48.77392" lon="-0.22758">
        <ele>200</ele>
        <time>2018-04-08T17:18:30Z</time>
      </trkpt>
      <trkpt lat="48.77452" lon="-0.22822">
        <ele>198</ele>
        <time>2018-04-08T17:19:30Z</time>
      </trkpt>
      <trkpt lat="48.77483" lon="-0.22895">
        <ele>196</ele>
        <time>2018-04-08T17:20:30Z</time>
      </trkpt>
      <trkpt lat="48.77636" lon="-0.22912">
        <ele>211</ele>
        <time>2018-04-08T17:21:30Z</time>
      </trkpt>
      <trkpt lat="48.77681" lon="-0.23097">
        <ele>210</ele>
        <time>2018-04-08T17:22:30Z</time>
      </trkpt>
      <trkpt lat="48.77771" lon="-0.23131">
        <ele>214</ele>
        <time>2018-04-08T17:23:30Z</time>
      </trkpt>
      <trkpt lat="48.77743" lon="-0.23178">
        <ele>216</ele>
        <time>2018-04-08T17:24:30Z</time>
      </trkpt>
      <trkpt lat="48.77924" lon="-0.23234">
        <ele>220</ele>
        <time>2018-04-08T17:25:30Z</time>
      </trkpt>
      <trkpt lat="48.78048" lon="-0.23243">
        <ele>220</ele>
        <time>2018-04-08T17:26:30Z</time>
      </trkpt>
      <trkpt lat="48.78147" lon="-0.23178">
        <ele>221</ele>
        <time>2018-04-08T17:27:30Z</time>
      </trkpt>
      <trkpt lat="48.78173" lon="-0.23359">
        <ele>221</ele>
        <time>2018-04-08T17:28:30Z</time>
      </trkpt>
      <trkpt lat="48.78244" lon="-0.2371">
        <ele>218</ele>
        <time>2018-04-08T17:29:30Z</time>
      </trkpt>
      <trkpt lat="48.78359" lon="-0.242">
        <ele>210</ele>
        <time>2018-04-08T17:30:30Z</time>
      </trkpt>
      <trkpt lat="48.78416" lon="-0.24277">
        <ele>211</ele>
        <time>2018-04-08T17:31:30Z</time>
      </trkpt>
      <trkpt lat="48.78351" lon="-0.24367">
        <ele>208</ele>
        <time>2018-04-08T17:32:30Z</time>
      </trkpt>
      <trkpt lat="48.78326" lon="-0.24547">
        <ele>206</ele>
        <time>2018-04-08T17:33:30Z</time>
      </trkpt>
      <trkpt lat="48.78507" lon="-0.24522">
        <ele>213</ele>
        <time>2018-04-08T17:34:30Z</time>
      </trkpt>
      <trkpt lat="48.78391" lon="-0.25363">
        <ele>208</ele>
        <time>2018-04-08T17:35:30Z</time>
      </trkpt>
      <trkpt lat="48.78198" lon="-0.25479">
        <ele>206</ele>
        <time>2018-04-08T17:36:30Z</time>
      </trkpt>
      <trkpt lat="48.78125" lon="-0.25453">
        <ele>207</ele>
        <time>2018-04-08T17:37:30Z</time>
      </trkpt>
      <trkpt lat="48.78046" lon="-0.25517">
        <ele>207</ele>
        <time>2018-04-08T17:38:30Z</time>
      </trkpt>
      <trkpt lat="48.78405" lon="-0.26157">
        <ele>207</ele>
        <time>2018-04-08T17:39:30Z</time>
      </trkpt>
      <trkpt lat="48.78566" lon="-0.26478">
        <ele>206</ele>
        <time>2018-04-08T17:40:30Z</time>
      </trkpt>
      <trkpt lat="48.7843" lon="-0.2671">
        <ele>195</ele>
        <time>2018-04-08T17:41:30Z</time>
      </trkpt>
      <trkpt lat="48.78232" lon="-0.26899">
        <ele>180</ele>
        <time>2018-04-08T17:42:30Z</time>
      </trkpt>
      <trkpt lat="48.78255" lon="-0.26959">
        <ele>177</ele>
        <time>2018-04-08T17:43:30Z</time>
      </trkpt>
      <trkpt lat="48.78156" lon="-0.27157">
        <ele>164</ele>
        <time>2018-04-08T17:44:30Z</time>
      </trkpt>
      <trkpt lat="48.78139" lon="-0.27311">
        <ele>162</ele>
        <time>2018-04-08T17:45:30Z</time>
      </trkpt>
      <trkpt lat="48.78074" lon="-0.27478">
        <ele>156</ele>
        <time>2018-04-08T17:46:30Z</time>
      </trkpt>
      <trkpt lat="48.77989" lon="-0.27508">
        <ele>148</ele>
        <time>2018-04-08T17:47:30Z</time>
      </trkpt>
      <trkpt lat="48.77947" lon="-0.27573">
        <ele>142</ele>
        <time>2018-04-08T17:48:30Z</time>
      </trkpt>
      <trkpt lat="48.78009" lon="-0.27646">
        <ele>141</ele>
        <time>2018-04-08T17:49:30Z</time>
      </trkpt>
      <trkpt lat="48.7806" lon="-0.2786">
        <ele>140</ele>
        <time>2018-04-08T17:50:30Z</time>
      </trkpt>
      <trkpt lat="48.7804" lon="-0.27968">
        <ele>137</ele>
        <time>2018-04-08T17:51:30Z</time>
      </trkpt>
      <trkpt lat="48.78244" lon="-0.28298">
        <ele>138</ele>
        <time>2018-04-08T17:52:30Z</time>
      </trkpt>
      <trkpt lat="48.78292" lon="-0.28362">
        <ele>140</ele>
        <time>2018-04-08T17:53:30Z</time>
      </trkpt>
      <trkpt lat="48.78326" lon="-0.28504">
        <ele>130</ele>
        <time>2018-04-08T17:54:30Z</time>
      </trkpt>
      <trkpt lat="48.78176" lon="-0.28659">
        <ele>133</ele>
        <time>2018-04-08T17:55:30Z</time>
      </trkpt>
      <trkpt lat="48.78046" lon="-0.28629">
        <ele>141</ele>
        <time>2018-04-08T17:56:30Z</time>
      </trkpt>
      <trkpt lat="48.77941" lon="-0.28843">
        <ele>162</ele>
        <time>2018-04-08T17:57:30Z</time>
      </trkpt>
      <trkpt lat="48.78012" lon="-0.28903">
        <ele>164</ele>
        <time>2018-04-08T17:58:30Z</time>
      </trkpt>
      <trkpt lat="48.7806" lon="-0.29418">
        <ele>180</ele>
        <time>2018-04-08T17:59:30Z</time>
      </trkpt>
      <trkpt lat="48.78012" lon="-0.29684">
        <ele>191</ele>
        <time>2018-04-08T18:00:30Z</time>
      </trkpt>
      <trkpt lat="48.77856" lon="-0.30049">
        <ele>181</ele>
        <time>2018-04-08T18:01:30Z</time>
      </trkpt>
      <trkpt lat="48.77856" lon="-0.30246">
        <ele>179</ele>
        <time>2018-04-08T18:02:30Z</time>
      </trkpt>
      <trkpt lat="48.77737" lon="-0.31062">
        <ele>153</ele>
        <time>2018-04-08T18:03:30Z</time>
      </trkpt>
      <trkpt lat="48.77941" lon="-0.31165">
        <ele>156</ele>
        <time>2018-04-08T18:04:30Z</time>
      </trkpt>
      <trkpt lat="48.78091" lon="-0.3107">
        <ele>173</ele>
        <time>2018-04-08T18:05:30Z</time>
      </trkpt>
      <trkpt lat="48.78269" lon="-0.30843">
        <ele>170</ele>
        <time>2018-04-08T18:06:30Z</time>
      </trkpt>
      <trkpt lat="48.78388" lon="-0.3083">
        <ele>176</ele>
        <time>2018-04-08T18:07:30Z</time>
      </trkpt>
      <trkpt lat="48.78549" lon="-0.31023">
        <ele>191</ele>
        <time>2018-04-08T18:08:30Z</time>
      </trkpt>
      <trkpt lat="48.78639" lon="-0.31058">
        <ele>192</ele>
        <time>2018-04-08T18:09:30Z</time>
      </trkpt>
      <trkpt lat="48.78654" lon="-0.31126">
        <ele>192</ele>
        <time>2018-04-08T18:10:30Z</time>
      </trkpt>
      <trkpt lat="48.7862" lon="-0.31143">
        <ele>193</ele>
        <time>2018-04-08T18:11:30Z</time>
      </trkpt>
      <trkpt lat="48.78781" lon="-0.31212">
        <ele>171</ele>
        <time>2018-04-08T18:12:30Z</time>
      </trkpt>
      <trkpt lat="48.79103" lon="-0.31161">
        <ele>160</ele>
        <time>2018-04-08T18:13:30Z</time>
      </trkpt>
      <trkpt lat="48.79219" lon="-0.31126">
        <ele>162</ele>
        <time>2018-04-08T18:14:30Z</time>
      </trkpt>
      <trkpt lat="48.79309" lon="-0.31221">
        <ele>159</ele>
        <time>2018-04-08T18:15:30Z</time>
      </trkpt>
      <trkpt lat="48.79391" lon="-0.31208">
        <ele>158</ele>
        <time>2018-04-08T18:16:30Z</time>
      </trkpt>
      <trkpt lat="48.79533" lon="-0.31332">
        <ele>141</ele>
        <time>2018-04-08T18:17:30Z</time>
      </trkpt>
      <trkpt lat="48.79646" lon="-0.31203">
        <ele>116</ele>
        <time>2018-04-08T18:18:30Z</time>
      </trkpt>
      <trkpt lat="48.79767" lon="-0.31401">
        <ele>99</ele>
        <time>2018-04-08T18:19:30Z</time>
      </trkpt>
      <trkpt lat="48.79635" lon="-0.31525">
        <ele>101</ele>
        <time>2018-04-08T18:20:30Z</time>
      </trkpt>
      <trkpt lat="48.79575" lon="-0.31521">
        <ele>106</ele>
        <time>2018-04-08T18:21:30Z</time>
      </trkpt>
      <trkpt lat="48.79564" lon="-0.31834">
        <ele>133</ele>
        <time>2018-04-08T18:22:30Z</time>
      </trkpt>
      <trkpt lat="48.79623" lon="-0.3213">
        <ele>177</ele>
        <time>2018-04-08T18:23:30Z</time>
      </trkpt>
      <trkpt lat="48.79643" lon="-0.32251">
        <ele>190</ele>
        <time>2018-04-08T18:24:30Z</time>
      </trkpt>
      <trkpt lat="48.79564" lon="-0.32495">
        <ele>209</ele>
        <time>2018-04-08T18:25:30Z</time>
      </trkpt>
      <trkpt lat="48.79527" lon="-0.32538">
        <ele>212</ele>
        <time>2018-04-08T18:26:30Z</time>
      </trkpt>
      <trkpt lat="48.7949" lon="-0.32688">
        <ele>218</ele>
        <time>2018-04-08T18:27:30Z</time>
      </trkpt>
      <trkpt lat="48.79533" lon="-0.32851">
        <ele>218</ele>
        <time>2018-04-08T18:28:30Z</time>
      </trkpt>
      <trkpt lat="48.79502" lon="-0.33053">
        <ele>223</ele>
        <time>2018-04-08T18:29:30Z</time>
      </trkpt>
      <trkpt lat="48.7949" lon="-0.33092">
        <ele>223</ele>
        <time>2018-04-08T18:30:30Z</time>
      </trkpt>
      <trkpt lat="48.79765" lon="-0.33096">
        <ele>220</ele>
        <time>2018-04-08T18:31:30Z</time>
      </trkpt>
      <trkpt lat="48.79886" lon="-0.33002">
        <ele>213</ele>
        <time>2018-04-08T18:32:30Z</time>
      </trkpt>
      <trkpt lat="48.7996" lon="-0.33173">
        <ele>208</ele>
        <time>2018-04-08T18:33:30Z</time>
      </trkpt>
      <trkpt lat="48.8018" lon="-0.33392">
        <ele>194</ele>
        <time>2018-04-08T18:34:30Z</time>
      </trkpt>
      <trkpt lat="48.80491" lon="-0.33641">
        <ele>186</ele>
        <time>2018-04-08T18:35:30Z</time>
      </trkpt>
      <trkpt lat="48.80491" lon="-0.33774">
        <ele>194</ele>
        <time>2018-04-08T18:36:30Z</time>
      </trkpt>
      <trkpt lat="48.80457" lon="-0.33787">
        <ele>193</ele>
        <time>2018-04-08T18:37:30Z</time>
      </trkpt>
      <trkpt lat="48.80271" lon="-0.34208">
        <ele>196</ele>
        <time>2018-04-08T18:38:30Z</time>
      </trkpt>
      <trkpt lat="48.80358" lon="-0.34306">
        <ele>205</ele>
        <time>2018-04-08T18:39:30Z</time>
      </trkpt>
      <trkpt lat="48.80457" lon="-0.34341">
        <ele>210</ele>
        <time>2018-04-08T18:40:30Z</time>
      </trkpt>
      <trkpt lat="48.805" lon="-0.34405">
        <ele>210</ele>
        <time>2018-04-08T18:41:30Z</time>
      </trkpt>
      <trkpt lat="48.80599" lon="-0.34353">
        <ele>213</ele>
        <time>2018-04-08T18:42:30Z</time>
      </trkpt>
      <trkpt lat="48.80652" lon="-0.34293">
        <ele>212</ele>
        <time>2018-04-08T18:43:30Z</time>
      </trkpt>
      <trkpt lat="48.80709" lon="-0.34409">
        <ele>214</ele>
        <time>2018-04-08T18:44:30Z</time>
      </trkpt>
      <trkpt lat="48.81048" lon="-0.34341">
        <ele>221</ele>
        <time>2018-04-08T18:45:30Z</time>
      </trkpt>
      <trkpt lat="48.81167" lon="-0.34216">
        <ele>217</ele>
        <time>2018-04-08T18:46:30Z</time>
      </trkpt>
      <trkpt lat="48.8124" lon="-0.34225">
        <ele>213</ele>
        <time>2018-04-08T18:47:30Z</time>
      </trkpt>
      <trkpt lat="48.81266" lon="-0.3428">
        <ele>211</ele>
        <time>2018-04-08T18:48:30Z</time>
      </trkpt>
      <trkpt lat="48.81376" lon="-0.34212">
        <ele>196</ele>
        <time>2018-04-08T18:49:30Z</time>
      </trkpt>
      <trkpt lat="48.81548" lon="-0.3465">
        <ele>195</ele>
        <time>2018-04-08T18:50:30Z</time>
      </trkpt>
      <trkpt lat="48.81613" lon="-0.34714">
        <ele>187</ele>
        <time>2018-04-08T18:51:30Z</time>
      </trkpt>
      <trkpt lat="48.81667" lon="-0.34941">
        <ele>203</ele>
        <time>2018-04-08T18:52:30Z</time>
      </trkpt>
      <trkpt lat="48.81622" lon="-0.35173">
        <ele>210</ele>
        <time>2018-04-08T18:53:30Z</time>
      </trkpt>
      <trkpt lat="48.81509" lon="-0.35289">
        <ele>215</ele>
        <time>2018-04-08T18:54:30Z</time>
      </trkpt>
      <trkpt lat="48.81367" lon="-0.35379">
        <ele>229</ele>
        <time>2018-04-08T18:55:30Z</time>
      </trkpt>
      <trkpt lat="48.81435" lon="-0.35757">
        <ele>225</ele>
        <time>2018-04-08T18:56:30Z</time>
      </trkpt>
      <trkpt lat="48.81551" lon="-0.3583">
        <ele>219</ele>
        <time>2018-04-08T18:57:30Z</time>
      </trkpt>
      <trkpt lat="48.81531" lon="-0.35941">
        <ele>225</ele>
        <time>2018-04-08T18:58:30Z</time>
      </trkpt>
      <trkpt lat="48.81452" lon="-0.36006">
        <ele>229</ele>
        <time>2018-04-08T18:59:30Z</time>
      </trkpt>
      <trkpt lat="48.815" lon="-0.36164">
        <ele>233</ele>
        <time>2018-04-08T19:00:30Z</time>
      </trkpt>
      <trkpt lat="48.81692" lon="-0.36383">
        <ele>234</ele>
        <time>2018-04-08T19:01:30Z</time>
      </trkpt>
      <trkpt lat="48.81785" lon="-0.36379">
        <ele>235</ele>
        <time>2018-04-08T19:02:30Z</time>
      </trkpt>
      <trkpt lat="48.82088" lon="-0.36727">
        <ele>219</ele>
        <time>2018-04-08T19:03:30Z</time>
      </trkpt>
      <trkpt lat="48.82167" lon="-0.36967">
        <ele>215</ele>
        <time>2018-04-08T19:04:30Z</time>
      </trkpt>
      <trkpt lat="48.8224" lon="-0.36928">
        <ele>213</ele>
        <time>2018-04-08T19:05:30Z</time>
      </trkpt>
      <trkpt lat="48.82325" lon="-0.37194">
        <ele>202</ele>
        <time>2018-04-08T19:06:30Z</time>
      </trkpt>
      <trkpt lat="48.82481" lon="-0.37366">
        <ele>182</ele>
        <time>2018-04-08T19:07:30Z</time>
      </trkpt>
      <trkpt lat="48.82687" lon="-0.37851">
        <ele>159</ele>
        <time>2018-04-08T19:08:30Z</time>
      </trkpt>
      <trkpt lat="48.82766" lon="-0.37907">
        <ele>158</ele>
        <time>2018-04-08T19:09:30Z</time>
      </trkpt>
      <trkpt lat="48.82803" lon="-0.3798">
        <ele>153</ele>
        <time>2018-04-08T19:10:30Z</time>
      </trkpt>
      <trkpt lat="48.8289" lon="-0.38031">
        <ele>158</ele>
        <time>2018-04-08T19:11:30Z</time>
      </trkpt>
      <trkpt lat="48.8293" lon="-0.3819">
        <ele>154</ele>
        <time>2018-04-08T19:12:30Z</time>
      </trkpt>
      <trkpt lat="48.8302" lon="-0.38134">
        <ele>153</ele>
        <time>2018-04-08T19:13:30Z</time>
      </trkpt>
      <trkpt lat="48.83105" lon="-0.38173">
        <ele>148</ele>
        <time>2018-04-08T19:14:30Z</time>
      </trkpt>
      <trkpt lat="48.83325" lon="-0.38611">
        <ele>150</ele>
        <time>2018-04-08T19:15:30Z</time>
      </trkpt>
      <trkpt lat="48.83455" lon="-0.38422">
        <ele>161</ele>
        <time>2018-04-08T19:16:30Z</time>
      </trkpt>
      <trkpt lat="48.835" lon="-0.38207">
        <ele>163</ele>
        <time>2018-04-08T19:17:30Z</time>
      </trkpt>
      <trkpt lat="48.83659" lon="-0.3813">
        <ele>158</ele>
        <time>2018-04-08T19:18:30Z</time>
      </trkpt>
      <trkpt lat="48.83828" lon="-0.37864">
        <ele>139</ele>
        <time>2018-04-08T19:19:30Z</time>
      </trkpt>
      <trkpt lat="48.83992" lon="-0.38074">
        <ele>128</ele>
        <time>2018-04-08T19:20:30Z</time>
      </trkpt>
      <trkpt lat="48.84128" lon="-0.38315">
        <ele>100</ele>
        <time>2018-04-08T19:21:30Z</time>
      </trkpt>
      <trkpt lat="48.84156" lon="-0.38405">
        <ele>95</ele>
        <time>2018-04-08T19:22:30Z</time>
      </trkpt>
      <trkpt lat="48.84178" lon="-0.38812">
        <ele>97</ele>
        <time>2018-04-08T19:23:30Z</time>
      </trkpt>
      <trkpt lat="48.84164" lon="-0.38855">
        <ele>100</ele>
        <time>2018-04-08T19:24:30Z</time>
      </trkpt>
      <trkpt lat="48.84221" lon="-0.39284">
        <ele>88</ele>
        <time>2018-04-08T19:25:30Z</time>
      </trkpt>
      <trkpt lat="48.84187" lon="-0.39417">
        <ele>76</ele>
        <time>2018-04-08T19:26:30Z</time>
      </trkpt>
      <trkpt lat="48.8424" lon="-0.39568">
        <ele>62</ele>
        <time>2018-04-08T19:27:30Z</time>
      </trkpt>
      <trkpt lat="48.84176" lon="-0.39645">
        <ele>62</ele>
        <time>2018-04-08T19:28:30Z</time>
      </trkpt>
      <trkpt lat="48.84252" lon="-0.39804">
        <ele>70</ele>
        <time>2018-04-08T19:29:30Z</time>
      </trkpt>
      <trkpt lat="48.84147" lon="-0.39722">
        <ele>68</ele>
        <time>2018-04-08T19:30:30Z</time>
      </trkpt>
      <trkpt lat="48.84111" lon="-0.39872">
        <ele>71</ele>
        <time>2018-04-08T19:31:30Z</time>
      </trkpt>
      <trkpt lat="48.84122" lon="-0.40027">
        <ele>77</ele>
        <time>2018-04-08T19:32:30Z</time>
      </trkpt>
      <trkpt lat="48.84105" lon="-0.40044">
        <ele>76</ele>
        <time>2018-04-08T19:33:30Z</time>
      </trkpt>
      <trkpt lat="48.84164" lon="-0.40267">
        <ele>86</ele>
        <time>2018-04-08T19:34:30Z</time>
      </trkpt>
      <trkpt lat="48.84207" lon="-0.40387">
        <ele>100</ele>
        <time>2018-04-08T19:35:30Z</time>
      </trkpt>
      <trkpt lat="48.84353" lon="-0.40473">
        <ele>119</ele>
        <time>2018-04-08T19:36:30Z</time>
      </trkpt>
      <trkpt lat="48.84277" lon="-0.40769">
        <ele>143</ele>
        <time>2018-04-08T19:37:30Z</time>
      </trkpt>
      <trkpt lat="48.84108" lon="-0.41173">
        <ele>173</ele>
        <time>2018-04-08T19:38:30Z</time>
      </trkpt>
      <trkpt lat="48.84139" lon="-0.41357">
        <ele>177</ele>
        <time>2018-04-08T19:39:30Z</time>
      </trkpt>
      <trkpt lat="48.84331" lon="-0.41452">
        <ele>162</ele>
        <time>2018-04-08T19:40:30Z</time>
      </trkpt>
      <trkpt lat="48.84469" lon="-0.41426">
        <ele>141</ele>
        <time>2018-04-08T19:41:30Z</time>
      </trkpt>
      <trkpt lat="48.84644" lon="-0.41413">
        <ele>120</ele>
        <time>2018-04-08T19:42:30Z</time>
      </trkpt>
      <trkpt lat="48.84836" lon="-0.41469">
        <ele>127</ele>
        <time>2018-04-08T19:43:30Z</time>
      </trkpt>
      <trkpt lat="48.84879" lon="-0.41267">
        <ele>116</ele>
        <time>2018-04-08T19:44:30Z</time>
      </trkpt>
      <trkpt lat="48.85028" lon="-0.41301">
        <ele>114</ele>
        <time>2018-04-08T19:45:30Z</time>
      </trkpt>
      <trkpt lat="48.85082" lon="-0.41203">
        <ele>109</ele>
        <time>2018-04-08T19:46:30Z</time>
      </trkpt>
      <trkpt lat="48.85294" lon="-0.41233">
        <ele>125</ele>
        <time>2018-04-08T19:47:30Z</time>
      </trkpt>
      <trkpt lat="48.85494" lon="-0.4143">
        <ele>129</ele>
        <time>2018-04-08T19:48:30Z</time>
      </trkpt>
      <trkpt lat="48.85698" lon="-0.41713">
        <ele>133</ele>
        <time>2018-04-08T19:49:30Z</time>
      </trkpt>
      <trkpt lat="48.85664" lon="-0.41868">
        <ele>137</ele>
        <time>2018-04-08T19:50:30Z</time>
      </trkpt>
      <trkpt lat="48.86031" lon="-0.41658">
        <ele>120</ele>
        <time>2018-04-08T19:51:30Z</time>
      </trkpt>
      <trkpt lat="48.862" lon="-0.41636">
        <ele>109</ele>
        <time>2018-04-08T19:52:30Z</time>
      </trkpt>
      <trkpt lat="48.86384" lon="-0.41387">
        <ele>95</ele>
        <time>2018-04-08T19:53:30Z</time>
      </trkpt>
      <trkpt lat="48.86437" lon="-0.41254">
        <ele>88</ele>
        <time>2018-04-08T19:54:30Z</time>
      </trkpt>
      <trkpt lat="48.86598" lon="-0.4113">
        <ele>83</ele>
        <time>2018-04-08T19:55:30Z</time>
      </trkpt>
      <trkpt lat="48.86771" lon="-0.40812">
        <ele>64</ele>
        <time>2018-04-08T19:56:30Z</time>
      </trkpt>
      <trkpt lat="48.86977" lon="-0.40967">
        <ele>52</ele>
        <time>2018-04-08T19:57:30Z</time>
      </trkpt>
      <trkpt lat="48.86895" lon="-0.41267">
        <ele>53</ele>
        <time>2018-04-08T19:58:30Z</time>
      </trkpt>
      <trkpt lat="48.86844" lon="-0.41344">
        <ele>60</ele>
        <time>2018-04-08T19:59:30Z</time>
      </trkpt>
      <trkpt lat="48.86607" lon="-0.42456">
        <ele>55</ele>
        <time>2018-04-08T20:00:30Z</time>
      </trkpt>
      <trkpt lat="48.86463" lon="-0.42649">
        <ele>57</ele>
        <time>2018-04-08T20:01:30Z</time>
      </trkpt>
      <trkpt lat="48.86327" lon="-0.42821">
        <ele>59</ele>
        <time>2018-04-08T20:02:30Z</time>
      </trkpt>
      <trkpt lat="48.86449" lon="-0.43065">
        <ele>51</ele>
        <time>2018-04-08T20:03:30Z</time>
      </trkpt>
      <trkpt lat="48.86564" lon="-0.43164">
        <ele>61</ele>
        <time>2018-04-08T20:04:30Z</time>
      </trkpt>
      <trkpt lat="48.86579" lon="-0.4358">
        <ele>62</ele>
        <time>2018-04-08T20:05:30Z</time>
      </trkpt>
      <trkpt lat="48.86675" lon="-0.43838">
        <ele>56</ele>
        <time>2018-04-08T20:06:30Z</time>
      </trkpt>
      <trkpt lat="48.86962" lon="-0.43949">
        <ele>77</ele>
        <time>2018-04-08T20:07:30Z</time>
      </trkpt>
      <trkpt lat="48.8707" lon="-0.44155">
        <ele>73</ele>
        <time>2018-04-08T20:08:30Z</time>
      </trkpt>
      <trkpt lat="48.87126" lon="-0.44584">
        <ele>70</ele>
        <time>2018-04-08T20:09:30Z</time>
      </trkpt>
      <trkpt lat="48.87098" lon="-0.44649">
        <ele>65</ele>
        <time>2018-04-08T20:10:30Z</time>
      </trkpt>
      <trkpt lat="48.87087" lon="-0.44996">
        <ele>71</ele>
        <time>2018-04-08T20:11:30Z</time>
      </trkpt>
      <trkpt lat="48.87121" lon="-0.45091">
        <ele>77</ele>
        <time>2018-04-08T20:12:30Z</time>
      </trkpt>
      <trkpt lat="48.87363" lon="-0.45057">
        <ele>102</ele>
        <time>2018-04-08T20:13:30Z</time>
      </trkpt>
      <trkpt lat="48.87454" lon="-0.45211">
        <ele>121</ele>
        <time>2018-04-08T20:14:30Z</time>
      </trkpt>
      <trkpt lat="48.87581" lon="-0.45267">
        <ele>137</ele>
        <time>2018-04-08T20:15:30Z</time>
      </trkpt>
      <trkpt lat="48.87775" lon="-0.4543">
        <ele>162</ele>
        <time>2018-04-08T20:16:30Z</time>
      </trkpt>
      <trkpt lat="48.87953" lon="-0.4537">
        <ele>179</ele>
        <time>2018-04-08T20:17:30Z</time>
      </trkpt>
      <trkpt lat="48.88111" lon="-0.45305">
        <ele>191</ele>
        <time>2018-04-08T20:18:30Z</time>
      </trkpt>
      <trkpt lat="48.88072" lon="-0.45134">
        <ele>190</ele>
        <time>2018-04-08T20:19:30Z</time>
      </trkpt>
      <trkpt lat="48.88218" lon="-0.45057">
        <ele>188</ele>
        <time>2018-04-08T20:20:30Z</time>
      </trkpt>
      <trkpt lat="48.88272" lon="-0.4531">
        <ele>189</ele>
        <time>2018-04-08T20:21:30Z</time>
      </trkpt>
      <trkpt lat="48.88374" lon="-0.45426">
        <ele>192</ele>
        <time>2018-04-08T20:22:30Z</time>
      </trkpt>
      <trkpt lat="48.88653" lon="-0.45541">
        <ele>190</ele>
        <time>2018-04-08T20:23:30Z</time>
      </trkpt>
      <trkpt lat="48.88735" lon="-0.4579">
        <ele>192</ele>
        <time>2018-04-08T20:24:30Z</time>
      </trkpt>
      <trkpt lat="48.88811" lon="-0.46211">
        <ele>178</ele>
        <time>2018-04-08T20:25:30Z</time>
      </trkpt>
      <trkpt lat="48.88921" lon="-0.46237">
        <ele>164</ele>
        <time>2018-04-08T20:26:30Z</time>
      </trkpt>
      <trkpt lat="48.89206" lon="-0.46327">
        <ele>135</ele>
        <time>2018-04-08T20:27:30Z</time>
      </trkpt>
      <trkpt lat="48.8968" lon="-0.46353">
        <ele>86</ele>
        <time>2018-04-08T20:28:30Z</time>
      </trkpt>
      <trkpt lat="48.89787" lon="-0.464">
        <ele>76</ele>
        <time>2018-04-08T20:29:30Z</time>
      </trkpt>
      <trkpt lat="48.89762" lon="-0.46516">
        <ele>74</ele>
        <time>2018-04-08T20:30:30Z</time>
      </trkpt>
      <trkpt lat="48.90047" lon="-0.47464">
        <ele>67</ele>
        <time>2018-04-08T20:31:30Z</time>
      </trkpt>
      <trkpt lat="48.90188" lon="-0.47902">
        <ele>96</ele>
        <time>2018-04-08T20:32:30Z</time>
      </trkpt>
      <trkpt lat="48.90306" lon="-0.47893">
        <ele>105</ele>
        <time>2018-04-08T20:33:30Z</time>
      </trkpt>
      <trkpt lat="48.90456" lon="-0.48048">
        <ele>130</ele>
        <time>2018-04-08T20:34:30Z</time>
      </trkpt>
      <trkpt lat="48.90569" lon="-0.48001">
        <ele>131</ele>
        <time>2018-04-08T20:35:30Z</time>
      </trkpt>
      <trkpt lat="48.90964" lon="-0.48224">
        <ele>95</ele>
        <time>2018-04-08T20:36:30Z</time>
      </trkpt>
      <trkpt lat="48.91161" lon="-0.48357">
        <ele>100</ele>
        <time>2018-04-08T20:37:30Z</time>
      </trkpt>
      <trkpt lat="48.91404" lon="-0.484">
        <ele>77</ele>
        <time>2018-04-08T20:38:30Z</time>
      </trkpt>
      <trkpt lat="48.91311" lon="-0.48661">
        <ele>72</ele>
        <time>2018-04-08T20:39:30Z</time>
      </trkpt>
      <trkpt lat="48.91139" lon="-0.4891">
        <ele>70</ele>
        <time>2018-04-08T20:40:30Z</time>
      </trkpt>
      <trkpt lat="48.91014" lon="-0.49061">
        <ele>70</ele>
        <time>2018-04-08T20:41:30Z</time>
      </trkpt>
      <trkpt lat="48.90913" lon="-0.49292">
        <ele>70</ele>
        <time>2018-04-08T20:42:30Z</time>
      </trkpt>
      <trkpt lat="48.90778" lon="-0.49258">
        <ele>78</ele>
        <time>2018-04-08T20:43:30Z</time>
      </trkpt>
      <trkpt lat="48.90732" lon="-0.49322">
        <ele>75</ele>
        <time>2018-04-08T20:44:30Z</time>
      </trkpt>
      <trkpt lat="48.90594" lon="-0.49254">
        <ele>85</ele>
        <time>2018-04-08T20:45:30Z</time>
      </trkpt>
      <trkpt lat="48.90408" lon="-0.49099">
        <ele>107</ele>
        <time>2018-04-08T20:46:30Z</time>
      </trkpt>
      <trkpt lat="48.90213" lon="-0.49189">
        <ele>125</ele>
        <time>2018-04-08T20:47:30Z</time>
      </trkpt>
      <trkpt lat="48.89988" lon="-0.49168">
        <ele>154</ele>
        <time>2018-04-08T20:48:30Z</time>
      </trkpt>
      <trkpt lat="48.89649" lon="-0.49236">
        <ele>181</ele>
        <time>2018-04-08T20:49:30Z</time>
      </trkpt>
      <trkpt lat="48.89333" lon="-0.49039">
        <ele>201</ele>
        <time>2018-04-08T20:50:30Z</time>
      </trkpt>
      <trkpt lat="48.89155" lon="-0.49091">
        <ele>212</ele>
        <time>2018-04-08T20:51:30Z</time>
      </trkpt>
      <trkpt lat="48.89274" lon="-0.49254">
        <ele>183</ele>
        <time>2018-04-08T20:52:30Z</time>
      </trkpt>
      <trkpt lat="48.89285" lon="-0.49344">
        <ele>181</ele>
        <time>2018-04-08T20:53:30Z</time>
      </trkpt>
      <trkpt lat="48.89361" lon="-0.49464">
        <ele>166</ele>
        <time>2018-04-08T20:54:30Z</time>
      </trkpt>
      <trkpt lat="48.895" lon="-0.49571">
        <ele>150</ele>
        <time>2018-04-08T20:55:30Z</time>
      </trkpt>
      <trkpt lat="48.89539" lon="-0.49781">
        <ele>152</ele>
        <time>2018-04-08T20:56:30Z</time>
      </trkpt>
      <trkpt lat="48.8966" lon="-0.49915">
        <ele>149</ele>
        <time>2018-04-08T20:57:30Z</time>
      </trkpt>
      <trkpt lat="48.89446" lon="-0.50528">
        <ele>192</ele>
        <time>2018-04-08T20:58:30Z</time>
      </trkpt>
      <trkpt lat="48.89604" lon="-0.50721">
        <ele>156</ele>
        <time>2018-04-08T20:59:30Z</time>
      </trkpt>
      <trkpt lat="48.89598" lon="-0.50833">
        <ele>151</ele>
        <time>2018-04-08T21:00:30Z</time>
      </trkpt>
      <trkpt lat="48.89633" lon="-0.50815">
        <ele>148</ele>
        <time>2018-04-08T21:01:30Z</time>
      </trkpt>
      <trkpt lat="48.89695" lon="-0.50925">
        <ele>149</ele>
        <time>2018-04-08T21:02:30Z</time>
      </trkpt>
      <trkpt lat="48.89557" lon="-0.51126">
        <ele>173</ele>
        <time>2018-04-08T21:03:30Z</time>
      </trkpt>
      <trkpt lat="48.89485" lon="-0.51251">
        <ele>187</ele>
        <time>2018-04-08T21:04:30Z</time>
      </trkpt>
      <trkpt lat="48.89435" lon="-0.51655">
        <ele>215</ele>
        <time>2018-04-08T21:05:30Z</time>
      </trkpt>
      <trkpt lat="48.89438" lon="-0.51867">
        <ele>224</ele>
        <time>2018-04-08T21:06:30Z</time>
      </trkpt>
      <trkpt lat="48.89361" lon="-0.52198">
        <ele>230</ele>
        <time>2018-04-08T21:07:30Z</time>
      </trkpt>
      <trkpt lat="48.89288" lon="-0.52279">
        <ele>235</ele>
        <time>2018-04-08T21:08:30Z</time>
      </trkpt>
      <trkpt lat="48.89186" lon="-0.52288">
        <ele>240</ele>
        <time>2018-04-08T21:09:30Z</time>
      </trkpt>
      <trkpt lat="48.89178" lon="-0.52695">
        <ele>236</ele>
        <time>2018-04-08T21:10:30Z</time>
      </trkpt>
      <trkpt lat="48.89248" lon="-0.53189">
        <ele>227</ele>
        <time>2018-04-08T21:11:30Z</time>
      </trkpt>
      <trkpt lat="48.89223" lon="-0.53378">
        <ele>229</ele>
        <time>2018-04-08T21:12:30Z</time>
      </trkpt>
      <trkpt lat="48.89028" lon="-0.53764">
        <ele>229</ele>
        <time>2018-04-08T21:13:30Z</time>
      </trkpt>
      <trkpt lat="48.88865" lon="-0.53897">
        <ele>226</ele>
        <time>2018-04-08T21:14:30Z</time>
      </trkpt>
      <trkpt lat="48.88574" lon="-0.54485">
        <ele>227</ele>
        <time>2018-04-08T21:15:30Z</time>
      </trkpt>
      <trkpt lat="48.88374" lon="-0.54708">
        <ele>222</ele>
        <time>2018-04-08T21:16:30Z</time>
      </trkpt>
      <trkpt lat="48.8825" lon="-0.55124">
        <ele>219</ele>
        <time>2018-04-08T21:17:30Z</time>
      </trkpt>
      <trkpt lat="48.88176" lon="-0.5536">
        <ele>220</ele>
        <time>2018-04-08T21:18:30Z</time>
      </trkpt>
      <trkpt lat="48.88176" lon="-0.55481">
        <ele>224</ele>
        <time>2018-04-08T21:19:30Z</time>
      </trkpt>
      <trkpt lat="48.88114" lon="-0.55751">
        <ele>216</ele>
        <time>2018-04-08T21:20:30Z</time>
      </trkpt>
      <trkpt lat="48.88123" lon="-0.56081">
        <ele>212</ele>
        <time>2018-04-08T21:21:30Z</time>
      </trkpt>
      <trkpt lat="48.881" lon="-0.56184">
        <ele>211</ele>
        <time>2018-04-08T21:22:30Z</time>
      </trkpt>
      <trkpt lat="48.881" lon="-0.56657">
        <ele>196</ele>
        <time>2018-04-08T21:23:30Z</time>
      </trkpt>
      <trkpt lat="48.87996" lon="-0.56807">
        <ele>182</ele>
        <time>2018-04-08T21:24:30Z</time>
      </trkpt>
      <trkpt lat="48.87933" lon="-0.5697">
        <ele>173</ele>
        <time>2018-04-08T21:25:30Z</time>
      </trkpt>
      <trkpt lat="48.88185" lon="-0.57232">
        <ele>159</ele>
        <time>2018-04-08T21:26:30Z</time>
      </trkpt>
      <trkpt lat="48.88329" lon="-0.5721">
        <ele>137</ele>
        <time>2018-04-08T21:27:30Z</time>
      </trkpt>
      <trkpt lat="48.88375" lon="-0.57178">
        <ele>135</ele>
        <time>2018-04-08T21:28:30Z</time>
      </trkpt>
      <trkpt lat="48.88566" lon="-0.57412">
        <ele>152</ele>
        <time>2018-04-08T21:29:30Z</time>
      </trkpt>
      <trkpt lat="48.88633" lon="-0.5729">
        <ele>154</ele>
        <time>2018-04-08T21:30:30Z</time>
      </trkpt>
      <trkpt lat="48.88848" lon="-0.57257">
        <ele>172</ele>
        <time>2018-04-08T21:31:30Z</time>
      </trkpt>
      <trkpt lat="48.89017" lon="-0.57174">
        <ele>186</ele>
        <time>2018-04-08T21:32:30Z</time>
      </trkpt>
      <trkpt lat="48.89189" lon="-0.57204">
        <ele>199</ele>
        <time>2018-04-08T21:33:30Z</time>
      </trkpt>
      <trkpt lat="48.89333" lon="-0.57393">
        <ele>197</ele>
        <time>2018-04-08T21:34:30Z</time>
      </trkpt>
      <trkpt lat="48.8949" lon="-0.57395">
        <ele>199</ele>
        <time>2018-04-08T21:35:30Z</time>
      </trkpt>
      <trkpt lat="48.89515" lon="-0.57457">
        <ele>203</ele>
        <time>2018-04-08T21:36:30Z</time>
      </trkpt>
      <trkpt lat="48.89663" lon="-0.57669">
        <ele>227</ele>
        <time>2018-04-08T21:37:30Z</time>
      </trkpt>
      <trkpt lat="48.89751" lon="-0.57963">
        <ele>236</ele>
        <time>2018-04-08T21:38:30Z</time>
      </trkpt>
      <trkpt lat="48.89903" lon="-0.5803">
        <ele>231</ele>
        <time>2018-04-08T21:39:30Z</time>
      </trkpt>
      <trkpt lat="48.9002" lon="-0.58304">
        <ele>209</ele>
        <time>2018-04-08T21:40:30Z</time>
      </trkpt>
      <trkpt lat="48.89965" lon="-0.58562">
        <ele>197</ele>
        <time>2018-04-08T21:41:30Z</time>
      </trkpt>
      <trkpt lat="48.89957" lon="-0.5868">
        <ele>187</ele>
        <time>2018-04-08T21:42:30Z</time>
      </trkpt>
      <trkpt lat="48.89718" lon="-0.58712">
        <ele>161</ele>
        <time>2018-04-08T21:43:30Z</time>
      </trkpt>
      <trkpt lat="48.89625" lon="-0.58783">
        <ele>142</ele>
        <time>2018-04-08T21:44:30Z</time>
      </trkpt>
      <trkpt lat="48.89694" lon="-0.58953">
        <ele>140</ele>
        <time>2018-04-08T21:45:30Z</time>
      </trkpt>
      <trkpt lat="48.90033" lon="-0.58744">
        <ele>178</ele>
        <time>2018-04-08T21:46:30Z</time>
      </trkpt>
      <trkpt lat="48.90014" lon="-0.58839">
        <ele>178</ele>
        <time>2018-04-08T21:47:30Z</time>
      </trkpt>
      <trkpt lat="48.89935" lon="-0.5897">
        <ele>172</ele>
        <time>2018-04-08T21:48:30Z</time>
      </trkpt>
      <trkpt lat="48.89904" lon="-0.59083">
        <ele>172</ele>
        <time>2018-04-08T21:49:30Z</time>
      </trkpt>
      <trkpt lat="48.89985" lon="-0.5921">
        <ele>171</ele>
        <time>2018-04-08T21:50:30Z</time>
      </trkpt>
      <trkpt lat="48.90037" lon="-0.59219">
        <ele>188</ele>
        <time>2018-04-08T21:51:30Z</time>
      </trkpt>
      <trkpt lat="48.90115" lon="-0.59613">
        <ele>180</ele>
        <time>2018-04-08T21:52:30Z</time>
      </trkpt>
      <trkpt lat="48.90163" lon="-0.59515">
        <ele>201</ele>
        <time>2018-04-08T21:53:30Z</time>
      </trkpt>
      <trkpt lat="48.90786" lon="-0.59639">
        <ele>188</ele>
        <time>2018-04-08T21:54:30Z</time>
      </trkpt>
      <trkpt lat="48.91023" lon="-0.59721">
        <ele>150</ele>
        <time>2018-04-08T21:55:30Z</time>
      </trkpt>
      <trkpt lat="48.91127" lon="-0.59592">
        <ele>146</ele>
        <time>2018-04-08T21:56:30Z</time>
      </trkpt>
      <trkpt lat="48.91102" lon="-0.59751">
        <ele>137</ele>
        <time>2018-04-08T21:57:30Z</time>
      </trkpt>
      <trkpt lat="48.91045" lon="-0.59819">
        <ele>134</ele>
        <time>2018-04-08T21:58:30Z</time>
      </trkpt>
      <trkpt lat="48.91062" lon="-0.59888">
        <ele>129</ele>
        <time>2018-04-08T21:59:30Z</time>
      </trkpt>
      <trkpt lat="48.9104" lon="-0.59927">
        <ele>128</ele>
        <time>2018-04-08T22:00:30Z</time>
      </trkpt>
      <trkpt lat="48.91065" lon="-0.60008">
        <ele>131</ele>
        <time>2018-04-08T22:01:30Z</time>
      </trkpt>
      <trkpt lat="48.91014" lon="-0.60051">
        <ele>134</ele>
        <time>2018-04-08T22:02:30Z</time>
      </trkpt>
      <trkpt lat="48.91003" lon="-0.60146">
        <ele>145</ele>
        <time>2018-04-08T22:03:30Z</time>
      </trkpt>
      <trkpt lat="48.91048" lon="-0.60386">
        <ele>159</ele>
        <time>2018-04-08T22:04:30Z</time>
      </trkpt>
      <trkpt lat="48.91243" lon="-0.60476">
        <ele>193</ele>
        <time>2018-04-08T22:05:30Z</time>
      </trkpt>
      <trkpt lat="48.91302" lon="-0.60661">
        <ele>196</ele>
        <time>2018-04-08T22:06:30Z</time>
      </trkpt>
      <trkpt lat="48.91457" lon="-0.60708">
        <ele>198</ele>
        <time>2018-04-08T22:07:30Z</time>
      </trkpt>
      <trkpt lat="48.9155" lon="-0.60819">
        <ele>199</ele>
        <time>2018-04-08T22:08:30Z</time>
      </trkpt>
      <trkpt lat="48.91534" lon="-0.60806">
        <ele>199.34765625</ele>
      </trkpt>
      <trkpt lat="48.9155" lon="-0.60819">
        <ele>199</ele>
        <time>2018-04-08T22:08:30Z</time>
      </trkpt>
      <trkpt lat="48.91573" lon="-0.60927">
        <ele>201</ele>
        <time>2018-04-08T22:09:30Z</time>
      </trkpt>
      <trkpt lat="48.91782" lon="-0.61184">
        <ele>200</ele>
        <time>2018-04-08T22:10:30Z</time>
      </trkpt>
      <trkpt lat="48.91827" lon="-0.61347">
        <ele>190</ele>
        <time>2018-04-08T22:11:30Z</time>
      </trkpt>
      <trkpt lat="48.91835" lon="-0.61613">
        <ele>172</ele>
        <time>2018-04-08T22:12:30Z</time>
      </trkpt>
      <trkpt lat="48.91914" lon="-0.61639">
        <ele>180</ele>
        <time>2018-04-08T22:13:30Z</time>
      </trkpt>
      <trkpt lat="48.9214" lon="-0.62098">
        <ele>205</ele>
        <time>2018-04-08T22:14:30Z</time>
      </trkpt>
      <trkpt lat="48.92058" lon="-0.62304">
        <ele>202</ele>
        <time>2018-04-08T22:15:30Z</time>
      </trkpt>
      <trkpt lat="48.91962" lon="-0.6242">
        <ele>204</ele>
        <time>2018-04-08T22:16:30Z</time>
      </trkpt>
      <trkpt lat="48.92075" lon="-0.62643">
        <ele>187</ele>
        <time>2018-04-08T22:17:30Z</time>
      </trkpt>
      <trkpt lat="48.92224" lon="-0.62553">
        <ele>183</ele>
        <time>2018-04-08T22:18:30Z</time>
      </trkpt>
      <trkpt lat="48.92196" lon="-0.62643">
        <ele>181</ele>
        <time>2018-04-08T22:19:30Z</time>
      </trkpt>
      <trkpt lat="48.92306" lon="-0.62648">
        <ele>190</ele>
        <time>2018-04-08T22:20:30Z</time>
      </trkpt>
      <trkpt lat="48.92365" lon="-0.62755">
        <ele>196</ele>
        <time>2018-04-08T22:21:30Z</time>
      </trkpt>
      <trkpt lat="48.92439" lon="-0.62982">
        <ele>206</ele>
        <time>2018-04-08T22:22:30Z</time>
      </trkpt>
      <trkpt lat="48.92326" lon="-0.63081">
        <ele>203</ele>
        <time>2018-04-08T22:23:30Z</time>
      </trkpt>
      <trkpt lat="48.92159" lon="-0.63102">
        <ele>204</ele>
        <time>2018-04-08T22:24:30Z</time>
      </trkpt>
      <trkpt lat="48.92035" lon="-0.63227">
        <ele>200</ele>
        <time>2018-04-08T22:25:30Z</time>
      </trkpt>
      <trkpt lat="48.91942" lon="-0.63235">
        <ele>190</ele>
        <time>2018-04-08T22:26:30Z</time>
      </trkpt>
      <trkpt lat="48.91883" lon="-0.63326">
        <ele>190</ele>
        <time>2018-04-08T22:27:30Z</time>
      </trkpt>
      <trkpt lat="48.9177" lon="-0.63377">
        <ele>169</ele>
        <time>2018-04-08T22:28:30Z</time>
      </trkpt>
      <trkpt lat="48.91799" lon="-0.6372">
        <ele>153</ele>
        <time>2018-04-08T22:29:30Z</time>
      </trkpt>
      <trkpt lat="48.91759" lon="-0.63845">
        <ele>140</ele>
        <time>2018-04-08T22:30:30Z</time>
      </trkpt>
      <trkpt lat="48.91821" lon="-0.63969">
        <ele>142</ele>
        <time>2018-04-08T22:31:30Z</time>
      </trkpt>
      <trkpt lat="48.91821" lon="-0.64115">
        <ele>153</ele>
        <time>2018-04-08T22:32:30Z</time>
      </trkpt>
      <trkpt lat="48.91956" lon="-0.64265">
        <ele>176</ele>
        <time>2018-04-08T22:33:30Z</time>
      </trkpt>
      <trkpt lat="48.92154" lon="-0.65403">
        <ele>222</ele>
        <time>2018-04-08T22:34:30Z</time>
      </trkpt>
      <trkpt lat="48.92126" lon="-0.6563">
        <ele>222</ele>
        <time>2018-04-08T22:35:30Z</time>
      </trkpt>
      <trkpt lat="48.92303" lon="-0.6554">
        <ele>209</ele>
        <time>2018-04-08T22:36:30Z</time>
      </trkpt>
      <trkpt lat="48.92354" lon="-0.65604">
        <ele>210</ele>
        <time>2018-04-08T22:37:30Z</time>
      </trkpt>
      <trkpt lat="48.92659" lon="-0.65544">
        <ele>216</ele>
        <time>2018-04-08T22:38:30Z</time>
      </trkpt>
      <trkpt lat="48.92732" lon="-0.65587">
        <ele>213</ele>
        <time>2018-04-08T22:39:30Z</time>
      </trkpt>
      <trkpt lat="48.9285" lon="-0.6554">
        <ele>213</ele>
        <time>2018-04-08T22:40:30Z</time>
      </trkpt>
      <trkpt lat="48.92994" lon="-0.66064">
        <ele>204</ele>
        <time>2018-04-08T22:41:30Z</time>
      </trkpt>
      <trkpt lat="48.92929" lon="-0.66085">
        <ele>200</ele>
        <time>2018-04-08T22:42:30Z</time>
      </trkpt>
      <trkpt lat="48.92929" lon="-0.66321">
        <ele>194</ele>
        <time>2018-04-08T22:43:30Z</time>
      </trkpt>
      <trkpt lat="48.93005" lon="-0.66544">
        <ele>188</ele>
        <time>2018-04-08T22:44:30Z</time>
      </trkpt>
      <trkpt lat="48.92974" lon="-0.66579">
        <ele>189</ele>
        <time>2018-04-08T22:45:30Z</time>
      </trkpt>
      <trkpt lat="48.92904" lon="-0.66948">
        <ele>191</ele>
        <time>2018-04-08T22:46:30Z</time>
      </trkpt>
      <trkpt lat="48.92966" lon="-0.67128">
        <ele>177</ele>
        <time>2018-04-08T22:47:30Z</time>
      </trkpt>
      <trkpt lat="48.9298" lon="-0.67304">
        <ele>167</ele>
        <time>2018-04-08T22:48:30Z</time>
      </trkpt>
      <trkpt lat="48.92943" lon="-0.67484">
        <ele>168</ele>
        <time>2018-04-08T22:49:30Z</time>
      </trkpt>
      <trkpt lat="48.92754" lon="-0.67853">
        <ele>171</ele>
        <time>2018-04-08T22:50:30Z</time>
      </trkpt>
      <trkpt lat="48.92515" lon="-0.68111">
        <ele>171</ele>
        <time>2018-04-08T22:51:30Z</time>
      </trkpt>
      <trkpt lat="48.92126" lon="-0.68021">
        <ele>164</ele>
        <time>2018-04-08T22:52:30Z</time>
      </trkpt>
      <trkpt lat="48.9205" lon="-0.68209">
        <ele>171</ele>
        <time>2018-04-08T22:53:30Z</time>
      </trkpt>
      <trkpt lat="48.92081" lon="-0.68274">
        <ele>174</ele>
        <time>2018-04-08T22:54:30Z</time>
      </trkpt>
      <trkpt lat="48.92081" lon="-0.6845">
        <ele>175</ele>
        <time>2018-04-08T22:55:30Z</time>
      </trkpt>
      <trkpt lat="48.92506" lon="-0.68973">
        <ele>220</ele>
        <time>2018-04-08T22:56:30Z</time>
      </trkpt>
      <trkpt lat="48.92636" lon="-0.69042">
        <ele>222</ele>
        <time>2018-04-08T22:57:30Z</time>
      </trkpt>
      <trkpt lat="48.92935" lon="-0.69819">
        <ele>250</ele>
        <time>2018-04-08T22:58:30Z</time>
      </trkpt>
      <trkpt lat="48.93022" lon="-0.70595">
        <ele>250</ele>
        <time>2018-04-08T22:59:30Z</time>
      </trkpt>
      <trkpt lat="48.93203" lon="-0.70922">
        <ele>265</ele>
        <time>2018-04-08T23:00:30Z</time>
      </trkpt>
      <trkpt lat="48.93296" lon="-0.72175">
        <ele>276</ele>
        <time>2018-04-08T23:01:30Z</time>
      </trkpt>
      <trkpt lat="48.93363" lon="-0.72737">
        <ele>280</ele>
        <time>2018-04-08T23:02:30Z</time>
      </trkpt>
      <trkpt lat="48.93355" lon="-0.73033">
        <ele>283</ele>
        <time>2018-04-08T23:03:30Z</time>
      </trkpt>
      <trkpt lat="48.93194" lon="-0.73548">
        <ele>253</ele>
        <time>2018-04-08T23:04:30Z</time>
      </trkpt>
      <trkpt lat="48.93318" lon="-0.74024">
        <ele>266</ele>
        <time>2018-04-08T23:05:30Z</time>
      </trkpt>
      <trkpt lat="48.93248" lon="-0.74578">
        <ele>247</ele>
        <time>2018-04-08T23:06:30Z</time>
      </trkpt>
      <trkpt lat="48.93361" lon="-0.7514">
        <ele>243</ele>
        <time>2018-04-08T23:07:30Z</time>
      </trkpt>
      <trkpt lat="48.93375" lon="-0.75393">
        <ele>247</ele>
        <time>2018-04-08T23:08:30Z</time>
      </trkpt>
      <trkpt lat="48.93361" lon="-0.75689">
        <ele>240</ele>
        <time>2018-04-08T23:09:30Z</time>
      </trkpt>
      <trkpt lat="48.93386" lon="-0.76007">
        <ele>247</ele>
        <time>2018-04-08T23:10:30Z</time>
      </trkpt>
      <trkpt lat="48.93434" lon="-0.76586">
        <ele>247</ele>
        <time>2018-04-08T23:11:30Z</time>
      </trkpt>
      <trkpt lat="48.93465" lon="-0.76681">
        <ele>257</ele>
        <time>2018-04-08T23:12:30Z</time>
      </trkpt>
      <trkpt lat="48.9344" lon="-0.77509">
        <ele>244</ele>
        <time>2018-04-08T23:13:30Z</time>
      </trkpt>
      <trkpt lat="48.93533" lon="-0.77792">
        <ele>255</ele>
        <time>2018-04-08T23:14:30Z</time>
      </trkpt>
      <trkpt lat="48.9353" lon="-0.78312">
        <ele>242</ele>
        <time>2018-04-08T23:15:30Z</time>
      </trkpt>
      <trkpt lat="48.93558" lon="-0.78385">
        <ele>246</ele>
        <time>2018-04-08T23:16:30Z</time>
      </trkpt>
      <trkpt lat="48.93575" lon="-0.78732">
        <ele>234</ele>
        <time>2018-04-08T23:17:30Z</time>
      </trkpt>
      <trkpt lat="48.93693" lon="-0.79118">
        <ele>211</ele>
        <time>2018-04-08T23:18:30Z</time>
      </trkpt>
      <trkpt lat="48.93707" lon="-0.79522">
        <ele>160</ele>
        <time>2018-04-08T23:19:30Z</time>
      </trkpt>
      <trkpt lat="48.93755" lon="-0.79599">
        <ele>155</ele>
        <time>2018-04-08T23:20:30Z</time>
      </trkpt>
      <trkpt lat="48.93707" lon="-0.79638">
        <ele>156</ele>
        <time>2018-04-08T23:21:30Z</time>
      </trkpt>
      <trkpt lat="48.93578" lon="-0.79582">
        <ele>158</ele>
        <time>2018-04-08T23:22:30Z</time>
      </trkpt>
      <trkpt lat="48.93538" lon="-0.79749">
        <ele>167</ele>
        <time>2018-04-08T23:23:30Z</time>
      </trkpt>
      <trkpt lat="48.93564" lon="-0.79981">
        <ele>181</ele>
        <time>2018-04-08T23:24:30Z</time>
      </trkpt>
      <trkpt lat="48.93485" lon="-0.80389">
        <ele>193</ele>
        <time>2018-04-08T23:25:30Z</time>
      </trkpt>
      <trkpt lat="48.93434" lon="-0.80771">
        <ele>201</ele>
        <time>2018-04-08T23:26:30Z</time>
      </trkpt>
      <trkpt lat="48.93561" lon="-0.80771">
        <ele>211</ele>
        <time>2018-04-08T23:27:30Z</time>
      </trkpt>
      <trkpt lat="48.93685" lon="-0.80818">
        <ele>236</ele>
        <time>2018-04-08T23:28:30Z</time>
      </trkpt>
      <trkpt lat="48.93798" lon="-0.80573">
        <ele>245</ele>
        <time>2018-04-08T23:29:30Z</time>
      </trkpt>
      <trkpt lat="48.93874" lon="-0.81869">
        <ele>242</ele>
        <time>2018-04-08T23:30:30Z</time>
      </trkpt>
      <trkpt lat="48.93919" lon="-0.82904">
        <ele>247</ele>
        <time>2018-04-08T23:31:30Z</time>
      </trkpt>
      <trkpt lat="48.93992" lon="-0.83037">
        <ele>243</ele>
        <time>2018-04-08T23:32:30Z</time>
      </trkpt>
      <trkpt lat="48.93919" lon="-0.83363">
        <ele>237</ele>
        <time>2018-04-08T23:33:30Z</time>
      </trkpt>
      <trkpt lat="48.93998" lon="-0.83766">
        <ele>212</ele>
        <time>2018-04-08T23:34:30Z</time>
      </trkpt>
      <trkpt lat="48.94077" lon="-0.83831">
        <ele>216</ele>
        <time>2018-04-08T23:35:30Z</time>
      </trkpt>
      <trkpt lat="48.94063" lon="-0.84204">
        <ele>194</ele>
        <time>2018-04-08T23:36:30Z</time>
      </trkpt>
      <trkpt lat="48.94164" lon="-0.8432">
        <ele>188</ele>
        <time>2018-04-08T23:37:30Z</time>
      </trkpt>
      <trkpt lat="48.94246" lon="-0.84311">
        <ele>182</ele>
        <time>2018-04-08T23:38:30Z</time>
      </trkpt>
      <trkpt lat="48.94181" lon="-0.84397">
        <ele>179</ele>
        <time>2018-04-08T23:39:30Z</time>
      </trkpt>
      <trkpt lat="48.93879" lon="-0.84577">
        <ele>169</ele>
        <time>2018-04-08T23:40:30Z</time>
      </trkpt>
      <trkpt lat="48.93939" lon="-0.84732">
        <ele>161</ele>
        <time>2018-04-08T23:41:30Z</time>
      </trkpt>
      <trkpt lat="48.94201" lon="-0.84762">
        <ele>154</ele>
        <time>2018-04-08T23:42:30Z</time>
      </trkpt>
      <trkpt lat="48.94322" lon="-0.84938">
        <ele>142</ele>
        <time>2018-04-08T23:43:30Z</time>
      </trkpt>
      <trkpt lat="48.94468" lon="-0.84946">
        <ele>135</ele>
        <time>2018-04-08T23:44:30Z</time>
      </trkpt>
      <trkpt lat="48.94545" lon="-0.85028">
        <ele>131</ele>
        <time>2018-04-08T23:45:30Z</time>
      </trkpt>
      <trkpt lat="48.94742" lon="-0.84903">
        <ele>122</ele>
        <time>2018-04-08T23:46:30Z</time>
      </trkpt>
      <trkpt lat="48.95097" lon="-0.85169">
        <ele>103</ele>
        <time>2018-04-08T23:47:30Z</time>
      </trkpt>
      <trkpt lat="48.95224" lon="-0.85221">
        <ele>108</ele>
        <time>2018-04-08T23:48:30Z</time>
      </trkpt>
      <trkpt lat="48.95221" lon="-0.8568">
        <ele>104</ele>
        <time>2018-04-08T23:49:30Z</time>
      </trkpt>
      <trkpt lat="48.95275" lon="-0.85908">
        <ele>97</ele>
        <time>2018-04-08T23:50:30Z</time>
      </trkpt>
      <trkpt lat="48.95176" lon="-0.86457">
        <ele>102</ele>
        <time>2018-04-08T23:51:30Z</time>
      </trkpt>
      <trkpt lat="48.94965" lon="-0.86955">
        <ele>98</ele>
        <time>2018-04-08T23:52:30Z</time>
      </trkpt>
      <trkpt lat="48.94934" lon="-0.87483">
        <ele>94</ele>
        <time>2018-04-08T23:53:30Z</time>
      </trkpt>
      <trkpt lat="48.9468" lon="-0.87925">
        <ele>84</ele>
        <time>2018-04-08T23:54:30Z</time>
      </trkpt>
      <trkpt lat="48.94908" lon="-0.88444">
        <ele>87</ele>
        <time>2018-04-08T23:55:30Z</time>
      </trkpt>
      <trkpt lat="48.94866" lon="-0.89045">
        <ele>81</ele>
        <time>2018-04-08T23:56:30Z</time>
      </trkpt>
      <trkpt lat="48.95069" lon="-0.89092">
        <ele>118</ele>
        <time>2018-04-08T23:57:30Z</time>
      </trkpt>
      <trkpt lat="48.95179" lon="-0.89169">
        <ele>141</ele>
        <time>2018-04-08T23:58:30Z</time>
      </trkpt>
      <trkpt lat="48.95291" lon="-0.89182">
        <ele>151</ele>
        <time>2018-04-08T23:59:30Z</time>
      </trkpt>
      <trkpt lat="48.9592" lon="-0.89422">
        <ele>159</ele>
        <time>2018-04-09T00:00:30Z</time>
      </trkpt>
      <trkpt lat="48.95821" lon="-0.90032">
        <ele>147</ele>
        <time>2018-04-09T00:01:30Z</time>
      </trkpt>
      <trkpt lat="48.95903" lon="-0.90079">
        <ele>145</ele>
        <time>2018-04-09T00:02:30Z</time>
      </trkpt>
      <trkpt lat="48.95911" lon="-0.90152">
        <ele>143</ele>
        <time>2018-04-09T00:03:30Z</time>
      </trkpt>
      <trkpt lat="48.9581" lon="-0.90367">
        <ele>134</ele>
        <time>2018-04-09T00:04:30Z</time>
      </trkpt>
      <trkpt lat="48.95833" lon="-0.90465">
        <ele>129</ele>
        <time>2018-04-09T00:05:30Z</time>
      </trkpt>
      <trkpt lat="48.95697" lon="-0.90637">
        <ele>115</ele>
        <time>2018-04-09T00:06:30Z</time>
      </trkpt>
      <trkpt lat="48.95799" lon="-0.90873">
        <ele>126</ele>
        <time>2018-04-09T00:07:30Z</time>
      </trkpt>
      <trkpt lat="48.95616" lon="-0.91542">
        <ele>145</ele>
        <time>2018-04-09T00:08:30Z</time>
      </trkpt>
      <trkpt lat="48.95404" lon="-0.92113">
        <ele>134</ele>
        <time>2018-04-09T00:09:30Z</time>
      </trkpt>
      <trkpt lat="48.95376" lon="-0.92143">
        <ele>131</ele>
        <time>2018-04-09T00:10:30Z</time>
      </trkpt>
      <trkpt lat="48.95241" lon="-0.92418">
        <ele>120</ele>
        <time>2018-04-09T00:11:30Z</time>
      </trkpt>
      <trkpt lat="48.9528" lon="-0.92598">
        <ele>138</ele>
        <time>2018-04-09T00:12:30Z</time>
      </trkpt>
      <trkpt lat="48.95227" lon="-0.93023">
        <ele>154</ele>
        <time>2018-04-09T00:13:30Z</time>
      </trkpt>
      <trkpt lat="48.95077" lon="-0.93066">
        <ele>145</ele>
        <time>2018-04-09T00:14:30Z</time>
      </trkpt>
      <trkpt lat="48.95015" lon="-0.93422">
        <ele>145</ele>
        <time>2018-04-09T00:15:30Z</time>
      </trkpt>
      <trkpt lat="48.95021" lon="-0.93589">
        <ele>148</ele>
        <time>2018-04-09T00:16:30Z</time>
      </trkpt>
      <trkpt lat="48.94739" lon="-0.93452">
        <ele>130</ele>
        <time>2018-04-09T00:17:30Z</time>
      </trkpt>
      <trkpt lat="48.94623" lon="-0.93607">
        <ele>129</ele>
        <time>2018-04-09T00:18:30Z</time>
      </trkpt>
      <trkpt lat="48.94246" lon="-0.93843">
        <ele>126</ele>
        <time>2018-04-09T00:19:30Z</time>
      </trkpt>
      <trkpt lat="48.94291" lon="-0.94032">
        <ele>123</ele>
        <time>2018-04-09T00:20:30Z</time>
      </trkpt>
      <trkpt lat="48.94592" lon="-0.94298">
        <ele>117</ele>
        <time>2018-04-09T00:21:30Z</time>
      </trkpt>
      <trkpt lat="48.94576" lon="-0.94572">
        <ele>101</ele>
        <time>2018-04-09T00:22:30Z</time>
      </trkpt>
      <trkpt lat="48.94384" lon="-0.94675">
        <ele>97</ele>
        <time>2018-04-09T00:23:30Z</time>
      </trkpt>
      <trkpt lat="48.94243" lon="-0.94688">
        <ele>100</ele>
        <time>2018-04-09T00:24:30Z</time>
      </trkpt>
      <trkpt lat="48.94054" lon="-0.95079">
        <ele>70</ele>
        <time>2018-04-09T00:25:30Z</time>
      </trkpt>
      <trkpt lat="48.94133" lon="-0.95152">
        <ele>89</ele>
        <time>2018-04-09T00:26:30Z</time>
      </trkpt>
      <trkpt lat="48.94322" lon="-0.94838">
        <ele>111</ele>
        <time>2018-04-09T00:27:30Z</time>
      </trkpt>
      <trkpt lat="48.94443" lon="-0.94989">
        <ele>124</ele>
        <time>2018-04-09T00:28:30Z</time>
      </trkpt>
      <trkpt lat="48.95001" lon="-0.95053">
        <ele>143</ele>
        <time>2018-04-09T00:29:30Z</time>
      </trkpt>
      <trkpt lat="48.94998" lon="-0.95306">
        <ele>145</ele>
        <time>2018-04-09T00:30:30Z</time>
      </trkpt>
      <trkpt lat="48.94942" lon="-0.95323">
        <ele>143</ele>
        <time>2018-04-09T00:31:30Z</time>
      </trkpt>
      <trkpt lat="48.94781" lon="-0.95804">
        <ele>130</ele>
        <time>2018-04-09T00:32:30Z</time>
      </trkpt>
      <trkpt lat="48.94655" lon="-0.95928">
        <ele>126</ele>
        <time>2018-04-09T00:33:30Z</time>
      </trkpt>
      <trkpt lat="48.94657" lon="-0.96066">
        <ele>114</ele>
        <time>2018-04-09T00:34:30Z</time>
      </trkpt>
      <trkpt lat="48.94463" lon="-0.96246">
        <ele>110</ele>
        <time>2018-04-09T00:35:30Z</time>
      </trkpt>
      <trkpt lat="48.9435" lon="-0.96688">
        <ele>72</ele>
        <time>2018-04-09T00:36:30Z</time>
      </trkpt>
      <trkpt lat="48.94449" lon="-0.97061">
        <ele>83</ele>
        <time>2018-04-09T00:37:30Z</time>
      </trkpt>
      <trkpt lat="48.94437" lon="-0.97199">
        <ele>77</ele>
        <time>2018-04-09T00:38:30Z</time>
      </trkpt>
      <trkpt lat="48.93989" lon="-0.97735">
        <ele>70</ele>
        <time>2018-04-09T00:39:30Z</time>
      </trkpt>
      <trkpt lat="48.93933" lon="-0.97898">
        <ele>71</ele>
        <time>2018-04-09T00:40:30Z</time>
      </trkpt>
      <trkpt lat="48.93989" lon="-0.98108">
        <ele>77</ele>
        <time>2018-04-09T00:41:30Z</time>
      </trkpt>
      <trkpt lat="48.94209" lon="-0.98293">
        <ele>96</ele>
        <time>2018-04-09T00:42:30Z</time>
      </trkpt>
      <trkpt lat="48.94249" lon="-0.98503">
        <ele>68</ele>
        <time>2018-04-09T00:43:30Z</time>
      </trkpt>
      <trkpt lat="48.94367" lon="-0.98619">
        <ele>65</ele>
        <time>2018-04-09T00:44:30Z</time>
      </trkpt>
      <trkpt lat="48.94553" lon="-0.98709">
        <ele>75</ele>
        <time>2018-04-09T00:45:30Z</time>
      </trkpt>
      <trkpt lat="48.94638" lon="-0.98932">
        <ele>64</ele>
        <time>2018-04-09T00:46:30Z</time>
      </trkpt>
      <trkpt lat="48.94367" lon="-0.99194">
        <ele>67</ele>
        <time>2018-04-09T00:47:30Z</time>
      </trkpt>
      <trkpt lat="48.94232" lon="-0.99465">
        <ele>71</ele>
        <time>2018-04-09T00:48:30Z</time>
      </trkpt>
      <trkpt lat="48.94184" lon="-0.99435">
        <ele>60</ele>
        <time>2018-04-09T00:49:30Z</time>
      </trkpt>
      <trkpt lat="48.93953" lon="-1.00087">
        <ele>73</ele>
        <time>2018-04-09T00:50:30Z</time>
      </trkpt>
      <trkpt lat="48.93696" lon="-1.00426">
        <ele>58</ele>
        <time>2018-04-09T00:51:30Z</time>
      </trkpt>
      <trkpt lat="48.93719" lon="-1.00499">
        <ele>61</ele>
        <time>2018-04-09T00:52:30Z</time>
      </trkpt>
      <trkpt lat="48.93896" lon="-1.00718">
        <ele>68</ele>
        <time>2018-04-09T00:53:30Z</time>
      </trkpt>
      <trkpt lat="48.9402" lon="-1.00795">
        <ele>74</ele>
        <time>2018-04-09T00:54:30Z</time>
      </trkpt>
      <trkpt lat="48.93998" lon="-1.00851">
        <ele>65</ele>
        <time>2018-04-09T00:55:30Z</time>
      </trkpt>
      <trkpt lat="48.94133" lon="-1.01216">
        <ele>69</ele>
        <time>2018-04-09T00:56:30Z</time>
      </trkpt>
      <trkpt lat="48.94082" lon="-1.01829">
        <ele>65</ele>
        <time>2018-04-09T00:57:30Z</time>
      </trkpt>
      <trkpt lat="48.93981" lon="-1.01898">
        <ele>54</ele>
        <time>2018-04-09T00:58:30Z</time>
      </trkpt>
      <trkpt lat="48.93899" lon="-1.02327">
        <ele>56</ele>
        <time>2018-04-09T00:59:30Z</time>
      </trkpt>
      <trkpt lat="48.93752" lon="-1.0273">
        <ele>52</ele>
        <time>2018-04-09T01:00:30Z</time>
      </trkpt>
      <trkpt lat="48.93772" lon="-1.03048">
        <ele>54</ele>
        <time>2018-04-09T01:01:30Z</time>
      </trkpt>
      <trkpt lat="48.93862" lon="-1.03211">
        <ele>51</ele>
        <time>2018-04-09T01:02:30Z</time>
      </trkpt>
      <trkpt lat="48.93939" lon="-1.0322">
        <ele>51</ele>
        <time>2018-04-09T01:03:30Z</time>
      </trkpt>
      <trkpt lat="48.93958" lon="-1.03297">
        <ele>47</ele>
        <time>2018-04-09T01:04:30Z</time>
      </trkpt>
      <trkpt lat="48.94201" lon="-1.03224">
        <ele>48</ele>
        <time>2018-04-09T01:05:30Z</time>
      </trkpt>
      <trkpt lat="48.94347" lon="-1.03172">
        <ele>46</ele>
        <time>2018-04-09T01:06:30Z</time>
      </trkpt>
      <trkpt lat="48.94564" lon="-1.02898">
        <ele>52</ele>
        <time>2018-04-09T01:07:30Z</time>
      </trkpt>
      <trkpt lat="48.94655" lon="-1.02898">
        <ele>50</ele>
        <time>2018-04-09T01:08:30Z</time>
      </trkpt>
      <trkpt lat="48.94826" lon="-1.03009">
        <ele>60</ele>
        <time>2018-04-09T01:09:30Z</time>
      </trkpt>
      <trkpt lat="48.94877" lon="-1.03087">
        <ele>49</ele>
        <time>2018-04-09T01:10:30Z</time>
      </trkpt>
      <trkpt lat="48.94996" lon="-1.03078">
        <ele>62</ele>
        <time>2018-04-09T01:11:30Z</time>
      </trkpt>
      <trkpt lat="48.95418" lon="-1.03559">
        <ele>52</ele>
        <time>2018-04-09T01:12:30Z</time>
      </trkpt>
      <trkpt lat="48.95497" lon="-1.0361">
        <ele>54</ele>
        <time>2018-04-09T01:13:30Z</time>
      </trkpt>
      <trkpt lat="48.95565" lon="-1.03705">
        <ele>49</ele>
        <time>2018-04-09T01:14:30Z</time>
      </trkpt>
      <trkpt lat="48.95906" lon="-1.0382">
        <ele>51</ele>
        <time>2018-04-09T01:15:30Z</time>
      </trkpt>
      <trkpt lat="48.9601" lon="-1.03773">
        <ele>56</ele>
        <time>2018-04-09T01:16:30Z</time>
      </trkpt>
      <trkpt lat="48.95903" lon="-1.04087">
        <ele>43</ele>
        <time>2018-04-09T01:17:30Z</time>
      </trkpt>
      <trkpt lat="48.96002" lon="-1.04198">
        <ele>45</ele>
        <time>2018-04-09T01:18:30Z</time>
      </trkpt>
      <trkpt lat="48.96168" lon="-1.04301">
        <ele>49</ele>
        <time>2018-04-09T01:19:30Z</time>
      </trkpt>
      <trkpt lat="48.96286" lon="-1.04717">
        <ele>49</ele>
        <time>2018-04-09T01:20:30Z</time>
      </trkpt>
      <trkpt lat="48.9623" lon="-1.05005">
        <ele>55</ele>
        <time>2018-04-09T01:21:30Z</time>
      </trkpt>
      <trkpt lat="48.96066" lon="-1.04953">
        <ele>46</ele>
        <time>2018-04-09T01:22:30Z</time>
      </trkpt>
      <trkpt lat="48.95886" lon="-1.05331">
        <ele>41</ele>
        <time>2018-04-09T01:23:30Z</time>
      </trkpt>
      <trkpt lat="48.96055" lon="-1.05082">
        <ele>55</ele>
        <time>2018-04-09T01:24:30Z</time>
      </trkpt>
      <trkpt lat="48.9603" lon="-1.05468">
        <ele>50</ele>
        <time>2018-04-09T01:25:30Z</time>
      </trkpt>
      <trkpt lat="48.96219" lon="-1.05696">
        <ele>46</ele>
        <time>2018-04-09T01:26:30Z</time>
      </trkpt>
      <trkpt lat="48.96616" lon="-1.05593">
        <ele>55</ele>
        <time>2018-04-09T01:27:30Z</time>
      </trkpt>
      <trkpt lat="48.9663" lon="-1.0531">
        <ele>69</ele>
        <time>2018-04-09T01:28:30Z</time>
      </trkpt>
      <trkpt lat="48.96675" lon="-1.0525">
        <ele>70</ele>
        <time>2018-04-09T01:29:30Z</time>
      </trkpt>
      <trkpt lat="48.96669" lon="-1.05481">
        <ele>56</ele>
        <time>2018-04-09T01:30:30Z</time>
      </trkpt>
      <trkpt lat="48.96726" lon="-1.05636">
        <ele>46</ele>
        <time>2018-04-09T01:31:30Z</time>
      </trkpt>
      <trkpt lat="48.97236" lon="-1.05456">
        <ele>52</ele>
        <time>2018-04-09T01:32:30Z</time>
      </trkpt>
      <trkpt lat="48.9703" lon="-1.05426">
        <ele>61</ele>
        <time>2018-04-09T01:33:30Z</time>
      </trkpt>
      <trkpt lat="48.97038" lon="-1.04885">
        <ele>86</ele>
        <time>2018-04-09T01:34:30Z</time>
      </trkpt>
      <trkpt lat="48.97143" lon="-1.04911">
        <ele>83</ele>
        <time>2018-04-09T01:35:30Z</time>
      </trkpt>
      <trkpt lat="48.97179" lon="-1.04318">
        <ele>90</ele>
        <time>2018-04-09T01:36:30Z</time>
      </trkpt>
      <trkpt lat="48.9743" lon="-1.0437">
        <ele>76</ele>
        <time>2018-04-09T01:37:30Z</time>
      </trkpt>
      <trkpt lat="48.97712" lon="-1.04374">
        <ele>68</ele>
        <time>2018-04-09T01:38:30Z</time>
      </trkpt>
      <trkpt lat="48.97709" lon="-1.04142">
        <ele>73</ele>
        <time>2018-04-09T01:39:30Z</time>
      </trkpt>
      <trkpt lat="48.98117" lon="-1.03726">
        <ele>87</ele>
        <time>2018-04-09T01:40:30Z</time>
      </trkpt>
      <trkpt lat="48.98252" lon="-1.03421">
        <ele>94</ele>
        <time>2018-04-09T01:41:30Z</time>
      </trkpt>
      <trkpt lat="48.98481" lon="-1.03348">
        <ele>94</ele>
        <time>2018-04-09T01:42:30Z</time>
      </trkpt>
      <trkpt lat="48.9854" lon="-1.03426">
        <ele>92</ele>
        <time>2018-04-09T01:43:30Z</time>
      </trkpt>
      <trkpt lat="48.98596" lon="-1.03245">
        <ele>90</ele>
        <time>2018-04-09T01:44:30Z</time>
      </trkpt>
      <trkpt lat="48.98681" lon="-1.03233">
        <ele>88</ele>
        <time>2018-04-09T01:45:30Z</time>
      </trkpt>
      <trkpt lat="48.98726" lon="-1.02975">
        <ele>94</ele>
        <time>2018-04-09T01:46:30Z</time>
      </trkpt>
      <trkpt lat="48.98934" lon="-1.02752">
        <ele>104</ele>
        <time>2018-04-09T01:47:30Z</time>
      </trkpt>
      <trkpt lat="48.99232" lon="-1.0243">
        <ele>118</ele>
        <time>2018-04-09T01:48:30Z</time>
      </trkpt>
      <trkpt lat="48.99401" lon="-1.02443">
        <ele>108</ele>
        <time>2018-04-09T01:49:30Z</time>
      </trkpt>
      <trkpt lat="48.9968" lon="-1.02516">
        <ele>89</ele>
        <time>2018-04-09T01:50:30Z</time>
      </trkpt>
      <trkpt lat="48.99849" lon="-1.02426">
        <ele>71</ele>
        <time>2018-04-09T01:51:30Z</time>
      </trkpt>
      <trkpt lat="48.99877" lon="-1.02524">
        <ele>66</ele>
        <time>2018-04-09T01:52:30Z</time>
      </trkpt>
      <trkpt lat="48.99762" lon="-1.02894">
        <ele>68</ele>
        <time>2018-04-09T01:53:30Z</time>
      </trkpt>
      <trkpt lat="48.99827" lon="-1.03172">
        <ele>66</ele>
        <time>2018-04-09T01:54:30Z</time>
      </trkpt>
      <trkpt lat="48.99953" lon="-1.03151">
        <ele>61</ele>
        <time>2018-04-09T01:55:30Z</time>
      </trkpt>
      <trkpt lat="49.00021" lon="-1.03241">
        <ele>61</ele>
        <time>2018-04-09T01:56:30Z</time>
      </trkpt>
      <trkpt lat="49.00224" lon="-1.03001">
        <ele>85</ele>
        <time>2018-04-09T01:57:30Z</time>
      </trkpt>
      <trkpt lat="49.00331" lon="-1.02726">
        <ele>99</ele>
        <time>2018-04-09T01:58:30Z</time>
      </trkpt>
      <trkpt lat="49.00438" lon="-1.02666">
        <ele>106</ele>
        <time>2018-04-09T01:59:30Z</time>
      </trkpt>
      <trkpt lat="49.00941" lon="-1.02052">
        <ele>126</ele>
        <time>2018-04-09T02:00:30Z</time>
      </trkpt>
      <trkpt lat="49.01158" lon="-1.01743">
        <ele>135</ele>
        <time>2018-04-09T02:01:30Z</time>
      </trkpt>
      <trkpt lat="49.01163" lon="-1.01746">
        <ele>134.9</ele>
      </trkpt>
      <trkpt lat="49.01181" lon="-1.01791">
        <ele>135.2</ele>
      </trkpt>
      <trkpt lat="49.01216" lon="-1.01869">
        <ele>135.1</ele>
      </trkpt>
      <trkpt lat="49.01244" lon="-1.01934">
        <ele>133.7</ele>
      </trkpt>
      <trkpt lat="49.01278" lon="-1.02001">
        <ele>132</ele>
      </trkpt>
      <trkpt lat="49.01316" lon="-1.02074">
        <ele>131.3</ele>
      </trkpt>
      <trkpt lat="49.0134" lon="-1.02121">
        <ele>130.7</ele>
      </trkpt>
      <trkpt lat="49.01364" lon="-1.02164">
        <ele>130.8</ele>
      </trkpt>
      <trkpt lat="49.0138" lon="-1.02188">
        <ele>131</ele>
      </trkpt>
      <trkpt lat="49.01387" lon="-1.02198">
        <ele>131.1</ele>
      </trkpt>
      <trkpt lat="49.0138" lon="-1.02206">
        <ele>130.9</ele>
      </trkpt>
      <trkpt lat="49.01381" lon="-1.02221">
        <ele>130.8</ele>
      </trkpt>
      <trkpt lat="49.01381" lon="-1.02221">
        <ele>130.8</ele>
      </trkpt>
      <trkpt lat="49.01389" lon="-1.02255">
        <ele>130.6</ele>
      </trkpt>
      <trkpt lat="49.01401" lon="-1.0231">
        <ele>130.7</ele>
      </trkpt>
      <trkpt lat="49.01421" lon="-1.024">
        <ele>128.6</ele>
      </trkpt>
      <trkpt lat="49.01437" lon="-1.02466">
        <ele>126.6</ele>
      </trkpt>
      <trkpt lat="49.01448" lon="-1.02498">
        <ele>125.8</ele>
      </trkpt>
      <trkpt lat="49.01456" lon="-1.02528">
        <ele>124.8</ele>
      </trkpt>
      <trkpt lat="49.01465" lon="-1.02571">
        <ele>123.1</ele>
      </trkpt>
      <trkpt lat="49.0147" lon="-1.02604">
        <ele>121.6</ele>
      </trkpt>
      <trkpt lat="49.01472" lon="-1.02675">
        <ele>117.9</ele>
      </trkpt>
      <trkpt lat="49.01473" lon="-1.02699">
        <ele>116.8</ele>
      </trkpt>
      <trkpt lat="49.01471" lon="-1.02716">
        <ele>116</ele>
      </trkpt>
      <trkpt lat="49.01465" lon="-1.02726">
        <ele>115.3</ele>
      </trkpt>
      <trkpt lat="49.01485" lon="-1.02735">
        <ele>115.4</ele>
      </trkpt>
      <trkpt lat="49.01503" lon="-1.02742">
        <ele>115.4</ele>
      </trkpt>
      <trkpt lat="49.01521" lon="-1.02746">
        <ele>115.7</ele>
      </trkpt>
      <trkpt lat="49.01543" lon="-1.02747">
        <ele>116.1</ele>
      </trkpt>
      <trkpt lat="49.0156" lon="-1.02748">
        <ele>116.5</ele>
      </trkpt>
      <trkpt lat="49.01573" lon="-1.02753">
        <ele>116.6</ele>
      </trkpt>
      <trkpt lat="49.01584" lon="-1.02763">
        <ele>116.5</ele>
      </trkpt>
      <trkpt lat="49.01596" lon="-1.02777">
        <ele>116.1</ele>
      </trkpt>
      <trkpt lat="49.01609" lon="-1.0277">
        <ele>116.4</ele>
      </trkpt>
      <trkpt lat="49.01628" lon="-1.02767">
        <ele>116.6</ele>
      </trkpt>
      <trkpt lat="49.01654" lon="-1.02766">
        <ele>116.7</ele>
      </trkpt>
      <trkpt lat="49.01674" lon="-1.02767">
        <ele>116.6</ele>
      </trkpt>
      <trkpt lat="49.01687" lon="-1.02765">
        <ele>116.4</ele>
      </trkpt>
      <trkpt lat="49.01693" lon="-1.02755">
        <ele>116.3</ele>
      </trkpt>
      <trkpt lat="49.01701" lon="-1.02723">
        <ele>116.7</ele>
      </trkpt>
      <trkpt lat="49.01715" lon="-1.02675">
        <ele>117.1</ele>
      </trkpt>
      <trkpt lat="49.01726" lon="-1.02634">
        <ele>117.4</ele>
      </trkpt>
      <trkpt lat="49.01735" lon="-1.02599">
        <ele>117.5</ele>
      </trkpt>
      <trkpt lat="49.0174" lon="-1.02567">
        <ele>117.7</ele>
      </trkpt>
      <trkpt lat="49.01742" lon="-1.02538">
        <ele>118</ele>
      </trkpt>
      <trkpt lat="49.01742" lon="-1.02501">
        <ele>118.5</ele>
      </trkpt>
      <trkpt lat="49.01741" lon="-1.02464">
        <ele>119.3</ele>
      </trkpt>
      <trkpt lat="49.01738" lon="-1.02429">
        <ele>120.3</ele>
      </trkpt>
      <trkpt lat="49.01734" lon="-1.02394">
        <ele>120.3</ele>
      </trkpt>
      <trkpt lat="49.01731" lon="-1.02373">
        <ele>120.1</ele>
      </trkpt>
      <trkpt lat="49.01739" lon="-1.02363">
        <ele>119.4</ele>
      </trkpt>
      <trkpt lat="49.01806" lon="-1.0232">
        <ele>113.6</ele>
      </trkpt>
      <trkpt lat="49.0183" lon="-1.02304">
        <ele>111.6</ele>
      </trkpt>
      <trkpt lat="49.01849" lon="-1.02292">
        <ele>109.9</ele>
      </trkpt>
      <trkpt lat="49.01859" lon="-1.02285">
        <ele>109.2</ele>
      </trkpt>
      <trkpt lat="49.01877" lon="-1.02281">
        <ele>107.9</ele>
      </trkpt>
      <trkpt lat="49.01889" lon="-1.02278">
        <ele>107.1</ele>
      </trkpt>
      <trkpt lat="49.01897" lon="-1.02284">
        <ele>106.7</ele>
      </trkpt>
      <trkpt lat="49.01902" lon="-1.02309">
        <ele>106.7</ele>
      </trkpt>
      <trkpt lat="49.0191" lon="-1.02358">
        <ele>106.2</ele>
      </trkpt>
      <trkpt lat="49.01917" lon="-1.02396">
        <ele>105.2</ele>
      </trkpt>
      <trkpt lat="49.01921" lon="-1.02417">
        <ele>104.7</ele>
      </trkpt>
      <trkpt lat="49.01923" lon="-1.02434">
        <ele>103.9</ele>
      </trkpt>
      <trkpt lat="49.01926" lon="-1.0246">
        <ele>102.8</ele>
      </trkpt>
      <trkpt lat="49.01928" lon="-1.02489">
        <ele>101.7</ele>
      </trkpt>
      <trkpt lat="49.01926" lon="-1.02516">
        <ele>101.5</ele>
      </trkpt>
      <trkpt lat="49.01921" lon="-1.02536">
        <ele>101.8</ele>
      </trkpt>
      <trkpt lat="49.01913" lon="-1.02557">
        <ele>102.3</ele>
      </trkpt>
      <trkpt lat="49.01912" lon="-1.02571">
        <ele>102.3</ele>
      </trkpt>
      <trkpt lat="49.0192" lon="-1.0258">
        <ele>101.9</ele>
      </trkpt>
      <trkpt lat="49.0193" lon="-1.02588">
        <ele>101.7</ele>
      </trkpt>
      <trkpt lat="49.01937" lon="-1.02602">
        <ele>102.2</ele>
      </trkpt>
      <trkpt lat="49.01942" lon="-1.02622">
        <ele>102.9</ele>
      </trkpt>
      <trkpt lat="49.01945" lon="-1.02645">
        <ele>103.9</ele>
      </trkpt>
      <trkpt lat="49.01945" lon="-1.02645">
        <ele>103.9</ele>
      </trkpt>
      <trkpt lat="49.01952" lon="-1.02664">
        <ele>104.6</ele>
      </trkpt>
      <trkpt lat="49.01961" lon="-1.02665">
        <ele>104.4</ele>
      </trkpt>
      <trkpt lat="49.01968" lon="-1.02667">
        <ele>104.2</ele>
      </trkpt>
      <trkpt lat="49.01975" lon="-1.02682">
        <ele>104.2</ele>
      </trkpt>
      <trkpt lat="49.01983" lon="-1.02716">
        <ele>104.4</ele>
      </trkpt>
      <trkpt lat="49.01995" lon="-1.0277">
        <ele>104.6</ele>
      </trkpt>
      <trkpt lat="49.02007" lon="-1.02816">
        <ele>104.4</ele>
      </trkpt>
      <trkpt lat="49.02014" lon="-1.02837">
        <ele>104.2</ele>
      </trkpt>
      <trkpt lat="49.02022" lon="-1.02842">
        <ele>103.7</ele>
      </trkpt>
      <trkpt lat="49.02021" lon="-1.02866">
        <ele>103.8</ele>
      </trkpt>
      <trkpt lat="49.0203" lon="-1.02903">
        <ele>103.5</ele>
      </trkpt>
      <trkpt lat="49.02041" lon="-1.02947">
        <ele>103.4</ele>
      </trkpt>
      <trkpt lat="49.02048" lon="-1.0298">
        <ele>103.5</ele>
      </trkpt>
      <trkpt lat="49.02049" lon="-1.03013">
        <ele>103.6</ele>
      </trkpt>
      <trkpt lat="49.02048" lon="-1.03044">
        <ele>103.5</ele>
      </trkpt>
      <trkpt lat="49.02042" lon="-1.0308">
        <ele>103.5</ele>
      </trkpt>
      <trkpt lat="49.0206" lon="-1.0311">
        <ele>102.7</ele>
      </trkpt>
      <trkpt lat="49.02095" lon="-1.03161">
        <ele>101.4</ele>
      </trkpt>
      <trkpt lat="49.02101" lon="-1.03193">
        <ele>102</ele>
      </trkpt>
      <trkpt lat="49.02109" lon="-1.03258">
        <ele>103.9</ele>
      </trkpt>
      <trkpt lat="49.02114" lon="-1.03314">
        <ele>105.2</ele>
      </trkpt>
      <trkpt lat="49.0212" lon="-1.03381">
        <ele>106.7</ele>
      </trkpt>
      <trkpt lat="49.02124" lon="-1.03414">
        <ele>107.4</ele>
      </trkpt>
      <trkpt lat="49.02134" lon="-1.03438">
        <ele>107.9</ele>
      </trkpt>
      <trkpt lat="49.02152" lon="-1.03468">
        <ele>108.4</ele>
      </trkpt>
      <trkpt lat="49.02167" lon="-1.03493">
        <ele>108.8</ele>
      </trkpt>
      <trkpt lat="49.02177" lon="-1.03518">
        <ele>108.6</ele>
      </trkpt>
      <trkpt lat="49.02184" lon="-1.03548">
        <ele>107.8</ele>
      </trkpt>
      <trkpt lat="49.02191" lon="-1.03549">
        <ele>107.8</ele>
      </trkpt>
      <trkpt lat="49.02212" lon="-1.03558">
        <ele>107.6</ele>
      </trkpt>
      <trkpt lat="49.02263" lon="-1.03586">
        <ele>107</ele>
      </trkpt>
      <trkpt lat="49.0229" lon="-1.03601">
        <ele>106.8</ele>
      </trkpt>
      <trkpt lat="49.02301" lon="-1.03607">
        <ele>106.8</ele>
      </trkpt>
      <trkpt lat="49.02315" lon="-1.03613">
        <ele>106.9</ele>
      </trkpt>
      <trkpt lat="49.0236" lon="-1.03639">
        <ele>107.1</ele>
      </trkpt>
      <trkpt lat="49.02396" lon="-1.03662">
        <ele>107.5</ele>
      </trkpt>
      <trkpt lat="49.02418" lon="-1.03676">
        <ele>107.6</ele>
      </trkpt>
      <trkpt lat="49.02448" lon="-1.03693">
        <ele>106.8</ele>
      </trkpt>
      <trkpt lat="49.02467" lon="-1.03706">
        <ele>106.7</ele>
      </trkpt>
      <trkpt lat="49.02485" lon="-1.03723">
        <ele>106.7</ele>
      </trkpt>
      <trkpt lat="49.0249" lon="-1.03728">
        <ele>106.8</ele>
      </trkpt>
      <trkpt lat="49.02503" lon="-1.03744">
        <ele>106.9</ele>
      </trkpt>
      <trkpt lat="49.02521" lon="-1.03767">
        <ele>105.5</ele>
      </trkpt>
      <trkpt lat="49.02527" lon="-1.03772">
        <ele>105.2</ele>
      </trkpt>
      <trkpt lat="49.02528" lon="-1.03796">
        <ele>104.2</ele>
      </trkpt>
      <trkpt lat="49.02533" lon="-1.03817">
        <ele>103.4</ele>
      </trkpt>
      <trkpt lat="49.02546" lon="-1.03844">
        <ele>100.8</ele>
      </trkpt>
      <trkpt lat="49.0256" lon="-1.03875">
        <ele>95.5</ele>
      </trkpt>
      <trkpt lat="49.02573" lon="-1.03894">
        <ele>94.1</ele>
      </trkpt>
      <trkpt lat="49.02581" lon="-1.03912">
        <ele>93.1</ele>
      </trkpt>
      <trkpt lat="49.02587" lon="-1.03927">
        <ele>90.9</ele>
      </trkpt>
      <trkpt lat="49.02595" lon="-1.03942">
        <ele>88.5</ele>
      </trkpt>
      <trkpt lat="49.02602" lon="-1.03953">
        <ele>87.2</ele>
      </trkpt>
      <trkpt lat="49.02612" lon="-1.0396">
        <ele>87.8</ele>
      </trkpt>
      <trkpt lat="49.02623" lon="-1.03961">
        <ele>89.5</ele>
      </trkpt>
      <trkpt lat="49.02632" lon="-1.03965">
        <ele>90.6</ele>
      </trkpt>
      <trkpt lat="49.0264" lon="-1.03977">
        <ele>90.9</ele>
      </trkpt>
      <trkpt lat="49.02647" lon="-1.03995">
        <ele>90.9</ele>
      </trkpt>
      <trkpt lat="49.02648" lon="-1.04014">
        <ele>89.1</ele>
      </trkpt>
      <trkpt lat="49.02647" lon="-1.04029">
        <ele>86.6</ele>
      </trkpt>
      <trkpt lat="49.02651" lon="-1.04047">
        <ele>85.6</ele>
      </trkpt>
      <trkpt lat="49.02651" lon="-1.04047">
        <ele>85.6</ele>
      </trkpt>
      <trkpt lat="49.02652" lon="-1.0405">
        <ele>85.4</ele>
      </trkpt>
      <trkpt lat="49.0266" lon="-1.04077">
        <ele>85.7</ele>
      </trkpt>
      <trkpt lat="49.0267" lon="-1.04111">
        <ele>85.9</ele>
      </trkpt>
      <trkpt lat="49.0268" lon="-1.04141">
        <ele>84.8</ele>
      </trkpt>
      <trkpt lat="49.02687" lon="-1.04168">
        <ele>84.1</ele>
      </trkpt>
      <trkpt lat="49.02693" lon="-1.04197">
        <ele>83.7</ele>
      </trkpt>
      <trkpt lat="49.02695" lon="-1.0422">
        <ele>83</ele>
      </trkpt>
      <trkpt lat="49.02695" lon="-1.04242">
        <ele>82</ele>
      </trkpt>
      <trkpt lat="49.02693" lon="-1.04257">
        <ele>80.6</ele>
      </trkpt>
      <trkpt lat="49.02691" lon="-1.04274">
        <ele>79.4</ele>
      </trkpt>
      <trkpt lat="49.02692" lon="-1.043">
        <ele>78.4</ele>
      </trkpt>
      <trkpt lat="49.02695" lon="-1.04328">
        <ele>78</ele>
      </trkpt>
      <trkpt lat="49.02698" lon="-1.04359">
        <ele>77.1</ele>
      </trkpt>
      <trkpt lat="49.02701" lon="-1.0439">
        <ele>76.3</ele>
      </trkpt>
      <trkpt lat="49.02705" lon="-1.0442">
        <ele>76</ele>
      </trkpt>
      <trkpt lat="49.02711" lon="-1.04447">
        <ele>76.9</ele>
      </trkpt>
      <trkpt lat="49.02717" lon="-1.04464">
        <ele>78.1</ele>
      </trkpt>
      <trkpt lat="49.02721" lon="-1.04476">
        <ele>79.1</ele>
      </trkpt>
      <trkpt lat="49.02718" lon="-1.04498">
        <ele>77.7</ele>
      </trkpt>
      <trkpt lat="49.02711" lon="-1.04523">
        <ele>74.9</ele>
      </trkpt>
      <trkpt lat="49.02708" lon="-1.04548">
        <ele>73.1</ele>
      </trkpt>
      <trkpt lat="49.0271" lon="-1.04571">
        <ele>72.9</ele>
      </trkpt>
      <trkpt lat="49.02717" lon="-1.04604">
        <ele>73.5</ele>
      </trkpt>
      <trkpt lat="49.02724" lon="-1.04638">
        <ele>74.2</ele>
      </trkpt>
      <trkpt lat="49.02732" lon="-1.04676">
        <ele>74.7</ele>
      </trkpt>
      <trkpt lat="49.02736" lon="-1.0472">
        <ele>74.5</ele>
      </trkpt>
      <trkpt lat="49.02739" lon="-1.04791">
        <ele>73.3</ele>
      </trkpt>
      <trkpt lat="49.02742" lon="-1.04863">
        <ele>71</ele>
      </trkpt>
      <trkpt lat="49.02748" lon="-1.04936">
        <ele>68.2</ele>
      </trkpt>
      <trkpt lat="49.0275" lon="-1.04968">
        <ele>67.1</ele>
      </trkpt>
      <trkpt lat="49.02749" lon="-1.05">
        <ele>65.9</ele>
      </trkpt>
      <trkpt lat="49.02749" lon="-1.05022">
        <ele>64.9</ele>
      </trkpt>
      <trkpt lat="49.02753" lon="-1.05057">
        <ele>63.2</ele>
      </trkpt>
      <trkpt lat="49.02757" lon="-1.0509">
        <ele>61.6</ele>
      </trkpt>
      <trkpt lat="49.02763" lon="-1.05143">
        <ele>59</ele>
      </trkpt>
      <trkpt lat="49.02765" lon="-1.05169">
        <ele>57.7</ele>
      </trkpt>
      <trkpt lat="49.02767" lon="-1.05191">
        <ele>56.9</ele>
      </trkpt>
      <trkpt lat="49.02769" lon="-1.0521">
        <ele>56</ele>
      </trkpt>
      <trkpt lat="49.02772" lon="-1.05245">
        <ele>54.4</ele>
      </trkpt>
      <trkpt lat="49.02776" lon="-1.05258">
        <ele>53.3</ele>
      </trkpt>
      <trkpt lat="49.02763" lon="-1.05288">
        <ele>52.7</ele>
      </trkpt>
      <trkpt lat="49.02753" lon="-1.05318">
        <ele>52.4</ele>
      </trkpt>
      <trkpt lat="49.02742" lon="-1.05346">
        <ele>50.7</ele>
      </trkpt>
      <trkpt lat="49.02725" lon="-1.05383">
        <ele>47.4</ele>
      </trkpt>
      <trkpt lat="49.0271" lon="-1.05415">
        <ele>45</ele>
      </trkpt>
      <trkpt lat="49.02695" lon="-1.05458">
        <ele>41.8</ele>
      </trkpt>
      <trkpt lat="49.0269" lon="-1.05478">
        <ele>40.2</ele>
      </trkpt>
      <trkpt lat="49.02684" lon="-1.05493">
        <ele>39.3</ele>
      </trkpt>
      <trkpt lat="49.0267" lon="-1.05538">
        <ele>37</ele>
      </trkpt>
      <trkpt lat="49.02659" lon="-1.05578">
        <ele>34.6</ele>
      </trkpt>
      <trkpt lat="49.02652" lon="-1.05606">
        <ele>33.3</ele>
      </trkpt>
      <trkpt lat="49.02646" lon="-1.05636">
        <ele>32</ele>
      </trkpt>
      <trkpt lat="49.02644" lon="-1.05657">
        <ele>31</ele>
      </trkpt>
      <trkpt lat="49.02641" lon="-1.05678">
        <ele>30.3</ele>
      </trkpt>
      <trkpt lat="49.02639" lon="-1.05689">
        <ele>30.1</ele>
      </trkpt>
      <trkpt lat="49.02637" lon="-1.05694">
        <ele>30</ele>
      </trkpt>
      <trkpt lat="49.02626" lon="-1.05706">
        <ele>30</ele>
      </trkpt>
      <trkpt lat="49.02609" lon="-1.05719">
        <ele>30.1</ele>
      </trkpt>
      <trkpt lat="49.02606" lon="-1.05722">
        <ele>30.1</ele>
      </trkpt>
      <trkpt lat="49.02604" lon="-1.05726">
        <ele>30.1</ele>
      </trkpt>
      <trkpt lat="49.02604" lon="-1.05731">
        <ele>30</ele>
      </trkpt>
      <trkpt lat="49.02604" lon="-1.05731">
        <ele>30</ele>
      </trkpt>
      <trkpt lat="49.02607" lon="-1.0575">
        <ele>29.5</ele>
      </trkpt>
      <trkpt lat="49.02616" lon="-1.05781">
        <ele>29.3</ele>
      </trkpt>
      <trkpt lat="49.02623" lon="-1.05803">
        <ele>29.6</ele>
      </trkpt>
      <trkpt lat="49.02628" lon="-1.05813">
        <ele>29.8</ele>
      </trkpt>
      <trkpt lat="49.02629" lon="-1.05816">
        <ele>29.9</ele>
      </trkpt>
      <trkpt lat="49.0263" lon="-1.05821">
        <ele>30</ele>
      </trkpt>
      <trkpt lat="49.02641" lon="-1.05869">
        <ele>37.6</ele>
      </trkpt>
      <trkpt lat="49.02642" lon="-1.05875">
        <ele>38.9</ele>
      </trkpt>
      <trkpt lat="49.02675" lon="-1.05848">
        <ele>36.5</ele>
      </trkpt>
      <trkpt lat="49.02748" lon="-1.05794">
        <ele>35.3</ele>
      </trkpt>
      <trkpt lat="49.02758" lon="-1.05787">
        <ele>35.6</ele>
      </trkpt>
      <trkpt lat="49.02776" lon="-1.0577">
        <ele>35.4</ele>
      </trkpt>
      <trkpt lat="49.02804" lon="-1.0574">
        <ele>34</ele>
      </trkpt>
      <trkpt lat="49.02835" lon="-1.05704">
        <ele>32</ele>
      </trkpt>
      <trkpt lat="49.02849" lon="-1.0569">
        <ele>31.5</ele>
      </trkpt>
      <trkpt lat="49.02864" lon="-1.05676">
        <ele>30.4</ele>
      </trkpt>
      <trkpt lat="49.02876" lon="-1.05667">
        <ele>29.6</ele>
      </trkpt>
      <trkpt lat="49.02885" lon="-1.05661">
        <ele>30.1</ele>
      </trkpt>
      <trkpt lat="49.02915" lon="-1.05645">
        <ele>31.4</ele>
      </trkpt>
      <trkpt lat="49.02936" lon="-1.05636">
        <ele>34.1</ele>
      </trkpt>
      <trkpt lat="49.02961" lon="-1.05628">
        <ele>37.1</ele>
      </trkpt>
      <trkpt lat="49.02978" lon="-1.05622">
        <ele>38.5</ele>
      </trkpt>
      <trkpt lat="49.02992" lon="-1.05615">
        <ele>39</ele>
      </trkpt>
      <trkpt lat="49.02999" lon="-1.0561">
        <ele>38.5</ele>
      </trkpt>
      <trkpt lat="49.03026" lon="-1.05586">
        <ele>37.1</ele>
      </trkpt>
      <trkpt lat="49.03041" lon="-1.0557">
        <ele>37.6</ele>
      </trkpt>
      <trkpt lat="49.03068" lon="-1.05541">
        <ele>37.1</ele>
      </trkpt>
      <trkpt lat="49.03101" lon="-1.05504">
        <ele>34.7</ele>
      </trkpt>
      <trkpt lat="49.0314" lon="-1.05461">
        <ele>36.1</ele>
      </trkpt>
      <trkpt lat="49.0316" lon="-1.05435">
        <ele>35.1</ele>
      </trkpt>
      <trkpt lat="49.03182" lon="-1.05404">
        <ele>35.3</ele>
      </trkpt>
      <trkpt lat="49.03201" lon="-1.05372">
        <ele>35.8</ele>
      </trkpt>
      <trkpt lat="49.03223" lon="-1.05335">
        <ele>34</ele>
      </trkpt>
      <trkpt lat="49.03269" lon="-1.05251">
        <ele>29.7</ele>
      </trkpt>
      <trkpt lat="49.03307" lon="-1.05173">
        <ele>27.9</ele>
      </trkpt>
      <trkpt lat="49.03347" lon="-1.0509">
        <ele>24.8</ele>
      </trkpt>
      <trkpt lat="49.03369" lon="-1.05044">
        <ele>25.8</ele>
      </trkpt>
      <trkpt lat="49.03377" lon="-1.05024">
        <ele>26.2</ele>
      </trkpt>
      <trkpt lat="49.03391" lon="-1.04978">
        <ele>26.9</ele>
      </trkpt>
      <trkpt lat="49.03399" lon="-1.04944">
        <ele>27.2</ele>
      </trkpt>
      <trkpt lat="49.03401" lon="-1.0493">
        <ele>27.3</ele>
      </trkpt>
      <trkpt lat="49.03412" lon="-1.04806">
        <ele>27</ele>
      </trkpt>
      <trkpt lat="49.03414" lon="-1.04785">
        <ele>27</ele>
      </trkpt>
      <trkpt lat="49.03416" lon="-1.04779">
        <ele>26.8</ele>
      </trkpt>
      <trkpt lat="49.03419" lon="-1.04772">
        <ele>26.7</ele>
      </trkpt>
      <trkpt lat="49.03427" lon="-1.04756">
        <ele>26.7</ele>
      </trkpt>
      <trkpt lat="49.0344" lon="-1.04732">
        <ele>28.2</ele>
      </trkpt>
      <trkpt lat="49.03447" lon="-1.04722">
        <ele>28.9</ele>
      </trkpt>
      <trkpt lat="49.03452" lon="-1.04715">
        <ele>29.2</ele>
      </trkpt>
      <trkpt lat="49.03459" lon="-1.04707">
        <ele>29.6</ele>
      </trkpt>
      <trkpt lat="49.0347" lon="-1.04696">
        <ele>29.8</ele>
      </trkpt>
      <trkpt lat="49.03478" lon="-1.04688">
        <ele>29.7</ele>
      </trkpt>
      <trkpt lat="49.03489" lon="-1.04682">
        <ele>29.2</ele>
      </trkpt>
      <trkpt lat="49.03501" lon="-1.04676">
        <ele>28.5</ele>
      </trkpt>
      <trkpt lat="49.03525" lon="-1.04668">
        <ele>27.5</ele>
      </trkpt>
      <trkpt lat="49.03538" lon="-1.04665">
        <ele>26.9</ele>
      </trkpt>
      <trkpt lat="49.03553" lon="-1.04661">
        <ele>26.4</ele>
      </trkpt>
      <trkpt lat="49.03562" lon="-1.04661">
        <ele>25.8</ele>
      </trkpt>
      <trkpt lat="49.0357" lon="-1.04663">
        <ele>25.2</ele>
      </trkpt>
      <trkpt lat="49.03582" lon="-1.04667">
        <ele>24.1</ele>
      </trkpt>
      <trkpt lat="49.0359" lon="-1.04672">
        <ele>24.1</ele>
      </trkpt>
      <trkpt lat="49.0359" lon="-1.04672">
        <ele>24.1</ele>
      </trkpt>
      <trkpt lat="49.03599" lon="-1.04678">
        <ele>24.2</ele>
      </trkpt>
      <trkpt lat="49.03608" lon="-1.04687">
        <ele>24.4</ele>
      </trkpt>
      <trkpt lat="49.03614" lon="-1.04696">
        <ele>24.5</ele>
      </trkpt>
      <trkpt lat="49.03618" lon="-1.04702">
        <ele>24.6</ele>
      </trkpt>
      <trkpt lat="49.03627" lon="-1.04718">
        <ele>24.8</ele>
      </trkpt>
      <trkpt lat="49.03632" lon="-1.04726">
        <ele>25</ele>
      </trkpt>
      <trkpt lat="49.03637" lon="-1.04732">
        <ele>25.1</ele>
      </trkpt>
      <trkpt lat="49.03644" lon="-1.04739">
        <ele>25.3</ele>
      </trkpt>
      <trkpt lat="49.03651" lon="-1.04744">
        <ele>25.6</ele>
      </trkpt>
      <trkpt lat="49.03658" lon="-1.04747">
        <ele>25.8</ele>
      </trkpt>
      <trkpt lat="49.03665" lon="-1.04749">
        <ele>26</ele>
      </trkpt>
      <trkpt lat="49.03673" lon="-1.0475">
        <ele>26.2</ele>
      </trkpt>
      <trkpt lat="49.03688" lon="-1.0475">
        <ele>26.5</ele>
      </trkpt>
      <trkpt lat="49.03695" lon="-1.04749">
        <ele>26.7</ele>
      </trkpt>
      <trkpt lat="49.03702" lon="-1.04743">
        <ele>26.7</ele>
      </trkpt>
      <trkpt lat="49.03709" lon="-1.04732">
        <ele>26.6</ele>
      </trkpt>
      <trkpt lat="49.03717" lon="-1.04717">
        <ele>26.3</ele>
      </trkpt>
      <trkpt lat="49.03722" lon="-1.04704">
        <ele>26</ele>
      </trkpt>
      <trkpt lat="49.03726" lon="-1.04687">
        <ele>25.6</ele>
      </trkpt>
      <trkpt lat="49.03733" lon="-1.04652">
        <ele>25</ele>
      </trkpt>
      <trkpt lat="49.03738" lon="-1.04636">
        <ele>24.9</ele>
      </trkpt>
      <trkpt lat="49.03749" lon="-1.04596">
        <ele>25</ele>
      </trkpt>
      <trkpt lat="49.03753" lon="-1.0458">
        <ele>25</ele>
      </trkpt>
      <trkpt lat="49.03758" lon="-1.04553">
        <ele>25</ele>
      </trkpt>
      <trkpt lat="49.03761" lon="-1.04536">
        <ele>25</ele>
      </trkpt>
      <trkpt lat="49.03763" lon="-1.0452">
        <ele>24.9</ele>
      </trkpt>
      <trkpt lat="49.03766" lon="-1.045">
        <ele>24.8</ele>
      </trkpt>
      <trkpt lat="49.0377" lon="-1.04482">
        <ele>25.4</ele>
      </trkpt>
      <trkpt lat="49.03774" lon="-1.04473">
        <ele>25.6</ele>
      </trkpt>
      <trkpt lat="49.0378" lon="-1.04458">
        <ele>25.9</ele>
      </trkpt>
      <trkpt lat="49.03784" lon="-1.04445">
        <ele>26.1</ele>
      </trkpt>
      <trkpt lat="49.03791" lon="-1.04433">
        <ele>26.1</ele>
      </trkpt>
      <trkpt lat="49.03802" lon="-1.04419">
        <ele>25.9</ele>
      </trkpt>
      <trkpt lat="49.0382" lon="-1.04399">
        <ele>25.7</ele>
      </trkpt>
      <trkpt lat="49.0384" lon="-1.04379">
        <ele>25.7</ele>
      </trkpt>
      <trkpt lat="49.03846" lon="-1.04376">
        <ele>25.6</ele>
      </trkpt>
      <trkpt lat="49.0386" lon="-1.0437">
        <ele>25.5</ele>
      </trkpt>
      <trkpt lat="49.03876" lon="-1.04362">
        <ele>25.3</ele>
      </trkpt>
      <trkpt lat="49.03885" lon="-1.04355">
        <ele>25.1</ele>
      </trkpt>
      <trkpt lat="49.0389" lon="-1.0435">
        <ele>25</ele>
      </trkpt>
      <trkpt lat="49.03895" lon="-1.04344">
        <ele>24.9</ele>
      </trkpt>
      <trkpt lat="49.03901" lon="-1.04334">
        <ele>24.7</ele>
      </trkpt>
      <trkpt lat="49.03912" lon="-1.04317">
        <ele>24.6</ele>
      </trkpt>
      <trkpt lat="49.0392" lon="-1.04307">
        <ele>24.6</ele>
      </trkpt>
      <trkpt lat="49.0393" lon="-1.04296">
        <ele>24.7</ele>
      </trkpt>
      <trkpt lat="49.03938" lon="-1.0429">
        <ele>24.8</ele>
      </trkpt>
      <trkpt lat="49.03978" lon="-1.04257">
        <ele>24.5</ele>
      </trkpt>
      <trkpt lat="49.03986" lon="-1.04254">
        <ele>24.3</ele>
      </trkpt>
      <trkpt lat="49.04001" lon="-1.04255">
        <ele>24</ele>
      </trkpt>
      <trkpt lat="49.04014" lon="-1.0426">
        <ele>24</ele>
      </trkpt>
      <trkpt lat="49.04072" lon="-1.04278">
        <ele>24</ele>
      </trkpt>
      <trkpt lat="49.04089" lon="-1.04279">
        <ele>24</ele>
      </trkpt>
      <trkpt lat="49.04105" lon="-1.04281">
        <ele>23.9</ele>
      </trkpt>
      <trkpt lat="49.04107" lon="-1.04281">
        <ele>23.9</ele>
      </trkpt>
      <trkpt lat="49.04198" lon="-1.04311">
        <ele>25.1</ele>
      </trkpt>
      <trkpt lat="49.04215" lon="-1.04317">
        <ele>25.7</ele>
      </trkpt>
      <trkpt lat="49.04363" lon="-1.04362">
        <ele>26.2</ele>
      </trkpt>
      <trkpt lat="49.04423" lon="-1.04377">
        <ele>25</ele>
      </trkpt>
      <trkpt lat="49.04476" lon="-1.04396">
        <ele>25.1</ele>
      </trkpt>
      <trkpt lat="49.04515" lon="-1.04415">
        <ele>24.8</ele>
      </trkpt>
      <trkpt lat="49.04562" lon="-1.04447">
        <ele>24.5</ele>
      </trkpt>
      <trkpt lat="49.04562" lon="-1.04447">
        <ele>24.5</ele>
      </trkpt>
      <trkpt lat="49.04589" lon="-1.04469">
        <ele>24.5</ele>
      </trkpt>
      <trkpt lat="49.04609" lon="-1.04489">
        <ele>24.3</ele>
      </trkpt>
      <trkpt lat="49.0463" lon="-1.04513">
        <ele>24</ele>
      </trkpt>
      <trkpt lat="49.04653" lon="-1.04539">
        <ele>24</ele>
      </trkpt>
      <trkpt lat="49.04671" lon="-1.04562">
        <ele>24.5</ele>
      </trkpt>
      <trkpt lat="49.04695" lon="-1.04597">
        <ele>25.3</ele>
      </trkpt>
      <trkpt lat="49.04747" lon="-1.04669">
        <ele>26.4</ele>
      </trkpt>
      <trkpt lat="49.04765" lon="-1.04691">
        <ele>27.2</ele>
      </trkpt>
      <trkpt lat="49.04789" lon="-1.04718">
        <ele>27.2</ele>
      </trkpt>
      <trkpt lat="49.04813" lon="-1.04736">
        <ele>25.7</ele>
      </trkpt>
      <trkpt lat="49.04856" lon="-1.0477">
        <ele>23.6</ele>
      </trkpt>
      <trkpt lat="49.04878" lon="-1.04781">
        <ele>23</ele>
      </trkpt>
      <trkpt lat="49.04896" lon="-1.04793">
        <ele>22.4</ele>
      </trkpt>
      <trkpt lat="49.04917" lon="-1.048">
        <ele>21.6</ele>
      </trkpt>
      <trkpt lat="49.04933" lon="-1.04803">
        <ele>21.7</ele>
      </trkpt>
      <trkpt lat="49.04964" lon="-1.04806">
        <ele>21.9</ele>
      </trkpt>
      <trkpt lat="49.04986" lon="-1.04809">
        <ele>22</ele>
      </trkpt>
      <trkpt lat="49.04996" lon="-1.04814">
        <ele>22</ele>
      </trkpt>
      <trkpt lat="49.0501" lon="-1.04823">
        <ele>22</ele>
      </trkpt>
      <trkpt lat="49.05017" lon="-1.0483">
        <ele>22</ele>
      </trkpt>
      <trkpt lat="49.05022" lon="-1.04843">
        <ele>22.2</ele>
      </trkpt>
      <trkpt lat="49.05025" lon="-1.04846">
        <ele>22.2</ele>
      </trkpt>
      <trkpt lat="49.05029" lon="-1.0485">
        <ele>22.3</ele>
      </trkpt>
      <trkpt lat="49.05039" lon="-1.04853">
        <ele>22.2</ele>
      </trkpt>
      <trkpt lat="49.05041" lon="-1.04853">
        <ele>22.2</ele>
      </trkpt>
      <trkpt lat="49.05048" lon="-1.04859">
        <ele>22.3</ele>
      </trkpt>
      <trkpt lat="49.05055" lon="-1.04867">
        <ele>22.3</ele>
      </trkpt>
      <trkpt lat="49.05061" lon="-1.04876">
        <ele>22.3</ele>
      </trkpt>
      <trkpt lat="49.05066" lon="-1.0489">
        <ele>22.3</ele>
      </trkpt>
      <trkpt lat="49.05069" lon="-1.04908">
        <ele>22.3</ele>
      </trkpt>
      <trkpt lat="49.05071" lon="-1.04939">
        <ele>22.1</ele>
      </trkpt>
      <trkpt lat="49.05072" lon="-1.04956">
        <ele>22</ele>
      </trkpt>
      <trkpt lat="49.05074" lon="-1.0502">
        <ele>21.6</ele>
      </trkpt>
      <trkpt lat="49.05077" lon="-1.05063">
        <ele>21.6</ele>
      </trkpt>
      <trkpt lat="49.0508" lon="-1.05091">
        <ele>21.8</ele>
      </trkpt>
      <trkpt lat="49.05084" lon="-1.05115">
        <ele>22.9</ele>
      </trkpt>
      <trkpt lat="49.05091" lon="-1.05139">
        <ele>24.1</ele>
      </trkpt>
      <trkpt lat="49.05097" lon="-1.05152">
        <ele>24.4</ele>
      </trkpt>
      <trkpt lat="49.05112" lon="-1.05172">
        <ele>24.5</ele>
      </trkpt>
      <trkpt lat="49.05128" lon="-1.0519">
        <ele>24.4</ele>
      </trkpt>
      <trkpt lat="49.05162" lon="-1.05235">
        <ele>23.8</ele>
      </trkpt>
      <trkpt lat="49.05187" lon="-1.05269">
        <ele>24.3</ele>
      </trkpt>
      <trkpt lat="49.05226" lon="-1.05325">
        <ele>25.1</ele>
      </trkpt>
      <trkpt lat="49.05238" lon="-1.05338">
        <ele>24.9</ele>
      </trkpt>
      <trkpt lat="49.05257" lon="-1.05354">
        <ele>24.8</ele>
      </trkpt>
      <trkpt lat="49.05274" lon="-1.05365">
        <ele>24.9</ele>
      </trkpt>
      <trkpt lat="49.05323" lon="-1.05392">
        <ele>24.5</ele>
      </trkpt>
      <trkpt lat="49.05333" lon="-1.054">
        <ele>24.4</ele>
      </trkpt>
      <trkpt lat="49.05345" lon="-1.0541">
        <ele>24.2</ele>
      </trkpt>
      <trkpt lat="49.05367" lon="-1.05435">
        <ele>24</ele>
      </trkpt>
      <trkpt lat="49.05405" lon="-1.0549">
        <ele>22.8</ele>
      </trkpt>
      <trkpt lat="49.05484" lon="-1.05605">
        <ele>22.7</ele>
      </trkpt>
      <trkpt lat="49.05488" lon="-1.05608">
        <ele>22.4</ele>
      </trkpt>
      <trkpt lat="49.05497" lon="-1.05611">
        <ele>21.9</ele>
      </trkpt>
      <trkpt lat="49.05503" lon="-1.05617">
        <ele>21.6</ele>
      </trkpt>
      <trkpt lat="49.05508" lon="-1.05625">
        <ele>21.5</ele>
      </trkpt>
      <trkpt lat="49.05516" lon="-1.05643">
        <ele>21.3</ele>
      </trkpt>
      <trkpt lat="49.05524" lon="-1.05653">
        <ele>21.2</ele>
      </trkpt>
      <trkpt lat="49.05539" lon="-1.05669">
        <ele>21.1</ele>
      </trkpt>
      <trkpt lat="49.05554" lon="-1.05686">
        <ele>21.3</ele>
      </trkpt>
      <trkpt lat="49.05637" lon="-1.05782">
        <ele>21.5</ele>
      </trkpt>
      <trkpt lat="49.05637" lon="-1.05782">
        <ele>21.5</ele>
      </trkpt>
      <trkpt lat="49.0569" lon="-1.05841">
        <ele>21</ele>
      </trkpt>
      <trkpt lat="49.05706" lon="-1.05855">
        <ele>21.1</ele>
      </trkpt>
      <trkpt lat="49.0572" lon="-1.05865">
        <ele>21.2</ele>
      </trkpt>
      <trkpt lat="49.05755" lon="-1.05885">
        <ele>21.5</ele>
      </trkpt>
      <trkpt lat="49.05771" lon="-1.05898">
        <ele>21.4</ele>
      </trkpt>
      <trkpt lat="49.05794" lon="-1.05925">
        <ele>20.9</ele>
      </trkpt>
      <trkpt lat="49.05817" lon="-1.05957">
        <ele>20.7</ele>
      </trkpt>
      <trkpt lat="49.05839" lon="-1.06001">
        <ele>20.9</ele>
      </trkpt>
      <trkpt lat="49.05848" lon="-1.06018">
        <ele>20.4</ele>
      </trkpt>
      <trkpt lat="49.05861" lon="-1.06039">
        <ele>19.9</ele>
      </trkpt>
      <trkpt lat="49.05882" lon="-1.06069">
        <ele>19.2</ele>
      </trkpt>
      <trkpt lat="49.05887" lon="-1.06078">
        <ele>19.1</ele>
      </trkpt>
      <trkpt lat="49.05892" lon="-1.06091">
        <ele>19.5</ele>
      </trkpt>
      <trkpt lat="49.05897" lon="-1.06105">
        <ele>20.3</ele>
      </trkpt>
      <trkpt lat="49.05901" lon="-1.06119">
        <ele>21.2</ele>
      </trkpt>
      <trkpt lat="49.05905" lon="-1.06138">
        <ele>22.3</ele>
      </trkpt>
      <trkpt lat="49.05913" lon="-1.06171">
        <ele>24.6</ele>
      </trkpt>
      <trkpt lat="49.05918" lon="-1.06187">
        <ele>26.9</ele>
      </trkpt>
      <trkpt lat="49.05925" lon="-1.06202">
        <ele>28.7</ele>
      </trkpt>
      <trkpt lat="49.05932" lon="-1.06214">
        <ele>30.2</ele>
      </trkpt>
      <trkpt lat="49.05939" lon="-1.06223">
        <ele>31.1</ele>
      </trkpt>
      <trkpt lat="49.05949" lon="-1.06229">
        <ele>31.5</ele>
      </trkpt>
      <trkpt lat="49.05978" lon="-1.06243">
        <ele>32.1</ele>
      </trkpt>
      <trkpt lat="49.05991" lon="-1.06252">
        <ele>32.6</ele>
      </trkpt>
      <trkpt lat="49.06004" lon="-1.06261">
        <ele>32.9</ele>
      </trkpt>
      <trkpt lat="49.06012" lon="-1.06264">
        <ele>32.7</ele>
      </trkpt>
      <trkpt lat="49.06037" lon="-1.06271">
        <ele>31.7</ele>
      </trkpt>
      <trkpt lat="49.06042" lon="-1.06275">
        <ele>31.9</ele>
      </trkpt>
      <trkpt lat="49.06047" lon="-1.06284">
        <ele>32.5</ele>
      </trkpt>
      <trkpt lat="49.06054" lon="-1.06296">
        <ele>33.4</ele>
      </trkpt>
      <trkpt lat="49.06059" lon="-1.06304">
        <ele>34</ele>
      </trkpt>
      <trkpt lat="49.06064" lon="-1.06308">
        <ele>34.1</ele>
      </trkpt>
      <trkpt lat="49.06068" lon="-1.06307">
        <ele>33.9</ele>
      </trkpt>
      <trkpt lat="49.0607" lon="-1.06307">
        <ele>33.7</ele>
      </trkpt>
      <trkpt lat="49.06073" lon="-1.06302">
        <ele>32.8</ele>
      </trkpt>
      <trkpt lat="49.06072" lon="-1.06294">
        <ele>32</ele>
      </trkpt>
      <trkpt lat="49.06064" lon="-1.06265">
        <ele>29.2</ele>
      </trkpt>
      <trkpt lat="49.06063" lon="-1.06259">
        <ele>28.5</ele>
      </trkpt>
      <trkpt lat="49.06064" lon="-1.06252">
        <ele>27.7</ele>
      </trkpt>
      <trkpt lat="49.06067" lon="-1.06247">
        <ele>26.9</ele>
      </trkpt>
      <trkpt lat="49.06069" lon="-1.06244">
        <ele>26.6</ele>
      </trkpt>
      <trkpt lat="49.06075" lon="-1.06242">
        <ele>26.1</ele>
      </trkpt>
      <trkpt lat="49.06117" lon="-1.06226">
        <ele>22.7</ele>
      </trkpt>
      <trkpt lat="49.06141" lon="-1.06216">
        <ele>21.2</ele>
      </trkpt>
      <trkpt lat="49.06153" lon="-1.0621">
        <ele>20.6</ele>
      </trkpt>
      <trkpt lat="49.06162" lon="-1.06205">
        <ele>20.2</ele>
      </trkpt>
      <trkpt lat="49.06172" lon="-1.06203">
        <ele>20</ele>
      </trkpt>
      <trkpt lat="49.06183" lon="-1.06202">
        <ele>19.9</ele>
      </trkpt>
      <trkpt lat="49.06198" lon="-1.06199">
        <ele>19.9</ele>
      </trkpt>
      <trkpt lat="49.06208" lon="-1.062">
        <ele>19.8</ele>
      </trkpt>
      <trkpt lat="49.06221" lon="-1.06203">
        <ele>19.7</ele>
      </trkpt>
      <trkpt lat="49.06235" lon="-1.0621">
        <ele>19.6</ele>
      </trkpt>
      <trkpt lat="49.06254" lon="-1.06219">
        <ele>19.3</ele>
      </trkpt>
      <trkpt lat="49.06264" lon="-1.06227">
        <ele>19.2</ele>
      </trkpt>
      <trkpt lat="49.06272" lon="-1.06234">
        <ele>19</ele>
      </trkpt>
      <trkpt lat="49.06278" lon="-1.06242">
        <ele>18.8</ele>
      </trkpt>
      <trkpt lat="49.06284" lon="-1.0625">
        <ele>18.6</ele>
      </trkpt>
      <trkpt lat="49.06289" lon="-1.06262">
        <ele>18.8</ele>
      </trkpt>
      <trkpt lat="49.06299" lon="-1.06291">
        <ele>19.3</ele>
      </trkpt>
      <trkpt lat="49.06303" lon="-1.06306">
        <ele>19.5</ele>
      </trkpt>
      <trkpt lat="49.06307" lon="-1.06325">
        <ele>19.8</ele>
      </trkpt>
      <trkpt lat="49.06307" lon="-1.06325">
        <ele>19.8</ele>
      </trkpt>
      <trkpt lat="49.06309" lon="-1.06344">
        <ele>20.3</ele>
      </trkpt>
      <trkpt lat="49.0631" lon="-1.06364">
        <ele>21</ele>
      </trkpt>
      <trkpt lat="49.06311" lon="-1.06375">
        <ele>21.3</ele>
      </trkpt>
      <trkpt lat="49.06317" lon="-1.06395">
        <ele>21.6</ele>
      </trkpt>
      <trkpt lat="49.06323" lon="-1.06406">
        <ele>21.6</ele>
      </trkpt>
      <trkpt lat="49.0633" lon="-1.06416">
        <ele>21.2</ele>
      </trkpt>
      <trkpt lat="49.06338" lon="-1.06423">
        <ele>21.3</ele>
      </trkpt>
      <trkpt lat="49.06349" lon="-1.06431">
        <ele>21.6</ele>
      </trkpt>
      <trkpt lat="49.0636" lon="-1.06435">
        <ele>21.6</ele>
      </trkpt>
      <trkpt lat="49.06385" lon="-1.06444">
        <ele>21.3</ele>
      </trkpt>
      <trkpt lat="49.06434" lon="-1.06463">
        <ele>21</ele>
      </trkpt>
      <trkpt lat="49.06477" lon="-1.06476">
        <ele>20.8</ele>
      </trkpt>
      <trkpt lat="49.06496" lon="-1.0648">
        <ele>20.6</ele>
      </trkpt>
      <trkpt lat="49.06564" lon="-1.06497">
        <ele>20.9</ele>
      </trkpt>
      <trkpt lat="49.06578" lon="-1.06502">
        <ele>21.1</ele>
      </trkpt>
      <trkpt lat="49.06589" lon="-1.06509">
        <ele>21.3</ele>
      </trkpt>
      <trkpt lat="49.06599" lon="-1.06521">
        <ele>21.5</ele>
      </trkpt>
      <trkpt lat="49.06682" lon="-1.06617">
        <ele>22.9</ele>
      </trkpt>
      <trkpt lat="49.06752" lon="-1.06696">
        <ele>20.3</ele>
      </trkpt>
      <trkpt lat="49.0679" lon="-1.06739">
        <ele>20.7</ele>
      </trkpt>
      <trkpt lat="49.06832" lon="-1.06787">
        <ele>21.8</ele>
      </trkpt>
      <trkpt lat="49.06903" lon="-1.06865">
        <ele>21.6</ele>
      </trkpt>
      <trkpt lat="49.06988" lon="-1.06963">
        <ele>20.2</ele>
      </trkpt>
      <trkpt lat="49.07046" lon="-1.07028">
        <ele>19.1</ele>
      </trkpt>
      <trkpt lat="49.07051" lon="-1.07033">
        <ele>19.1</ele>
      </trkpt>
      <trkpt lat="49.07056" lon="-1.07042">
        <ele>19.2</ele>
      </trkpt>
      <trkpt lat="49.07063" lon="-1.0706">
        <ele>19.4</ele>
      </trkpt>
      <trkpt lat="49.07074" lon="-1.07093">
        <ele>19.6</ele>
      </trkpt>
      <trkpt lat="49.07078" lon="-1.07109">
        <ele>19.6</ele>
      </trkpt>
      <trkpt lat="49.07101" lon="-1.07157">
        <ele>19.3</ele>
      </trkpt>
      <trkpt lat="49.07125" lon="-1.07204">
        <ele>19.8</ele>
      </trkpt>
      <trkpt lat="49.0714" lon="-1.07227">
        <ele>19.9</ele>
      </trkpt>
      <trkpt lat="49.07163" lon="-1.07258">
        <ele>19.4</ele>
      </trkpt>
      <trkpt lat="49.0719" lon="-1.07286">
        <ele>19.1</ele>
      </trkpt>
      <trkpt lat="49.07222" lon="-1.07318">
        <ele>18.2</ele>
      </trkpt>
      <trkpt lat="49.07251" lon="-1.07342">
        <ele>17.3</ele>
      </trkpt>
      <trkpt lat="49.07269" lon="-1.07354">
        <ele>17.6</ele>
      </trkpt>
      <trkpt lat="49.07293" lon="-1.07366">
        <ele>17.8</ele>
      </trkpt>
      <trkpt lat="49.07307" lon="-1.07373">
        <ele>17.8</ele>
      </trkpt>
      <trkpt lat="49.07317" lon="-1.07382">
        <ele>17.8</ele>
      </trkpt>
      <trkpt lat="49.07328" lon="-1.07393">
        <ele>17.8</ele>
      </trkpt>
      <trkpt lat="49.07342" lon="-1.07407">
        <ele>17.8</ele>
      </trkpt>
      <trkpt lat="49.07355" lon="-1.07424">
        <ele>17.9</ele>
      </trkpt>
      <trkpt lat="49.07367" lon="-1.07442">
        <ele>18.1</ele>
      </trkpt>
      <trkpt lat="49.0738" lon="-1.07464">
        <ele>18.2</ele>
      </trkpt>
      <trkpt lat="49.07391" lon="-1.07484">
        <ele>18.1</ele>
      </trkpt>
      <trkpt lat="49.07402" lon="-1.07507">
        <ele>17.9</ele>
      </trkpt>
      <trkpt lat="49.0742" lon="-1.07547">
        <ele>18.2</ele>
      </trkpt>
      <trkpt lat="49.07444" lon="-1.07611">
        <ele>19.6</ele>
      </trkpt>
      <trkpt lat="49.07451" lon="-1.07636">
        <ele>19.8</ele>
      </trkpt>
      <trkpt lat="49.07456" lon="-1.07661">
        <ele>20</ele>
      </trkpt>
      <trkpt lat="49.0746" lon="-1.07698">
        <ele>20.2</ele>
      </trkpt>
      <trkpt lat="49.07464" lon="-1.07752">
        <ele>20.3</ele>
      </trkpt>
      <trkpt lat="49.07468" lon="-1.07826">
        <ele>19.4</ele>
      </trkpt>
      <trkpt lat="49.07472" lon="-1.07882">
        <ele>19.8</ele>
      </trkpt>
      <trkpt lat="49.07479" lon="-1.07912">
        <ele>19.9</ele>
      </trkpt>
      <trkpt lat="49.07507" lon="-1.07977">
        <ele>20.2</ele>
      </trkpt>
      <trkpt lat="49.07533" lon="-1.08011">
        <ele>20.1</ele>
      </trkpt>
      <trkpt lat="49.07563" lon="-1.08041">
        <ele>20.1</ele>
      </trkpt>
      <trkpt lat="49.07588" lon="-1.08057">
        <ele>19.9</ele>
      </trkpt>
      <trkpt lat="49.07611" lon="-1.08068">
        <ele>19.6</ele>
      </trkpt>
      <trkpt lat="49.07611" lon="-1.08068">
        <ele>19.6</ele>
      </trkpt>
      <trkpt lat="49.07637" lon="-1.08075">
        <ele>18.9</ele>
      </trkpt>
      <trkpt lat="49.07659" lon="-1.08086">
        <ele>18.4</ele>
      </trkpt>
      <trkpt lat="49.07711" lon="-1.08117">
        <ele>19.5</ele>
      </trkpt>
      <trkpt lat="49.07749" lon="-1.08143">
        <ele>20.4</ele>
      </trkpt>
      <trkpt lat="49.07782" lon="-1.08164">
        <ele>19.4</ele>
      </trkpt>
      <trkpt lat="49.0782" lon="-1.08174">
        <ele>17.7</ele>
      </trkpt>
      <trkpt lat="49.07848" lon="-1.08186">
        <ele>17.2</ele>
      </trkpt>
      <trkpt lat="49.07878" lon="-1.08209">
        <ele>17.2</ele>
      </trkpt>
      <trkpt lat="49.07911" lon="-1.08242">
        <ele>17.1</ele>
      </trkpt>
      <trkpt lat="49.07922" lon="-1.08259">
        <ele>16.8</ele>
      </trkpt>
      <trkpt lat="49.07932" lon="-1.08281">
        <ele>16.4</ele>
      </trkpt>
      <trkpt lat="49.07947" lon="-1.08323">
        <ele>15.8</ele>
      </trkpt>
      <trkpt lat="49.07959" lon="-1.08364">
        <ele>16.2</ele>
      </trkpt>
      <trkpt lat="49.07974" lon="-1.08418">
        <ele>17.4</ele>
      </trkpt>
      <trkpt lat="49.07982" lon="-1.0844">
        <ele>18.6</ele>
      </trkpt>
      <trkpt lat="49.07997" lon="-1.08487">
        <ele>20.5</ele>
      </trkpt>
      <trkpt lat="49.08012" lon="-1.08529">
        <ele>23.2</ele>
      </trkpt>
      <trkpt lat="49.08031" lon="-1.08584">
        <ele>26.1</ele>
      </trkpt>
      <trkpt lat="49.08049" lon="-1.0862">
        <ele>28.2</ele>
      </trkpt>
      <trkpt lat="49.08082" lon="-1.08671">
        <ele>28.7</ele>
      </trkpt>
      <trkpt lat="49.08147" lon="-1.08757">
        <ele>27.8</ele>
      </trkpt>
      <trkpt lat="49.08213" lon="-1.08824">
        <ele>25</ele>
      </trkpt>
      <trkpt lat="49.08242" lon="-1.08859">
        <ele>21.4</ele>
      </trkpt>
      <trkpt lat="49.0827" lon="-1.08895">
        <ele>21.1</ele>
      </trkpt>
      <trkpt lat="49.08287" lon="-1.08915">
        <ele>20.8</ele>
      </trkpt>
      <trkpt lat="49.08303" lon="-1.08933">
        <ele>20.9</ele>
      </trkpt>
      <trkpt lat="49.08316" lon="-1.08945">
        <ele>20.5</ele>
      </trkpt>
      <trkpt lat="49.08347" lon="-1.08971">
        <ele>19.3</ele>
      </trkpt>
      <trkpt lat="49.08363" lon="-1.08984">
        <ele>18.8</ele>
      </trkpt>
      <trkpt lat="49.08382" lon="-1.09001">
        <ele>18</ele>
      </trkpt>
      <trkpt lat="49.08391" lon="-1.09012">
        <ele>17.5</ele>
      </trkpt>
      <trkpt lat="49.08399" lon="-1.09022">
        <ele>17</ele>
      </trkpt>
      <trkpt lat="49.08407" lon="-1.09034">
        <ele>16.7</ele>
      </trkpt>
      <trkpt lat="49.08416" lon="-1.09048">
        <ele>16.2</ele>
      </trkpt>
      <trkpt lat="49.0845" lon="-1.09101">
        <ele>16.9</ele>
      </trkpt>
      <trkpt lat="49.0847" lon="-1.09135">
        <ele>17.4</ele>
      </trkpt>
      <trkpt lat="49.08482" lon="-1.0915">
        <ele>17.6</ele>
      </trkpt>
      <trkpt lat="49.08497" lon="-1.09164">
        <ele>17.9</ele>
      </trkpt>
      <trkpt lat="49.08506" lon="-1.09173">
        <ele>18</ele>
      </trkpt>
      <trkpt lat="49.08509" lon="-1.0918">
        <ele>18.1</ele>
      </trkpt>
      <trkpt lat="49.08512" lon="-1.09198">
        <ele>18.2</ele>
      </trkpt>
      <trkpt lat="49.0852" lon="-1.09214">
        <ele>18.3</ele>
      </trkpt>
      <trkpt lat="49.08525" lon="-1.0922">
        <ele>18.3</ele>
      </trkpt>
      <trkpt lat="49.08531" lon="-1.0923">
        <ele>18.4</ele>
      </trkpt>
      <trkpt lat="49.08522" lon="-1.09224">
        <ele>18.4</ele>
      </trkpt>
      <trkpt lat="49.08536" lon="-1.09199">
        <ele>18</ele>
      </trkpt>
      <trkpt lat="49.08548" lon="-1.09174">
        <ele>17.5</ele>
      </trkpt>
      <trkpt lat="49.08563" lon="-1.09139">
        <ele>17.8</ele>
      </trkpt>
      <trkpt lat="49.08569" lon="-1.09131">
        <ele>18.1</ele>
      </trkpt>
      <trkpt lat="49.08579" lon="-1.09126">
        <ele>18.4</ele>
      </trkpt>
      <trkpt lat="49.08593" lon="-1.09125">
        <ele>19.6</ele>
      </trkpt>
      <trkpt lat="49.08613" lon="-1.09131">
        <ele>21.4</ele>
      </trkpt>
      <trkpt lat="49.08627" lon="-1.09138">
        <ele>22.3</ele>
      </trkpt>
      <trkpt lat="49.08627" lon="-1.09124">
        <ele>23.6</ele>
      </trkpt>
      <trkpt lat="49.08626" lon="-1.09116">
        <ele>24.2</ele>
      </trkpt>
      <trkpt lat="49.08622" lon="-1.09105">
        <ele>24.6</ele>
      </trkpt>
      <trkpt lat="49.08612" lon="-1.09083">
        <ele>24.8</ele>
      </trkpt>
      <trkpt lat="49.08593" lon="-1.09049">
        <ele>24</ele>
      </trkpt>
      <trkpt lat="49.08593" lon="-1.09049">
        <ele>24</ele>
      </trkpt>
      <trkpt lat="49.08578" lon="-1.09013">
        <ele>23.7</ele>
      </trkpt>
      <trkpt lat="49.08562" lon="-1.08982">
        <ele>23.7</ele>
      </trkpt>
      <trkpt lat="49.08542" lon="-1.08937">
        <ele>23.2</ele>
      </trkpt>
      <trkpt lat="49.08531" lon="-1.08895">
        <ele>23</ele>
      </trkpt>
      <trkpt lat="49.08524" lon="-1.08856">
        <ele>23.1</ele>
      </trkpt>
      <trkpt lat="49.08516" lon="-1.0881">
        <ele>22.4</ele>
      </trkpt>
      <trkpt lat="49.08514" lon="-1.08768">
        <ele>22.4</ele>
      </trkpt>
      <trkpt lat="49.0851" lon="-1.08709">
        <ele>22.5</ele>
      </trkpt>
      <trkpt lat="49.08508" lon="-1.08648">
        <ele>22.8</ele>
      </trkpt>
      <trkpt lat="49.08507" lon="-1.08595">
        <ele>21.9</ele>
      </trkpt>
      <trkpt lat="49.08507" lon="-1.08583">
        <ele>21.8</ele>
      </trkpt>
      <trkpt lat="49.08506" lon="-1.08573">
        <ele>21.6</ele>
      </trkpt>
      <trkpt lat="49.08502" lon="-1.08559">
        <ele>21.2</ele>
      </trkpt>
      <trkpt lat="49.08499" lon="-1.08552">
        <ele>21</ele>
      </trkpt>
      <trkpt lat="49.08507" lon="-1.08542">
        <ele>21.6</ele>
      </trkpt>
      <trkpt lat="49.08514" lon="-1.08526">
        <ele>22</ele>
      </trkpt>
      <trkpt lat="49.08519" lon="-1.08511">
        <ele>22.3</ele>
      </trkpt>
      <trkpt lat="49.08529" lon="-1.08505">
        <ele>22.8</ele>
      </trkpt>
      <trkpt lat="49.08535" lon="-1.08496">
        <ele>23.1</ele>
      </trkpt>
      <trkpt lat="49.08542" lon="-1.08479">
        <ele>23.6</ele>
      </trkpt>
      <trkpt lat="49.08545" lon="-1.08467">
        <ele>23.9</ele>
      </trkpt>
      <trkpt lat="49.08551" lon="-1.08453">
        <ele>24.2</ele>
      </trkpt>
      <trkpt lat="49.08561" lon="-1.0844">
        <ele>24.5</ele>
      </trkpt>
      <trkpt lat="49.08579" lon="-1.08431">
        <ele>25</ele>
      </trkpt>
      <trkpt lat="49.08586" lon="-1.08409">
        <ele>25.4</ele>
      </trkpt>
      <trkpt lat="49.08592" lon="-1.08386">
        <ele>26.5</ele>
      </trkpt>
      <trkpt lat="49.08592" lon="-1.08351">
        <ele>27.8</ele>
      </trkpt>
      <trkpt lat="49.08591" lon="-1.08315">
        <ele>29.4</ele>
      </trkpt>
      <trkpt lat="49.08593" lon="-1.0828">
        <ele>31.6</ele>
      </trkpt>
      <trkpt lat="49.08595" lon="-1.08234">
        <ele>34.2</ele>
      </trkpt>
      <trkpt lat="49.08616" lon="-1.08227">
        <ele>35.5</ele>
      </trkpt>
      <trkpt lat="49.08618" lon="-1.0822">
        <ele>36</ele>
      </trkpt>
      <trkpt lat="49.08618" lon="-1.08211">
        <ele>36.5</ele>
      </trkpt>
      <trkpt lat="49.08616" lon="-1.08202">
        <ele>36.9</ele>
      </trkpt>
      <trkpt lat="49.08614" lon="-1.0819">
        <ele>37.5</ele>
      </trkpt>
      <trkpt lat="49.08606" lon="-1.08115">
        <ele>40.2</ele>
      </trkpt>
      <trkpt lat="49.08605" lon="-1.08089">
        <ele>41.1</ele>
      </trkpt>
      <trkpt lat="49.08616" lon="-1.08087">
        <ele>41.8</ele>
      </trkpt>
      <trkpt lat="49.0862" lon="-1.08078">
        <ele>42.3</ele>
      </trkpt>
      <trkpt lat="49.0862" lon="-1.08078">
        <ele>42.3</ele>
      </trkpt>
      <trkpt lat="49.08626" lon="-1.08068">
        <ele>43</ele>
      </trkpt>
      <trkpt lat="49.08678" lon="-1.07987">
        <ele>50</ele>
      </trkpt>
      <trkpt lat="49.08702" lon="-1.0795">
        <ele>52.5</ele>
      </trkpt>
      <trkpt lat="49.0872" lon="-1.0792">
        <ele>54.4</ele>
      </trkpt>
      <trkpt lat="49.08736" lon="-1.07896">
        <ele>56</ele>
      </trkpt>
      <trkpt lat="49.08742" lon="-1.07886">
        <ele>56.7</ele>
      </trkpt>
      <trkpt lat="49.08747" lon="-1.07878">
        <ele>57.2</ele>
      </trkpt>
      <trkpt lat="49.08751" lon="-1.0787">
        <ele>57.7</ele>
      </trkpt>
      <trkpt lat="49.08755" lon="-1.07864">
        <ele>58.1</ele>
      </trkpt>
      <trkpt lat="49.08759" lon="-1.07856">
        <ele>58.6</ele>
      </trkpt>
      <trkpt lat="49.08763" lon="-1.07848">
        <ele>59.1</ele>
      </trkpt>
      <trkpt lat="49.08772" lon="-1.07831">
        <ele>60.1</ele>
      </trkpt>
      <trkpt lat="49.08776" lon="-1.07822">
        <ele>60.5</ele>
      </trkpt>
      <trkpt lat="49.0879" lon="-1.07794">
        <ele>61.8</ele>
      </trkpt>
      <trkpt lat="49.08799" lon="-1.0778">
        <ele>62.7</ele>
      </trkpt>
      <trkpt lat="49.08802" lon="-1.07773">
        <ele>63.1</ele>
      </trkpt>
      <trkpt lat="49.08804" lon="-1.07767">
        <ele>63.4</ele>
      </trkpt>
      <trkpt lat="49.08806" lon="-1.07757">
        <ele>63.8</ele>
      </trkpt>
      <trkpt lat="49.08807" lon="-1.07752">
        <ele>64</ele>
      </trkpt>
      <trkpt lat="49.08802" lon="-1.0774">
        <ele>63.8</ele>
      </trkpt>
      <trkpt lat="49.088" lon="-1.07726">
        <ele>63.7</ele>
      </trkpt>
      <trkpt lat="49.0882" lon="-1.07711">
        <ele>65.1</ele>
      </trkpt>
      <trkpt lat="49.08836" lon="-1.07702">
        <ele>66.1</ele>
      </trkpt>
      <trkpt lat="49.08839" lon="-1.07698">
        <ele>66.2</ele>
      </trkpt>
      <trkpt lat="49.08847" lon="-1.07685">
        <ele>66.5</ele>
      </trkpt>
      <trkpt lat="49.08856" lon="-1.07663">
        <ele>67.1</ele>
      </trkpt>
      <trkpt lat="49.08872" lon="-1.07627">
        <ele>67.6</ele>
      </trkpt>
      <trkpt lat="49.08887" lon="-1.07594">
        <ele>68.3</ele>
      </trkpt>
      <trkpt lat="49.08902" lon="-1.07556">
        <ele>69.8</ele>
      </trkpt>
      <trkpt lat="49.08904" lon="-1.07551">
        <ele>70</ele>
      </trkpt>
      <trkpt lat="49.08915" lon="-1.0752">
        <ele>71.4</ele>
      </trkpt>
      <trkpt lat="49.08921" lon="-1.07502">
        <ele>72.1</ele>
      </trkpt>
      <trkpt lat="49.08923" lon="-1.07492">
        <ele>72.2</ele>
      </trkpt>
      <trkpt lat="49.08931" lon="-1.07458">
        <ele>72.5</ele>
      </trkpt>
      <trkpt lat="49.08937" lon="-1.07436">
        <ele>72.7</ele>
      </trkpt>
      <trkpt lat="49.08948" lon="-1.07408">
        <ele>72.9</ele>
      </trkpt>
      <trkpt lat="49.08958" lon="-1.07384">
        <ele>72.7</ele>
      </trkpt>
      <trkpt lat="49.08966" lon="-1.07366">
        <ele>72.7</ele>
      </trkpt>
      <trkpt lat="49.08966" lon="-1.07366">
        <ele>72.7</ele>
      </trkpt>
      <trkpt lat="49.08963" lon="-1.07365">
        <ele>72.5</ele>
      </trkpt>
      <trkpt lat="49.08956" lon="-1.07357">
        <ele>71.9</ele>
      </trkpt>
      <trkpt lat="49.08952" lon="-1.07351">
        <ele>71.6</ele>
      </trkpt>
      <trkpt lat="49.08937" lon="-1.07321">
        <ele>70</ele>
      </trkpt>
      <trkpt lat="49.08933" lon="-1.07316">
        <ele>69.7</ele>
      </trkpt>
      <trkpt lat="49.0893" lon="-1.07313">
        <ele>69.5</ele>
      </trkpt>
      <trkpt lat="49.0893" lon="-1.07313">
        <ele>69.5</ele>
      </trkpt>
      <trkpt lat="49.08925" lon="-1.07305">
        <ele>69.1</ele>
      </trkpt>
      <trkpt lat="49.08925" lon="-1.07289">
        <ele>68.9</ele>
      </trkpt>
      <trkpt lat="49.08922" lon="-1.07269">
        <ele>68.5</ele>
      </trkpt>
      <trkpt lat="49.08921" lon="-1.07263">
        <ele>68.4</ele>
      </trkpt>
      <trkpt lat="49.0892" lon="-1.07257">
        <ele>68.2</ele>
      </trkpt>
      <trkpt lat="49.0892" lon="-1.07253">
        <ele>68.2</ele>
      </trkpt>
      <trkpt lat="49.08921" lon="-1.07249">
        <ele>68.2</ele>
      </trkpt>
      <trkpt lat="49.08923" lon="-1.07246">
        <ele>68.2</ele>
      </trkpt>
      <trkpt lat="49.08926" lon="-1.07242">
        <ele>68.2</ele>
      </trkpt>
      <trkpt lat="49.08935" lon="-1.07233">
        <ele>68.3</ele>
      </trkpt>
      <trkpt lat="49.0895" lon="-1.07212">
        <ele>68.2</ele>
      </trkpt>
      <trkpt lat="49.08958" lon="-1.072">
        <ele>68.2</ele>
      </trkpt>
      <trkpt lat="49.08963" lon="-1.07164">
        <ele>67.1</ele>
      </trkpt>
      <trkpt lat="49.08972" lon="-1.07068">
        <ele>63.6</ele>
      </trkpt>
      <trkpt lat="49.08974" lon="-1.07048">
        <ele>62.8</ele>
      </trkpt>
      <trkpt lat="49.08974" lon="-1.07028">
        <ele>61.8</ele>
      </trkpt>
      <trkpt lat="49.08974" lon="-1.07012">
        <ele>61.1</ele>
      </trkpt>
      <trkpt lat="49.08972" lon="-1.06999">
        <ele>60.3</ele>
      </trkpt>
      <trkpt lat="49.08965" lon="-1.06948">
        <ele>58.3</ele>
      </trkpt>
      <trkpt lat="49.08955" lon="-1.06872">
        <ele>56.5</ele>
      </trkpt>
      <trkpt lat="49.08955" lon="-1.06872">
        <ele>56.5</ele>
      </trkpt>
      <trkpt lat="49.08951" lon="-1.06858">
        <ele>56.2</ele>
      </trkpt>
      <trkpt lat="49.08949" lon="-1.06852">
        <ele>56</ele>
      </trkpt>
      <trkpt lat="49.08946" lon="-1.06849">
        <ele>55.8</ele>
      </trkpt>
      <trkpt lat="49.08942" lon="-1.06846">
        <ele>55.6</ele>
      </trkpt>
      <trkpt lat="49.08938" lon="-1.06841">
        <ele>55.3</ele>
      </trkpt>
      <trkpt lat="49.08934" lon="-1.06836">
        <ele>55</ele>
      </trkpt>
      <trkpt lat="49.0893" lon="-1.0683">
        <ele>54.7</ele>
      </trkpt>
      <trkpt lat="49.08925" lon="-1.0682">
        <ele>54</ele>
      </trkpt>
      <trkpt lat="49.08923" lon="-1.06814">
        <ele>53.6</ele>
      </trkpt>
      <trkpt lat="49.08921" lon="-1.06811">
        <ele>53.4</ele>
      </trkpt>
      <trkpt lat="49.08918" lon="-1.0681">
        <ele>53.2</ele>
      </trkpt>
      <trkpt lat="49.08919" lon="-1.06798">
        <ele>52.8</ele>
      </trkpt>
      <trkpt lat="49.08916" lon="-1.06745">
        <ele>50.2</ele>
      </trkpt>
      <trkpt lat="49.08919" lon="-1.06719">
        <ele>46.7</ele>
      </trkpt>
      <trkpt lat="49.08924" lon="-1.0671">
        <ele>45.6</ele>
      </trkpt>
      <trkpt lat="49.08945" lon="-1.06695">
        <ele>44.8</ele>
      </trkpt>
      <trkpt lat="49.08961" lon="-1.06674">
        <ele>43.1</ele>
      </trkpt>
      <trkpt lat="49.08983" lon="-1.06637">
        <ele>41.4</ele>
      </trkpt>
      <trkpt lat="49.08984" lon="-1.0663">
        <ele>40.9</ele>
      </trkpt>
      <trkpt lat="49.08999" lon="-1.06604">
        <ele>39.7</ele>
      </trkpt>
      <trkpt lat="49.08999" lon="-1.06604">
        <ele>39.7</ele>
      </trkpt>
      <trkpt lat="49.0901" lon="-1.06586">
        <ele>40</ele>
      </trkpt>
      <trkpt lat="49.0901" lon="-1.06583">
        <ele>39.8</ele>
      </trkpt>
      <trkpt lat="49.09012" lon="-1.06572">
        <ele>39.9</ele>
      </trkpt>
      <trkpt lat="49.09019" lon="-1.06551">
        <ele>40.6</ele>
      </trkpt>
      <trkpt lat="49.09021" lon="-1.06541">
        <ele>40.8</ele>
      </trkpt>
      <trkpt lat="49.09031" lon="-1.0651">
        <ele>41.8</ele>
      </trkpt>
      <trkpt lat="49.09044" lon="-1.06471">
        <ele>43</ele>
      </trkpt>
      <trkpt lat="49.09061" lon="-1.06432">
        <ele>44</ele>
      </trkpt>
      <trkpt lat="49.09071" lon="-1.06415">
        <ele>44.4</ele>
      </trkpt>
      <trkpt lat="49.09105" lon="-1.06366">
        <ele>44.4</ele>
      </trkpt>
      <trkpt lat="49.09137" lon="-1.06324">
        <ele>45.6</ele>
      </trkpt>
      <trkpt lat="49.09151" lon="-1.06311">
        <ele>46.1</ele>
      </trkpt>
      <trkpt lat="49.09161" lon="-1.06304">
        <ele>46.4</ele>
      </trkpt>
      <trkpt lat="49.09199" lon="-1.06284">
        <ele>48</ele>
      </trkpt>
      <trkpt lat="49.0923" lon="-1.0626">
        <ele>48</ele>
      </trkpt>
      <trkpt lat="49.09255" lon="-1.06233">
        <ele>47.6</ele>
      </trkpt>
      <trkpt lat="49.0927" lon="-1.06209">
        <ele>47.1</ele>
      </trkpt>
      <trkpt lat="49.09276" lon="-1.06195">
        <ele>46.5</ele>
      </trkpt>
      <trkpt lat="49.09279" lon="-1.06178">
        <ele>45.3</ele>
      </trkpt>
      <trkpt lat="49.09285" lon="-1.06131">
        <ele>45.6</ele>
      </trkpt>
      <trkpt lat="49.09285" lon="-1.06131">
        <ele>45.6</ele>
      </trkpt>
      <trkpt lat="49.09287" lon="-1.06076">
        <ele>46</ele>
      </trkpt>
      <trkpt lat="49.09288" lon="-1.06061">
        <ele>45.3</ele>
      </trkpt>
      <trkpt lat="49.09291" lon="-1.06049">
        <ele>45.1</ele>
      </trkpt>
      <trkpt lat="49.09296" lon="-1.06038">
        <ele>45</ele>
      </trkpt>
      <trkpt lat="49.09305" lon="-1.06028">
        <ele>45.2</ele>
      </trkpt>
      <trkpt lat="49.0933" lon="-1.06008">
        <ele>45.5</ele>
      </trkpt>
      <trkpt lat="49.09347" lon="-1.05991">
        <ele>47</ele>
      </trkpt>
      <trkpt lat="49.09358" lon="-1.05975">
        <ele>48.1</ele>
      </trkpt>
      <trkpt lat="49.09368" lon="-1.05956">
        <ele>48.7</ele>
      </trkpt>
      <trkpt lat="49.09376" lon="-1.05932">
        <ele>48.4</ele>
      </trkpt>
      <trkpt lat="49.09383" lon="-1.05901">
        <ele>48</ele>
      </trkpt>
      <trkpt lat="49.09392" lon="-1.05842">
        <ele>46.7</ele>
      </trkpt>
      <trkpt lat="49.09396" lon="-1.0582">
        <ele>45.8</ele>
      </trkpt>
      <trkpt lat="49.09401" lon="-1.05806">
        <ele>45.1</ele>
      </trkpt>
      <trkpt lat="49.09406" lon="-1.05795">
        <ele>44.4</ele>
      </trkpt>
      <trkpt lat="49.09416" lon="-1.05783">
        <ele>43.4</ele>
      </trkpt>
      <trkpt lat="49.09426" lon="-1.05775">
        <ele>43.3</ele>
      </trkpt>
      <trkpt lat="49.09456" lon="-1.05763">
        <ele>43.9</ele>
      </trkpt>
      <trkpt lat="49.09491" lon="-1.05746">
        <ele>44.5</ele>
      </trkpt>
      <trkpt lat="49.0953" lon="-1.05726">
        <ele>45.7</ele>
      </trkpt>
      <trkpt lat="49.0953" lon="-1.05726">
        <ele>45.7</ele>
      </trkpt>
      <trkpt lat="49.09536" lon="-1.05724">
        <ele>45.9</ele>
      </trkpt>
      <trkpt lat="49.0954" lon="-1.05722">
        <ele>46.1</ele>
      </trkpt>
      <trkpt lat="49.09545" lon="-1.05721">
        <ele>46.3</ele>
      </trkpt>
      <trkpt lat="49.09549" lon="-1.05721">
        <ele>46.5</ele>
      </trkpt>
      <trkpt lat="49.09552" lon="-1.05722">
        <ele>46.7</ele>
      </trkpt>
      <trkpt lat="49.09557" lon="-1.05724">
        <ele>47</ele>
      </trkpt>
      <trkpt lat="49.09562" lon="-1.05729">
        <ele>47.4</ele>
      </trkpt>
      <trkpt lat="49.09566" lon="-1.05734">
        <ele>47.7</ele>
      </trkpt>
      <trkpt lat="49.0957" lon="-1.0574">
        <ele>48.1</ele>
      </trkpt>
      <trkpt lat="49.09575" lon="-1.05747">
        <ele>48.5</ele>
      </trkpt>
      <trkpt lat="49.09592" lon="-1.05775">
        <ele>50.3</ele>
      </trkpt>
      <trkpt lat="49.09595" lon="-1.05782">
        <ele>50.7</ele>
      </trkpt>
      <trkpt lat="49.09598" lon="-1.05789">
        <ele>51.2</ele>
      </trkpt>
      <trkpt lat="49.096" lon="-1.05797">
        <ele>51.6</ele>
      </trkpt>
      <trkpt lat="49.09602" lon="-1.05806">
        <ele>52</ele>
      </trkpt>
      <trkpt lat="49.09607" lon="-1.05845">
        <ele>53.9</ele>
      </trkpt>
      <trkpt lat="49.09609" lon="-1.05856">
        <ele>54.6</ele>
      </trkpt>
      <trkpt lat="49.0961" lon="-1.05861">
        <ele>54.9</ele>
      </trkpt>
      <trkpt lat="49.0961" lon="-1.05866">
        <ele>55.1</ele>
      </trkpt>
      <trkpt lat="49.09612" lon="-1.05876">
        <ele>55.8</ele>
      </trkpt>
      <trkpt lat="49.09612" lon="-1.05876">
        <ele>55.8</ele>
      </trkpt>
      <trkpt lat="49.09614" lon="-1.05885">
        <ele>56.4</ele>
      </trkpt>
      <trkpt lat="49.09617" lon="-1.05895">
        <ele>57</ele>
      </trkpt>
      <trkpt lat="49.0962" lon="-1.05904">
        <ele>57.6</ele>
      </trkpt>
      <trkpt lat="49.09623" lon="-1.05913">
        <ele>58.2</ele>
      </trkpt>
      <trkpt lat="49.09627" lon="-1.05921">
        <ele>58.7</ele>
      </trkpt>
      <trkpt lat="49.09632" lon="-1.05928">
        <ele>59.1</ele>
      </trkpt>
      <trkpt lat="49.09636" lon="-1.05933">
        <ele>59.4</ele>
      </trkpt>
      <trkpt lat="49.09643" lon="-1.05941">
        <ele>59.8</ele>
      </trkpt>
      <trkpt lat="49.09645" lon="-1.05946">
        <ele>60</ele>
      </trkpt>
      <trkpt lat="49.09646" lon="-1.05956">
        <ele>60.1</ele>
      </trkpt>
      <trkpt lat="49.09659" lon="-1.05956">
        <ele>60.7</ele>
      </trkpt>
      <trkpt lat="49.09667" lon="-1.05955">
        <ele>61</ele>
      </trkpt>
      <trkpt lat="49.09674" lon="-1.05951">
        <ele>61.7</ele>
      </trkpt>
      <trkpt lat="49.09678" lon="-1.05949">
        <ele>62.1</ele>
      </trkpt>
      <trkpt lat="49.09685" lon="-1.05943">
        <ele>62.8</ele>
      </trkpt>
      <trkpt lat="49.09689" lon="-1.05939">
        <ele>63.2</ele>
      </trkpt>
      <trkpt lat="49.09691" lon="-1.05936">
        <ele>63.4</ele>
      </trkpt>
      <trkpt lat="49.09722" lon="-1.05897">
        <ele>65.7</ele>
      </trkpt>
      <trkpt lat="49.09726" lon="-1.0589">
        <ele>65.8</ele>
      </trkpt>
      <trkpt lat="49.0973" lon="-1.05882">
        <ele>65.9</ele>
      </trkpt>
      <trkpt lat="49.0973" lon="-1.05882">
        <ele>65.9</ele>
      </trkpt>
      <trkpt lat="49.09733" lon="-1.05873">
        <ele>65.9</ele>
      </trkpt>
      <trkpt lat="49.09735" lon="-1.05864">
        <ele>65.8</ele>
      </trkpt>
      <trkpt lat="49.09735" lon="-1.05856">
        <ele>65.5</ele>
      </trkpt>
      <trkpt lat="49.09735" lon="-1.05848">
        <ele>65.2</ele>
      </trkpt>
      <trkpt lat="49.09734" lon="-1.05841">
        <ele>64.9</ele>
      </trkpt>
      <trkpt lat="49.09732" lon="-1.05828">
        <ele>64.3</ele>
      </trkpt>
      <trkpt lat="49.09739" lon="-1.05826">
        <ele>64.9</ele>
      </trkpt>
      <trkpt lat="49.09745" lon="-1.05823">
        <ele>65.3</ele>
      </trkpt>
      <trkpt lat="49.0975" lon="-1.05818">
        <ele>65.6</ele>
      </trkpt>
      <trkpt lat="49.09756" lon="-1.05812">
        <ele>66.2</ele>
      </trkpt>
      <trkpt lat="49.09763" lon="-1.05804">
        <ele>66.8</ele>
      </trkpt>
      <trkpt lat="49.09769" lon="-1.05794">
        <ele>67.2</ele>
      </trkpt>
      <trkpt lat="49.09785" lon="-1.05763">
        <ele>68.4</ele>
      </trkpt>
      <trkpt lat="49.09792" lon="-1.05752">
        <ele>69.1</ele>
      </trkpt>
      <trkpt lat="49.09797" lon="-1.05744">
        <ele>69.4</ele>
      </trkpt>
      <trkpt lat="49.09806" lon="-1.05738">
        <ele>70.2</ele>
      </trkpt>
      <trkpt lat="49.09813" lon="-1.05736">
        <ele>71</ele>
      </trkpt>
      <trkpt lat="49.09821" lon="-1.05735">
        <ele>72</ele>
      </trkpt>
      <trkpt lat="49.09831" lon="-1.05739">
        <ele>73.3</ele>
      </trkpt>
      <trkpt lat="49.0984" lon="-1.05744">
        <ele>74.2</ele>
      </trkpt>
      <trkpt lat="49.0984" lon="-1.05744">
        <ele>74.2</ele>
      </trkpt>
      <trkpt lat="49.09847" lon="-1.0575">
        <ele>74.8</ele>
      </trkpt>
      <trkpt lat="49.09853" lon="-1.05758">
        <ele>75.3</ele>
      </trkpt>
      <trkpt lat="49.09891" lon="-1.05814">
        <ele>78.8</ele>
      </trkpt>
      <trkpt lat="49.09894" lon="-1.05804">
        <ele>78.8</ele>
      </trkpt>
      <trkpt lat="49.09896" lon="-1.05798">
        <ele>78.8</ele>
      </trkpt>
      <trkpt lat="49.09898" lon="-1.05791">
        <ele>78.8</ele>
      </trkpt>
      <trkpt lat="49.09902" lon="-1.05777">
        <ele>78.7</ele>
      </trkpt>
      <trkpt lat="49.09907" lon="-1.05757">
        <ele>78.6</ele>
      </trkpt>
      <trkpt lat="49.09913" lon="-1.05733">
        <ele>78.4</ele>
      </trkpt>
      <trkpt lat="49.09921" lon="-1.05713">
        <ele>78.3</ele>
      </trkpt>
      <trkpt lat="49.09933" lon="-1.05694">
        <ele>78.5</ele>
      </trkpt>
      <trkpt lat="49.09952" lon="-1.05662">
        <ele>78.5</ele>
      </trkpt>
      <trkpt lat="49.09974" lon="-1.05624">
        <ele>77.7</ele>
      </trkpt>
      <trkpt lat="49.09983" lon="-1.05609">
        <ele>77.1</ele>
      </trkpt>
      <trkpt lat="49.09993" lon="-1.05594">
        <ele>76.5</ele>
      </trkpt>
      <trkpt lat="49.09999" lon="-1.05589">
        <ele>76.3</ele>
      </trkpt>
      <trkpt lat="49.10014" lon="-1.05583">
        <ele>76.3</ele>
      </trkpt>
      <trkpt lat="49.10042" lon="-1.0557">
        <ele>75.6</ele>
      </trkpt>
      <trkpt lat="49.10064" lon="-1.05561">
        <ele>75.3</ele>
      </trkpt>
      <trkpt lat="49.10089" lon="-1.05554">
        <ele>75.2</ele>
      </trkpt>
      <trkpt lat="49.10089" lon="-1.05554">
        <ele>75.2</ele>
      </trkpt>
      <trkpt lat="49.10116" lon="-1.05548">
        <ele>74.7</ele>
      </trkpt>
      <trkpt lat="49.10129" lon="-1.05546">
        <ele>74.5</ele>
      </trkpt>
      <trkpt lat="49.10145" lon="-1.05544">
        <ele>74.5</ele>
      </trkpt>
      <trkpt lat="49.10157" lon="-1.05542">
        <ele>74.5</ele>
      </trkpt>
      <trkpt lat="49.10167" lon="-1.05538">
        <ele>74.4</ele>
      </trkpt>
      <trkpt lat="49.10185" lon="-1.05529">
        <ele>74.3</ele>
      </trkpt>
      <trkpt lat="49.10191" lon="-1.05528">
        <ele>74.3</ele>
      </trkpt>
      <trkpt lat="49.10193" lon="-1.05529">
        <ele>74.4</ele>
      </trkpt>
      <trkpt lat="49.10198" lon="-1.05531">
        <ele>74.5</ele>
      </trkpt>
      <trkpt lat="49.10243" lon="-1.0557">
        <ele>76.4</ele>
      </trkpt>
      <trkpt lat="49.10263" lon="-1.05584">
        <ele>76.9</ele>
      </trkpt>
      <trkpt lat="49.10299" lon="-1.05599">
        <ele>76.8</ele>
      </trkpt>
      <trkpt lat="49.10335" lon="-1.0561">
        <ele>76.6</ele>
      </trkpt>
      <trkpt lat="49.1036" lon="-1.05619">
        <ele>76.1</ele>
      </trkpt>
      <trkpt lat="49.10374" lon="-1.05621">
        <ele>75.7</ele>
      </trkpt>
      <trkpt lat="49.10392" lon="-1.05621">
        <ele>75.2</ele>
      </trkpt>
      <trkpt lat="49.10416" lon="-1.05611">
        <ele>74.4</ele>
      </trkpt>
      <trkpt lat="49.10457" lon="-1.05592">
        <ele>72.2</ele>
      </trkpt>
      <trkpt lat="49.1047" lon="-1.05584">
        <ele>71.5</ele>
      </trkpt>
      <trkpt lat="49.10479" lon="-1.05576">
        <ele>70.9</ele>
      </trkpt>
      <trkpt lat="49.10479" lon="-1.05576">
        <ele>70.9</ele>
      </trkpt>
      <trkpt lat="49.10486" lon="-1.05572">
        <ele>70.5</ele>
      </trkpt>
      <trkpt lat="49.10495" lon="-1.05568">
        <ele>70</ele>
      </trkpt>
      <trkpt lat="49.10515" lon="-1.05565">
        <ele>70</ele>
      </trkpt>
      <trkpt lat="49.10512" lon="-1.05545">
        <ele>69.7</ele>
      </trkpt>
      <trkpt lat="49.10512" lon="-1.05529">
        <ele>69.5</ele>
      </trkpt>
      <trkpt lat="49.10512" lon="-1.05523">
        <ele>69.4</ele>
      </trkpt>
      <trkpt lat="49.10513" lon="-1.05516">
        <ele>69.3</ele>
      </trkpt>
      <trkpt lat="49.10517" lon="-1.05493">
        <ele>69</ele>
      </trkpt>
      <trkpt lat="49.10517" lon="-1.05476">
        <ele>68.6</ele>
      </trkpt>
      <trkpt lat="49.10517" lon="-1.05465">
        <ele>68.3</ele>
      </trkpt>
      <trkpt lat="49.10515" lon="-1.0545">
        <ele>67.8</ele>
      </trkpt>
      <trkpt lat="49.10508" lon="-1.05414">
        <ele>66.4</ele>
      </trkpt>
      <trkpt lat="49.10497" lon="-1.05372">
        <ele>64.9</ele>
      </trkpt>
      <trkpt lat="49.10488" lon="-1.05332">
        <ele>63.8</ele>
      </trkpt>
      <trkpt lat="49.10485" lon="-1.05322">
        <ele>63.5</ele>
      </trkpt>
      <trkpt lat="49.10468" lon="-1.05272">
        <ele>61</ele>
      </trkpt>
      <trkpt lat="49.10463" lon="-1.05256">
        <ele>60.1</ele>
      </trkpt>
      <trkpt lat="49.10462" lon="-1.05249">
        <ele>59.7</ele>
      </trkpt>
      <trkpt lat="49.10462" lon="-1.0524">
        <ele>59.8</ele>
      </trkpt>
      <trkpt lat="49.10463" lon="-1.05208">
        <ele>60.3</ele>
      </trkpt>
      <trkpt lat="49.10463" lon="-1.05208">
        <ele>60.3</ele>
      </trkpt>
      <trkpt lat="49.10463" lon="-1.05199">
        <ele>60.4</ele>
      </trkpt>
      <trkpt lat="49.10462" lon="-1.0519">
        <ele>60.4</ele>
      </trkpt>
      <trkpt lat="49.10451" lon="-1.05156">
        <ele>60</ele>
      </trkpt>
      <trkpt lat="49.10449" lon="-1.05143">
        <ele>59.9</ele>
      </trkpt>
      <trkpt lat="49.10449" lon="-1.05124">
        <ele>59.9</ele>
      </trkpt>
      <trkpt lat="49.10449" lon="-1.05113">
        <ele>59.8</ele>
      </trkpt>
      <trkpt lat="49.10451" lon="-1.05106">
        <ele>59.9</ele>
      </trkpt>
      <trkpt lat="49.10453" lon="-1.05099">
        <ele>59.9</ele>
      </trkpt>
      <trkpt lat="49.1046" lon="-1.05086">
        <ele>60.1</ele>
      </trkpt>
      <trkpt lat="49.10469" lon="-1.05073">
        <ele>60.3</ele>
      </trkpt>
      <trkpt lat="49.10491" lon="-1.05053">
        <ele>60.6</ele>
      </trkpt>
      <trkpt lat="49.10502" lon="-1.05041">
        <ele>60.6</ele>
      </trkpt>
      <trkpt lat="49.10506" lon="-1.05033">
        <ele>60.6</ele>
      </trkpt>
      <trkpt lat="49.10507" lon="-1.05027">
        <ele>60.6</ele>
      </trkpt>
      <trkpt lat="49.10507" lon="-1.05017">
        <ele>60.4</ele>
      </trkpt>
      <trkpt lat="49.10507" lon="-1.05012">
        <ele>60.3</ele>
      </trkpt>
      <trkpt lat="49.10506" lon="-1.05006">
        <ele>60.2</ele>
      </trkpt>
      <trkpt lat="49.105" lon="-1.04993">
        <ele>60.1</ele>
      </trkpt>
      <trkpt lat="49.10472" lon="-1.04938">
        <ele>62.2</ele>
      </trkpt>
      <trkpt lat="49.10463" lon="-1.04924">
        <ele>63</ele>
      </trkpt>
      <trkpt lat="49.10463" lon="-1.04924">
        <ele>63</ele>
      </trkpt>
      <trkpt lat="49.10453" lon="-1.0491">
        <ele>63.9</ele>
      </trkpt>
      <trkpt lat="49.10442" lon="-1.04896">
        <ele>64.8</ele>
      </trkpt>
      <trkpt lat="49.10426" lon="-1.04878">
        <ele>66</ele>
      </trkpt>
      <trkpt lat="49.10399" lon="-1.04854">
        <ele>67.7</ele>
      </trkpt>
      <trkpt lat="49.10373" lon="-1.04831">
        <ele>69.2</ele>
      </trkpt>
      <trkpt lat="49.1034" lon="-1.04808">
        <ele>71.3</ele>
      </trkpt>
      <trkpt lat="49.10294" lon="-1.04779">
        <ele>74.7</ele>
      </trkpt>
      <trkpt lat="49.10233" lon="-1.0474">
        <ele>78.7</ele>
      </trkpt>
      <trkpt lat="49.10221" lon="-1.04729">
        <ele>79.2</ele>
      </trkpt>
      <trkpt lat="49.10219" lon="-1.04724">
        <ele>79.3</ele>
      </trkpt>
      <trkpt lat="49.10217" lon="-1.0472">
        <ele>79.4</ele>
      </trkpt>
      <trkpt lat="49.10217" lon="-1.04716">
        <ele>79.4</ele>
      </trkpt>
      <trkpt lat="49.10217" lon="-1.04707">
        <ele>79.5</ele>
      </trkpt>
      <trkpt lat="49.10217" lon="-1.04703">
        <ele>79.5</ele>
      </trkpt>
      <trkpt lat="49.10219" lon="-1.04696">
        <ele>79.5</ele>
      </trkpt>
      <trkpt lat="49.10222" lon="-1.04688">
        <ele>79.5</ele>
      </trkpt>
      <trkpt lat="49.10251" lon="-1.04619">
        <ele>79.5</ele>
      </trkpt>
      <trkpt lat="49.10272" lon="-1.04565">
        <ele>79</ele>
      </trkpt>
      <trkpt lat="49.10275" lon="-1.04552">
        <ele>78.9</ele>
      </trkpt>
      <trkpt lat="49.10277" lon="-1.04538">
        <ele>78.9</ele>
      </trkpt>
      <trkpt lat="49.10277" lon="-1.04538">
        <ele>78.9</ele>
      </trkpt>
      <trkpt lat="49.10277" lon="-1.04525">
        <ele>78.9</ele>
      </trkpt>
      <trkpt lat="49.10276" lon="-1.04514">
        <ele>79</ele>
      </trkpt>
      <trkpt lat="49.10275" lon="-1.04504">
        <ele>79.1</ele>
      </trkpt>
      <trkpt lat="49.1027" lon="-1.04481">
        <ele>80</ele>
      </trkpt>
      <trkpt lat="49.10249" lon="-1.04402">
        <ele>84</ele>
      </trkpt>
      <trkpt lat="49.1023" lon="-1.04333">
        <ele>84</ele>
      </trkpt>
      <trkpt lat="49.10224" lon="-1.04317">
        <ele>84.3</ele>
      </trkpt>
      <trkpt lat="49.10217" lon="-1.043">
        <ele>84.5</ele>
      </trkpt>
      <trkpt lat="49.10193" lon="-1.04251">
        <ele>84.6</ele>
      </trkpt>
      <trkpt lat="49.10177" lon="-1.04216">
        <ele>84.2</ele>
      </trkpt>
      <trkpt lat="49.1017" lon="-1.04192">
        <ele>84.1</ele>
      </trkpt>
      <trkpt lat="49.10152" lon="-1.04118">
        <ele>82.7</ele>
      </trkpt>
      <trkpt lat="49.10147" lon="-1.04102">
        <ele>82.2</ele>
      </trkpt>
      <trkpt lat="49.10141" lon="-1.04089">
        <ele>81.8</ele>
      </trkpt>
      <trkpt lat="49.10132" lon="-1.0407">
        <ele>81.6</ele>
      </trkpt>
      <trkpt lat="49.10113" lon="-1.04037">
        <ele>81.4</ele>
      </trkpt>
      <trkpt lat="49.10104" lon="-1.04021">
        <ele>81.2</ele>
      </trkpt>
      <trkpt lat="49.10098" lon="-1.04015">
        <ele>81.2</ele>
      </trkpt>
      <trkpt lat="49.10095" lon="-1.04013">
        <ele>81.1</ele>
      </trkpt>
      <trkpt lat="49.10089" lon="-1.04013">
        <ele>81.1</ele>
      </trkpt>
      <trkpt lat="49.10089" lon="-1.04013">
        <ele>81.1</ele>
      </trkpt>
      <trkpt lat="49.10095" lon="-1.04004">
        <ele>81.1</ele>
      </trkpt>
      <trkpt lat="49.10105" lon="-1.03994">
        <ele>81.2</ele>
      </trkpt>
      <trkpt lat="49.10131" lon="-1.03972">
        <ele>81.8</ele>
      </trkpt>
      <trkpt lat="49.10145" lon="-1.03953">
        <ele>82.4</ele>
      </trkpt>
      <trkpt lat="49.10175" lon="-1.03925">
        <ele>84.2</ele>
      </trkpt>
      <trkpt lat="49.10206" lon="-1.03897">
        <ele>85.6</ele>
      </trkpt>
      <trkpt lat="49.10245" lon="-1.03867">
        <ele>87.7</ele>
      </trkpt>
      <trkpt lat="49.10276" lon="-1.03845">
        <ele>88.6</ele>
      </trkpt>
      <trkpt lat="49.10308" lon="-1.0383">
        <ele>89.4</ele>
      </trkpt>
      <trkpt lat="49.10321" lon="-1.03817">
        <ele>89.7</ele>
      </trkpt>
      <trkpt lat="49.10345" lon="-1.03793">
        <ele>90.1</ele>
      </trkpt>
      <trkpt lat="49.10375" lon="-1.03769">
        <ele>90.7</ele>
      </trkpt>
      <trkpt lat="49.10436" lon="-1.03729">
        <ele>91.2</ele>
      </trkpt>
      <trkpt lat="49.10443" lon="-1.03729">
        <ele>91.2</ele>
      </trkpt>
      <trkpt lat="49.10462" lon="-1.03734">
        <ele>91.4</ele>
      </trkpt>
      <trkpt lat="49.10512" lon="-1.03759">
        <ele>91.1</ele>
      </trkpt>
      <trkpt lat="49.10546" lon="-1.03624">
        <ele>88.9</ele>
      </trkpt>
      <trkpt lat="49.10557" lon="-1.03578">
        <ele>88.8</ele>
      </trkpt>
      <trkpt lat="49.10622" lon="-1.03599">
        <ele>87.8</ele>
      </trkpt>
      <trkpt lat="49.10687" lon="-1.03625">
        <ele>86.1</ele>
      </trkpt>
      <trkpt lat="49.10687" lon="-1.03625">
        <ele>86.1</ele>
      </trkpt>
      <trkpt lat="49.1072" lon="-1.03642">
        <ele>85.1</ele>
      </trkpt>
      <trkpt lat="49.10731" lon="-1.03644">
        <ele>84.8</ele>
      </trkpt>
      <trkpt lat="49.10741" lon="-1.03643">
        <ele>84.7</ele>
      </trkpt>
      <trkpt lat="49.10754" lon="-1.0364">
        <ele>84.4</ele>
      </trkpt>
      <trkpt lat="49.10766" lon="-1.03633">
        <ele>84</ele>
      </trkpt>
      <trkpt lat="49.1078" lon="-1.03624">
        <ele>83.6</ele>
      </trkpt>
      <trkpt lat="49.10799" lon="-1.03605">
        <ele>83.1</ele>
      </trkpt>
      <trkpt lat="49.1082" lon="-1.03581">
        <ele>82.7</ele>
      </trkpt>
      <trkpt lat="49.10829" lon="-1.03577">
        <ele>82.5</ele>
      </trkpt>
      <trkpt lat="49.1084" lon="-1.03576">
        <ele>82.2</ele>
      </trkpt>
      <trkpt lat="49.1085" lon="-1.03578">
        <ele>81.8</ele>
      </trkpt>
      <trkpt lat="49.1086" lon="-1.03582">
        <ele>81.4</ele>
      </trkpt>
      <trkpt lat="49.10872" lon="-1.0359">
        <ele>81</ele>
      </trkpt>
      <trkpt lat="49.10985" lon="-1.0367">
        <ele>81.6</ele>
      </trkpt>
      <trkpt lat="49.11005" lon="-1.03681">
        <ele>81.8</ele>
      </trkpt>
      <trkpt lat="49.11016" lon="-1.03685">
        <ele>81.6</ele>
      </trkpt>
      <trkpt lat="49.11015" lon="-1.03712">
        <ele>81.3</ele>
      </trkpt>
      <trkpt lat="49.1102" lon="-1.03716">
        <ele>81.2</ele>
      </trkpt>
      <trkpt lat="49.11025" lon="-1.03718">
        <ele>81.1</ele>
      </trkpt>
      <trkpt lat="49.11069" lon="-1.0375">
        <ele>80.2</ele>
      </trkpt>
      <trkpt lat="49.11069" lon="-1.0375">
        <ele>80.2</ele>
      </trkpt>
      <trkpt lat="49.11103" lon="-1.03671">
        <ele>80.2</ele>
      </trkpt>
      <trkpt lat="49.1113" lon="-1.03604">
        <ele>80.8</ele>
      </trkpt>
      <trkpt lat="49.11134" lon="-1.03591">
        <ele>81</ele>
      </trkpt>
      <trkpt lat="49.11136" lon="-1.0358">
        <ele>81.3</ele>
      </trkpt>
      <trkpt lat="49.1114" lon="-1.03543">
        <ele>83.1</ele>
      </trkpt>
      <trkpt lat="49.11141" lon="-1.03541">
        <ele>83.2</ele>
      </trkpt>
      <trkpt lat="49.11142" lon="-1.03539">
        <ele>83.2</ele>
      </trkpt>
      <trkpt lat="49.11144" lon="-1.03538">
        <ele>83.2</ele>
      </trkpt>
      <trkpt lat="49.11149" lon="-1.03538">
        <ele>83.1</ele>
      </trkpt>
      <trkpt lat="49.11167" lon="-1.0354">
        <ele>82.6</ele>
      </trkpt>
      <trkpt lat="49.11185" lon="-1.03522">
        <ele>82.3</ele>
      </trkpt>
      <trkpt lat="49.11188" lon="-1.03522">
        <ele>82</ele>
      </trkpt>
      <trkpt lat="49.11205" lon="-1.03539">
        <ele>79.9</ele>
      </trkpt>
      <trkpt lat="49.11208" lon="-1.0354">
        <ele>79.6</ele>
      </trkpt>
      <trkpt lat="49.1121" lon="-1.03539">
        <ele>79.5</ele>
      </trkpt>
      <trkpt lat="49.11213" lon="-1.03537">
        <ele>79.4</ele>
      </trkpt>
      <trkpt lat="49.11223" lon="-1.03513">
        <ele>79.7</ele>
      </trkpt>
      <trkpt lat="49.11231" lon="-1.03488">
        <ele>79.7</ele>
      </trkpt>
      <trkpt lat="49.11233" lon="-1.03474">
        <ele>79.7</ele>
      </trkpt>
      <trkpt lat="49.11238" lon="-1.03429">
        <ele>79.9</ele>
      </trkpt>
      <trkpt lat="49.11238" lon="-1.03429">
        <ele>79.9</ele>
      </trkpt>
      <trkpt lat="49.11238" lon="-1.03415">
        <ele>80</ele>
      </trkpt>
      <trkpt lat="49.11188" lon="-1.0342">
        <ele>84.2</ele>
      </trkpt>
      <trkpt lat="49.11171" lon="-1.03418">
        <ele>85.6</ele>
      </trkpt>
      <trkpt lat="49.11193" lon="-1.03325">
        <ele>84.9</ele>
      </trkpt>
      <trkpt lat="49.1121" lon="-1.03253">
        <ele>84.4</ele>
      </trkpt>
      <trkpt lat="49.11219" lon="-1.03212">
        <ele>84.6</ele>
      </trkpt>
      <trkpt lat="49.11216" lon="-1.03198">
        <ele>85</ele>
      </trkpt>
      <trkpt lat="49.11216" lon="-1.0319">
        <ele>85.2</ele>
      </trkpt>
      <trkpt lat="49.11213" lon="-1.03177">
        <ele>85.6</ele>
      </trkpt>
      <trkpt lat="49.11195" lon="-1.03112">
        <ele>88.4</ele>
      </trkpt>
      <trkpt lat="49.11167" lon="-1.03018">
        <ele>91.8</ele>
      </trkpt>
      <trkpt lat="49.11141" lon="-1.02914">
        <ele>92.3</ele>
      </trkpt>
      <trkpt lat="49.1114" lon="-1.02901">
        <ele>92.9</ele>
      </trkpt>
      <trkpt lat="49.11141" lon="-1.0289">
        <ele>93.2</ele>
      </trkpt>
      <trkpt lat="49.11142" lon="-1.02876">
        <ele>93.7</ele>
      </trkpt>
      <trkpt lat="49.11144" lon="-1.02862">
        <ele>94.2</ele>
      </trkpt>
      <trkpt lat="49.11167" lon="-1.02787">
        <ele>96.1</ele>
      </trkpt>
      <trkpt lat="49.11231" lon="-1.02587">
        <ele>97.1</ele>
      </trkpt>
      <trkpt lat="49.11251" lon="-1.0252">
        <ele>99.2</ele>
      </trkpt>
      <trkpt lat="49.11267" lon="-1.02477">
        <ele>99.6</ele>
      </trkpt>
      <trkpt lat="49.11267" lon="-1.02477">
        <ele>99.6</ele>
      </trkpt>
      <trkpt lat="49.11282" lon="-1.02441">
        <ele>99.7</ele>
      </trkpt>
      <trkpt lat="49.113" lon="-1.02405">
        <ele>100.2</ele>
      </trkpt>
      <trkpt lat="49.11324" lon="-1.02361">
        <ele>101.3</ele>
      </trkpt>
      <trkpt lat="49.11353" lon="-1.02314">
        <ele>100.9</ele>
      </trkpt>
      <trkpt lat="49.114" lon="-1.0224">
        <ele>102</ele>
      </trkpt>
      <trkpt lat="49.11447" lon="-1.02168">
        <ele>100.9</ele>
      </trkpt>
      <trkpt lat="49.11452" lon="-1.02175">
        <ele>100.7</ele>
      </trkpt>
      <trkpt lat="49.11462" lon="-1.02196">
        <ele>100.2</ele>
      </trkpt>
      <trkpt lat="49.11482" lon="-1.02244">
        <ele>98.9</ele>
      </trkpt>
      <trkpt lat="49.11488" lon="-1.02266">
        <ele>97.9</ele>
      </trkpt>
      <trkpt lat="49.11504" lon="-1.02295">
        <ele>96.1</ele>
      </trkpt>
      <trkpt lat="49.1154" lon="-1.02338">
        <ele>92</ele>
      </trkpt>
      <trkpt lat="49.11561" lon="-1.02374">
        <ele>89.5</ele>
      </trkpt>
      <trkpt lat="49.11563" lon="-1.02385">
        <ele>89.1</ele>
      </trkpt>
      <trkpt lat="49.11561" lon="-1.02417">
        <ele>88.3</ele>
      </trkpt>
      <trkpt lat="49.11563" lon="-1.02443">
        <ele>87.6</ele>
      </trkpt>
      <trkpt lat="49.11573" lon="-1.02456">
        <ele>86.7</ele>
      </trkpt>
      <trkpt lat="49.11607" lon="-1.02475">
        <ele>85.9</ele>
      </trkpt>
      <trkpt lat="49.11617" lon="-1.02481">
        <ele>86.1</ele>
      </trkpt>
      <trkpt lat="49.11647" lon="-1.02502">
        <ele>87.3</ele>
      </trkpt>
      <trkpt lat="49.11647" lon="-1.02502">
        <ele>87.3</ele>
      </trkpt>
      <trkpt lat="49.11673" lon="-1.02513">
        <ele>89.2</ele>
      </trkpt>
      <trkpt lat="49.11679" lon="-1.02513">
        <ele>89.8</ele>
      </trkpt>
      <trkpt lat="49.11686" lon="-1.02513">
        <ele>90.6</ele>
      </trkpt>
      <trkpt lat="49.11694" lon="-1.02508">
        <ele>91.2</ele>
      </trkpt>
      <trkpt lat="49.11702" lon="-1.02498">
        <ele>91.7</ele>
      </trkpt>
      <trkpt lat="49.11703" lon="-1.02495">
        <ele>91.7</ele>
      </trkpt>
      <trkpt lat="49.11717" lon="-1.02513">
        <ele>93.9</ele>
      </trkpt>
      <trkpt lat="49.1174" lon="-1.02545">
        <ele>97.5</ele>
      </trkpt>
      <trkpt lat="49.11769" lon="-1.02584">
        <ele>101.6</ele>
      </trkpt>
      <trkpt lat="49.11791" lon="-1.02605">
        <ele>104.6</ele>
      </trkpt>
      <trkpt lat="49.11807" lon="-1.02617">
        <ele>106.5</ele>
      </trkpt>
      <trkpt lat="49.11843" lon="-1.02649">
        <ele>111</ele>
      </trkpt>
      <trkpt lat="49.11924" lon="-1.02725">
        <ele>117.2</ele>
      </trkpt>
      <trkpt lat="49.11945" lon="-1.02749">
        <ele>116.7</ele>
      </trkpt>
      <trkpt lat="49.1196" lon="-1.02764">
        <ele>116.1</ele>
      </trkpt>
      <trkpt lat="49.11983" lon="-1.02786">
        <ele>115</ele>
      </trkpt>
      <trkpt lat="49.12014" lon="-1.02812">
        <ele>113.4</ele>
      </trkpt>
      <trkpt lat="49.12021" lon="-1.02817">
        <ele>113.1</ele>
      </trkpt>
      <trkpt lat="49.12066" lon="-1.02852">
        <ele>111</ele>
      </trkpt>
      <trkpt lat="49.12106" lon="-1.02888">
        <ele>109.5</ele>
      </trkpt>
      <trkpt lat="49.12106" lon="-1.02888">
        <ele>109.5</ele>
      </trkpt>
      <trkpt lat="49.12141" lon="-1.02921">
        <ele>108.2</ele>
      </trkpt>
      <trkpt lat="49.1216" lon="-1.02941">
        <ele>107.3</ele>
      </trkpt>
      <trkpt lat="49.12172" lon="-1.02948">
        <ele>106.7</ele>
      </trkpt>
      <trkpt lat="49.12188" lon="-1.02965">
        <ele>105.5</ele>
      </trkpt>
      <trkpt lat="49.12202" lon="-1.02983">
        <ele>104.1</ele>
      </trkpt>
      <trkpt lat="49.12211" lon="-1.03001">
        <ele>102.8</ele>
      </trkpt>
      <trkpt lat="49.12217" lon="-1.03019">
        <ele>102</ele>
      </trkpt>
      <trkpt lat="49.12231" lon="-1.03053">
        <ele>100.1</ele>
      </trkpt>
      <trkpt lat="49.1224" lon="-1.03094">
        <ele>98.5</ele>
      </trkpt>
      <trkpt lat="49.12245" lon="-1.03124">
        <ele>97.8</ele>
      </trkpt>
      <trkpt lat="49.12246" lon="-1.0315">
        <ele>97.4</ele>
      </trkpt>
      <trkpt lat="49.12244" lon="-1.03173">
        <ele>97</ele>
      </trkpt>
      <trkpt lat="49.12246" lon="-1.03187">
        <ele>96.2</ele>
      </trkpt>
      <trkpt lat="49.12254" lon="-1.03234">
        <ele>94</ele>
      </trkpt>
      <trkpt lat="49.12253" lon="-1.03243">
        <ele>93.5</ele>
      </trkpt>
      <trkpt lat="49.12258" lon="-1.03245">
        <ele>93.7</ele>
      </trkpt>
      <trkpt lat="49.12262" lon="-1.0325">
        <ele>93.7</ele>
      </trkpt>
      <trkpt lat="49.12264" lon="-1.03255">
        <ele>93.9</ele>
      </trkpt>
      <trkpt lat="49.12265" lon="-1.03262">
        <ele>94</ele>
      </trkpt>
      <trkpt lat="49.12265" lon="-1.0327">
        <ele>94.1</ele>
      </trkpt>
      <trkpt lat="49.12265" lon="-1.0327">
        <ele>94.1</ele>
      </trkpt>
      <trkpt lat="49.12264" lon="-1.0328">
        <ele>94.1</ele>
      </trkpt>
      <trkpt lat="49.12256" lon="-1.03356">
        <ele>94.6</ele>
      </trkpt>
      <trkpt lat="49.12246" lon="-1.03431">
        <ele>97</ele>
      </trkpt>
      <trkpt lat="49.12245" lon="-1.0344">
        <ele>97.6</ele>
      </trkpt>
      <trkpt lat="49.12245" lon="-1.03449">
        <ele>98.4</ele>
      </trkpt>
      <trkpt lat="49.12245" lon="-1.03458">
        <ele>99.1</ele>
      </trkpt>
      <trkpt lat="49.12246" lon="-1.03468">
        <ele>100</ele>
      </trkpt>
      <trkpt lat="49.12249" lon="-1.03481">
        <ele>101.3</ele>
      </trkpt>
      <trkpt lat="49.12254" lon="-1.03494">
        <ele>102.8</ele>
      </trkpt>
      <trkpt lat="49.12259" lon="-1.03503">
        <ele>103.8</ele>
      </trkpt>
      <trkpt lat="49.12267" lon="-1.03513">
        <ele>104.8</ele>
      </trkpt>
      <trkpt lat="49.12277" lon="-1.03522">
        <ele>105.9</ele>
      </trkpt>
      <trkpt lat="49.1229" lon="-1.0353">
        <ele>107.3</ele>
      </trkpt>
      <trkpt lat="49.12302" lon="-1.03538">
        <ele>108.6</ele>
      </trkpt>
      <trkpt lat="49.12316" lon="-1.03543">
        <ele>110</ele>
      </trkpt>
      <trkpt lat="49.1236" lon="-1.03555">
        <ele>114.3</ele>
      </trkpt>
      <trkpt lat="49.12436" lon="-1.03571">
        <ele>121.4</ele>
      </trkpt>
      <trkpt lat="49.12448" lon="-1.03577">
        <ele>122.5</ele>
      </trkpt>
      <trkpt lat="49.1246" lon="-1.03583">
        <ele>123.6</ele>
      </trkpt>
      <trkpt lat="49.12464" lon="-1.03587">
        <ele>124</ele>
      </trkpt>
      <trkpt lat="49.12464" lon="-1.03587">
        <ele>124</ele>
      </trkpt>
      <trkpt lat="49.12476" lon="-1.03599">
        <ele>125.2</ele>
      </trkpt>
      <trkpt lat="49.12496" lon="-1.03624">
        <ele>127.2</ele>
      </trkpt>
      <trkpt lat="49.12532" lon="-1.03662">
        <ele>130.3</ele>
      </trkpt>
      <trkpt lat="49.12555" lon="-1.03683">
        <ele>132.2</ele>
      </trkpt>
      <trkpt lat="49.12585" lon="-1.0371">
        <ele>134.6</ele>
      </trkpt>
      <trkpt lat="49.12619" lon="-1.03735">
        <ele>135.8</ele>
      </trkpt>
      <trkpt lat="49.12656" lon="-1.03763">
        <ele>136.8</ele>
      </trkpt>
      <trkpt lat="49.12683" lon="-1.03789">
        <ele>137</ele>
      </trkpt>
      <trkpt lat="49.12718" lon="-1.03822">
        <ele>137</ele>
      </trkpt>
      <trkpt lat="49.1273" lon="-1.03833">
        <ele>137</ele>
      </trkpt>
      <trkpt lat="49.12756" lon="-1.03857">
        <ele>136.2</ele>
      </trkpt>
      <trkpt lat="49.12811" lon="-1.03906">
        <ele>133.1</ele>
      </trkpt>
      <trkpt lat="49.12872" lon="-1.03955">
        <ele>127</ele>
      </trkpt>
      <trkpt lat="49.12893" lon="-1.03969">
        <ele>124.4</ele>
      </trkpt>
      <trkpt lat="49.12955" lon="-1.04015">
        <ele>118.6</ele>
      </trkpt>
      <trkpt lat="49.1301" lon="-1.04058">
        <ele>116.9</ele>
      </trkpt>
      <trkpt lat="49.13071" lon="-1.04112">
        <ele>114</ele>
      </trkpt>
      <trkpt lat="49.13044" lon="-1.04172">
        <ele>113.4</ele>
      </trkpt>
      <trkpt lat="49.13032" lon="-1.04201">
        <ele>113</ele>
      </trkpt>
      <trkpt lat="49.13022" lon="-1.04233">
        <ele>112.4</ele>
      </trkpt>
      <trkpt lat="49.13022" lon="-1.04233">
        <ele>112.4</ele>
      </trkpt>
      <trkpt lat="49.13002" lon="-1.0429">
        <ele>111.1</ele>
      </trkpt>
      <trkpt lat="49.12989" lon="-1.04326">
        <ele>109.5</ele>
      </trkpt>
      <trkpt lat="49.12982" lon="-1.04338">
        <ele>108.8</ele>
      </trkpt>
      <trkpt lat="49.12967" lon="-1.04354">
        <ele>107.5</ele>
      </trkpt>
      <trkpt lat="49.12961" lon="-1.04362">
        <ele>106.8</ele>
      </trkpt>
      <trkpt lat="49.1296" lon="-1.04364">
        <ele>106.7</ele>
      </trkpt>
      <trkpt lat="49.12959" lon="-1.04371">
        <ele>106.4</ele>
      </trkpt>
      <trkpt lat="49.12963" lon="-1.04514">
        <ele>102.2</ele>
      </trkpt>
      <trkpt lat="49.12964" lon="-1.04532">
        <ele>101.3</ele>
      </trkpt>
      <trkpt lat="49.12966" lon="-1.04542">
        <ele>101</ele>
      </trkpt>
      <trkpt lat="49.1297" lon="-1.0455">
        <ele>101</ele>
      </trkpt>
      <trkpt lat="49.12975" lon="-1.04557">
        <ele>101.2</ele>
      </trkpt>
      <trkpt lat="49.12985" lon="-1.04561">
        <ele>102.1</ele>
      </trkpt>
      <trkpt lat="49.13006" lon="-1.0457">
        <ele>103.2</ele>
      </trkpt>
      <trkpt lat="49.13047" lon="-1.0459">
        <ele>100.3</ele>
      </trkpt>
      <trkpt lat="49.13073" lon="-1.04605">
        <ele>98</ele>
      </trkpt>
      <trkpt lat="49.13099" lon="-1.04623">
        <ele>93.9</ele>
      </trkpt>
      <trkpt lat="49.13125" lon="-1.04645">
        <ele>88.1</ele>
      </trkpt>
      <trkpt lat="49.13126" lon="-1.04647">
        <ele>87.7</ele>
      </trkpt>
      <trkpt lat="49.13127" lon="-1.0465">
        <ele>87.3</ele>
      </trkpt>
      <trkpt lat="49.13127" lon="-1.0465">
        <ele>87.3</ele>
      </trkpt>
      <trkpt lat="49.13126" lon="-1.04652">
        <ele>87.2</ele>
      </trkpt>
      <trkpt lat="49.13118" lon="-1.04669">
        <ele>87</ele>
      </trkpt>
      <trkpt lat="49.13107" lon="-1.04694">
        <ele>87.2</ele>
      </trkpt>
      <trkpt lat="49.13086" lon="-1.04751">
        <ele>87.4</ele>
      </trkpt>
      <trkpt lat="49.13072" lon="-1.04783">
        <ele>85</ele>
      </trkpt>
      <trkpt lat="49.13059" lon="-1.04821">
        <ele>81.5</ele>
      </trkpt>
      <trkpt lat="49.13052" lon="-1.04846">
        <ele>79.5</ele>
      </trkpt>
      <trkpt lat="49.13048" lon="-1.04867">
        <ele>78.1</ele>
      </trkpt>
      <trkpt lat="49.13048" lon="-1.04871">
        <ele>77.8</ele>
      </trkpt>
      <trkpt lat="49.13049" lon="-1.04873">
        <ele>77.6</ele>
      </trkpt>
      <trkpt lat="49.13071" lon="-1.04885">
        <ele>75.8</ele>
      </trkpt>
      <trkpt lat="49.13073" lon="-1.04886">
        <ele>75.6</ele>
      </trkpt>
      <trkpt lat="49.13074" lon="-1.04889">
        <ele>75.4</ele>
      </trkpt>
      <trkpt lat="49.13075" lon="-1.04891">
        <ele>75.2</ele>
      </trkpt>
      <trkpt lat="49.13075" lon="-1.04897">
        <ele>74.7</ele>
      </trkpt>
      <trkpt lat="49.13065" lon="-1.04982">
        <ele>71.3</ele>
      </trkpt>
      <trkpt lat="49.13058" lon="-1.05057">
        <ele>68.4</ele>
      </trkpt>
      <trkpt lat="49.13047" lon="-1.05137">
        <ele>64.4</ele>
      </trkpt>
      <trkpt lat="49.1304" lon="-1.05181">
        <ele>63</ele>
      </trkpt>
      <trkpt lat="49.13034" lon="-1.05192">
        <ele>63.2</ele>
      </trkpt>
      <trkpt lat="49.13034" lon="-1.05192">
        <ele>63.2</ele>
      </trkpt>
      <trkpt lat="49.13007" lon="-1.05245">
        <ele>62.3</ele>
      </trkpt>
      <trkpt lat="49.12993" lon="-1.05268">
        <ele>62.5</ele>
      </trkpt>
      <trkpt lat="49.12978" lon="-1.05284">
        <ele>63.6</ele>
      </trkpt>
      <trkpt lat="49.12959" lon="-1.05298">
        <ele>64.7</ele>
      </trkpt>
      <trkpt lat="49.12938" lon="-1.05313">
        <ele>65.1</ele>
      </trkpt>
      <trkpt lat="49.12917" lon="-1.05332">
        <ele>64.2</ele>
      </trkpt>
      <trkpt lat="49.129" lon="-1.05349">
        <ele>66.3</ele>
      </trkpt>
      <trkpt lat="49.12887" lon="-1.05365">
        <ele>67.6</ele>
      </trkpt>
      <trkpt lat="49.12871" lon="-1.05388">
        <ele>68.6</ele>
      </trkpt>
      <trkpt lat="49.12856" lon="-1.05412">
        <ele>68.9</ele>
      </trkpt>
      <trkpt lat="49.12843" lon="-1.0544">
        <ele>69.1</ele>
      </trkpt>
      <trkpt lat="49.12831" lon="-1.05471">
        <ele>68.4</ele>
      </trkpt>
      <trkpt lat="49.12823" lon="-1.05502">
        <ele>67.2</ele>
      </trkpt>
      <trkpt lat="49.12818" lon="-1.0554">
        <ele>65.4</ele>
      </trkpt>
      <trkpt lat="49.12817" lon="-1.05557">
        <ele>64.5</ele>
      </trkpt>
      <trkpt lat="49.12816" lon="-1.0557">
        <ele>63.7</ele>
      </trkpt>
      <trkpt lat="49.12813" lon="-1.05582">
        <ele>63.3</ele>
      </trkpt>
      <trkpt lat="49.12807" lon="-1.05596">
        <ele>63.3</ele>
      </trkpt>
      <trkpt lat="49.12798" lon="-1.0561">
        <ele>63.4</ele>
      </trkpt>
      <trkpt lat="49.12766" lon="-1.05657">
        <ele>62.2</ele>
      </trkpt>
      <trkpt lat="49.12766" lon="-1.05657">
        <ele>62.2</ele>
      </trkpt>
      <trkpt lat="49.12735" lon="-1.05693">
        <ele>62.2</ele>
      </trkpt>
      <trkpt lat="49.1271" lon="-1.05718">
        <ele>62.2</ele>
      </trkpt>
      <trkpt lat="49.1267" lon="-1.05764">
        <ele>59.9</ele>
      </trkpt>
      <trkpt lat="49.12641" lon="-1.05794">
        <ele>59.9</ele>
      </trkpt>
      <trkpt lat="49.12616" lon="-1.05821">
        <ele>59.6</ele>
      </trkpt>
      <trkpt lat="49.12606" lon="-1.05831">
        <ele>59.4</ele>
      </trkpt>
      <trkpt lat="49.12551" lon="-1.05907">
        <ele>56.5</ele>
      </trkpt>
      <trkpt lat="49.12541" lon="-1.05922">
        <ele>56</ele>
      </trkpt>
      <trkpt lat="49.12533" lon="-1.05928">
        <ele>56.3</ele>
      </trkpt>
      <trkpt lat="49.12516" lon="-1.05938">
        <ele>56.6</ele>
      </trkpt>
      <trkpt lat="49.12497" lon="-1.05944">
        <ele>56.9</ele>
      </trkpt>
      <trkpt lat="49.12492" lon="-1.05946">
        <ele>57.2</ele>
      </trkpt>
      <trkpt lat="49.12466" lon="-1.0597">
        <ele>57.4</ele>
      </trkpt>
      <trkpt lat="49.12436" lon="-1.05984">
        <ele>57.8</ele>
      </trkpt>
      <trkpt lat="49.12393" lon="-1.06008">
        <ele>57.2</ele>
      </trkpt>
      <trkpt lat="49.12374" lon="-1.06023">
        <ele>56.3</ele>
      </trkpt>
      <trkpt lat="49.12352" lon="-1.06045">
        <ele>54.1</ele>
      </trkpt>
      <trkpt lat="49.12334" lon="-1.06066">
        <ele>51.3</ele>
      </trkpt>
      <trkpt lat="49.12316" lon="-1.06083">
        <ele>49</ele>
      </trkpt>
      <trkpt lat="49.12308" lon="-1.06089">
        <ele>49</ele>
      </trkpt>
      <trkpt lat="49.12308" lon="-1.06089">
        <ele>49</ele>
      </trkpt>
      <trkpt lat="49.12293" lon="-1.06096">
        <ele>49</ele>
      </trkpt>
      <trkpt lat="49.12281" lon="-1.06103">
        <ele>49</ele>
      </trkpt>
      <trkpt lat="49.12271" lon="-1.06112">
        <ele>49</ele>
      </trkpt>
      <trkpt lat="49.12257" lon="-1.06122">
        <ele>49</ele>
      </trkpt>
      <trkpt lat="49.12261" lon="-1.06136">
        <ele>49</ele>
      </trkpt>
      <trkpt lat="49.12274" lon="-1.06202">
        <ele>49.2</ele>
      </trkpt>
      <trkpt lat="49.12282" lon="-1.06219">
        <ele>49.5</ele>
      </trkpt>
      <trkpt lat="49.12286" lon="-1.06223">
        <ele>49.6</ele>
      </trkpt>
      <trkpt lat="49.1229" lon="-1.06225">
        <ele>49.7</ele>
      </trkpt>
      <trkpt lat="49.12297" lon="-1.06226">
        <ele>49.8</ele>
      </trkpt>
      <trkpt lat="49.12296" lon="-1.06258">
        <ele>50.1</ele>
      </trkpt>
      <trkpt lat="49.12286" lon="-1.06333">
        <ele>49</ele>
      </trkpt>
      <trkpt lat="49.12278" lon="-1.06391">
        <ele>48.4</ele>
      </trkpt>
      <trkpt lat="49.12276" lon="-1.06418">
        <ele>48.1</ele>
      </trkpt>
      <trkpt lat="49.12276" lon="-1.06469">
        <ele>49.1</ele>
      </trkpt>
      <trkpt lat="49.12278" lon="-1.06522">
        <ele>50.6</ele>
      </trkpt>
      <trkpt lat="49.1228" lon="-1.06566">
        <ele>52.1</ele>
      </trkpt>
      <trkpt lat="49.12278" lon="-1.06606">
        <ele>53.1</ele>
      </trkpt>
      <trkpt lat="49.12273" lon="-1.06643">
        <ele>53.3</ele>
      </trkpt>
      <trkpt lat="49.12262" lon="-1.06682">
        <ele>52.6</ele>
      </trkpt>
      <trkpt lat="49.12262" lon="-1.06682">
        <ele>52.6</ele>
      </trkpt>
      <trkpt lat="49.12241" lon="-1.06732">
        <ele>52.6</ele>
      </trkpt>
      <trkpt lat="49.12223" lon="-1.06773">
        <ele>53.8</ele>
      </trkpt>
      <trkpt lat="49.12204" lon="-1.06807">
        <ele>53.7</ele>
      </trkpt>
      <trkpt lat="49.12193" lon="-1.06823">
        <ele>53</ele>
      </trkpt>
      <trkpt lat="49.12172" lon="-1.06843">
        <ele>50.6</ele>
      </trkpt>
      <trkpt lat="49.12142" lon="-1.06868">
        <ele>50.6</ele>
      </trkpt>
      <trkpt lat="49.12126" lon="-1.06883">
        <ele>50.3</ele>
      </trkpt>
      <trkpt lat="49.12119" lon="-1.06893">
        <ele>50</ele>
      </trkpt>
      <trkpt lat="49.12114" lon="-1.06905">
        <ele>49.7</ele>
      </trkpt>
      <trkpt lat="49.12113" lon="-1.06914">
        <ele>49.5</ele>
      </trkpt>
      <trkpt lat="49.12113" lon="-1.06924">
        <ele>49.6</ele>
      </trkpt>
      <trkpt lat="49.12114" lon="-1.06935">
        <ele>49.8</ele>
      </trkpt>
      <trkpt lat="49.1212" lon="-1.0695">
        <ele>50.4</ele>
      </trkpt>
      <trkpt lat="49.12144" lon="-1.06995">
        <ele>51.5</ele>
      </trkpt>
      <trkpt lat="49.12158" lon="-1.07022">
        <ele>51.1</ele>
      </trkpt>
      <trkpt lat="49.12173" lon="-1.07052">
        <ele>50.6</ele>
      </trkpt>
      <trkpt lat="49.12187" lon="-1.07086">
        <ele>50.5</ele>
      </trkpt>
      <trkpt lat="49.12193" lon="-1.07103">
        <ele>50.2</ele>
      </trkpt>
      <trkpt lat="49.12195" lon="-1.07119">
        <ele>49.3</ele>
      </trkpt>
      <trkpt lat="49.12196" lon="-1.07137">
        <ele>48.1</ele>
      </trkpt>
      <trkpt lat="49.12196" lon="-1.07137">
        <ele>48.1</ele>
      </trkpt>
      <trkpt lat="49.12197" lon="-1.07158">
        <ele>46.7</ele>
      </trkpt>
      <trkpt lat="49.12193" lon="-1.07193">
        <ele>45.7</ele>
      </trkpt>
      <trkpt lat="49.12187" lon="-1.07242">
        <ele>44.3</ele>
      </trkpt>
      <trkpt lat="49.12171" lon="-1.07247">
        <ele>41.8</ele>
      </trkpt>
      <trkpt lat="49.12147" lon="-1.07255">
        <ele>44.4</ele>
      </trkpt>
      <trkpt lat="49.12128" lon="-1.07263">
        <ele>46.8</ele>
      </trkpt>
      <trkpt lat="49.12121" lon="-1.07267">
        <ele>47.4</ele>
      </trkpt>
      <trkpt lat="49.12112" lon="-1.07273">
        <ele>47.8</ele>
      </trkpt>
      <trkpt lat="49.12097" lon="-1.07292">
        <ele>46.1</ele>
      </trkpt>
      <trkpt lat="49.12082" lon="-1.07308">
        <ele>43.7</ele>
      </trkpt>
      <trkpt lat="49.12062" lon="-1.0732">
        <ele>44</ele>
      </trkpt>
      <trkpt lat="49.12029" lon="-1.07332">
        <ele>46.7</ele>
      </trkpt>
      <trkpt lat="49.12026" lon="-1.07334">
        <ele>46.9</ele>
      </trkpt>
      <trkpt lat="49.12025" lon="-1.07334">
        <ele>47</ele>
      </trkpt>
      <trkpt lat="49.12022" lon="-1.07333">
        <ele>47.6</ele>
      </trkpt>
      <trkpt lat="49.12019" lon="-1.07333">
        <ele>48.1</ele>
      </trkpt>
      <trkpt lat="49.11976" lon="-1.07372">
        <ele>49.2</ele>
      </trkpt>
      <trkpt lat="49.11962" lon="-1.07388">
        <ele>49.7</ele>
      </trkpt>
      <trkpt lat="49.1195" lon="-1.07408">
        <ele>49.8</ele>
      </trkpt>
      <trkpt lat="49.11944" lon="-1.07415">
        <ele>50.3</ele>
      </trkpt>
      <trkpt lat="49.11944" lon="-1.07415">
        <ele>50.3</ele>
      </trkpt>
      <trkpt lat="49.11936" lon="-1.07441">
        <ele>50.1</ele>
      </trkpt>
      <trkpt lat="49.1193" lon="-1.07468">
        <ele>49.2</ele>
      </trkpt>
      <trkpt lat="49.11923" lon="-1.07487">
        <ele>49</ele>
      </trkpt>
      <trkpt lat="49.11912" lon="-1.07507">
        <ele>49</ele>
      </trkpt>
      <trkpt lat="49.11904" lon="-1.07511">
        <ele>49.5</ele>
      </trkpt>
      <trkpt lat="49.11886" lon="-1.0751">
        <ele>51.4</ele>
      </trkpt>
      <trkpt lat="49.11885" lon="-1.07511">
        <ele>51.4</ele>
      </trkpt>
      <trkpt lat="49.11879" lon="-1.0751">
        <ele>52.1</ele>
      </trkpt>
      <trkpt lat="49.11821" lon="-1.07478">
        <ele>58.9</ele>
      </trkpt>
      <trkpt lat="49.1181" lon="-1.07474">
        <ele>59.8</ele>
      </trkpt>
      <trkpt lat="49.11779" lon="-1.07468">
        <ele>61.9</ele>
      </trkpt>
      <trkpt lat="49.11731" lon="-1.07456">
        <ele>64.3</ele>
      </trkpt>
      <trkpt lat="49.1171" lon="-1.0745">
        <ele>64.6</ele>
      </trkpt>
      <trkpt lat="49.11684" lon="-1.07438">
        <ele>64.9</ele>
      </trkpt>
      <trkpt lat="49.11675" lon="-1.07436">
        <ele>65</ele>
      </trkpt>
      <trkpt lat="49.11667" lon="-1.07435">
        <ele>65</ele>
      </trkpt>
      <trkpt lat="49.11667" lon="-1.07481">
        <ele>65</ele>
      </trkpt>
      <trkpt lat="49.11664" lon="-1.07559">
        <ele>65.1</ele>
      </trkpt>
      <trkpt lat="49.1166" lon="-1.07698">
        <ele>66.7</ele>
      </trkpt>
    </trkseg>
  </trk>
</gpx>